Provisional Data: Meshoppen Creek near Kaiserville, PA


Please select a monitoring station.
Please select start date.
Please select start date.

Toggle Unit: C/F Toggle Unit: C/F
Sample Time Temperature (C) Temperature (F) Specific Conductivity (mS/cm) pH   Turbidity (NTU+) DO (mg/L)
8/9/2021 12:00:00 AM 22.45 72.41 0.168 7.63 3.04 7.63
8/9/2021 12:15:00 AM 22.35 72.23 0.169 7.63 3.06 7.63
8/9/2021 12:30:00 AM 22.25 72.05 0.169 7.62 3.11 7.71
8/9/2021 12:45:00 AM 22.16 71.888 0.169 7.62 3.09 7.73
8/9/2021 1:00:00 AM 22.07 71.726 0.169 7.63 3.07 7.69
8/9/2021 1:15:00 AM 21.98 71.564 0.169 7.62 3.15 7.75
8/9/2021 1:30:00 AM 21.89 71.402 0.169 7.61 3.13 7.71
8/9/2021 1:45:00 AM 21.8 71.24 0.169 7.62 3.13 7.81
8/9/2021 2:00:00 AM 21.72 71.096 0.169 7.61 3.3 7.81
8/9/2021 2:15:00 AM 21.63 70.934 0.169 7.61 3.32 7.84
8/9/2021 2:30:00 AM 21.55 70.79 0.169 7.61 3.36 7.85
8/9/2021 2:45:00 AM 21.48 70.664 0.17 7.62 3.28 7.87
8/9/2021 3:00:00 AM 21.4 70.52 0.17 7.62 3.31 7.9
8/9/2021 3:15:00 AM 21.32 70.376 0.17 7.61 3.28 7.89
8/9/2021 3:30:00 AM 21.24 70.232 0.17 7.61 3.21 7.91
8/9/2021 3:45:00 AM 21.16 70.088 0.17 7.61 3.25 7.93
8/9/2021 4:00:00 AM 21.08 69.944 0.17 7.61 3.28 7.96
8/9/2021 4:15:00 AM 21 69.8 0.17 7.61 3.36 7.98
8/9/2021 4:30:00 AM 20.93 69.674 0.17 7.61 3.38 7.99
8/9/2021 4:45:00 AM 20.85 69.53 0.17 7.61 3.34 8.01
8/9/2021 5:00:00 AM 20.78 69.404 0.17 7.61 3.39 8.02
8/9/2021 5:15:00 AM 20.7 69.26 0.17 7.61 3.39 8.04
8/9/2021 5:30:00 AM 20.63 69.134 0.17 7.61 3.42 8.04
8/9/2021 5:45:00 AM 20.56 69.008 0.17 7.61 3.47 8.07
8/9/2021 6:00:00 AM 20.5 68.9 0.17 7.61 3.45 8.08
8/9/2021 6:15:00 AM 20.43 68.774 0.17 7.6 3.38 8.09
8/9/2021 6:30:00 AM 20.36 68.648 0.17 7.61 3.37 8.13
8/9/2021 6:45:00 AM 20.31 68.558 0.169 7.62 3.24 8.17
8/9/2021 7:00:00 AM 20.26 68.468 0.169 7.63 3.24 8.24
8/9/2021 7:15:00 AM 20.22 68.396 0.169 7.64 3.22 8.31
8/9/2021 7:30:00 AM 20.19 68.342 0.169 7.65 3.19 8.38
8/9/2021 7:45:00 AM 20.18 68.324 0.169 7.66 3.21 8.49
8/9/2021 8:00:00 AM 20.19 68.342 0.169 7.7 3.23 8.6
8/9/2021 8:15:00 AM 20.22 68.396 0.168 7.73 3.18 8.7
8/9/2021 8:30:00 AM 20.26 68.468 0.168 7.77 3.3 8.82
8/9/2021 8:45:00 AM 20.34 68.612 0.168 7.81 3.11 8.92
8/9/2021 9:00:00 AM 20.44 68.792 0.167 7.85 3.12 9.03
8/9/2021 9:15:00 AM 20.56 69.008 0.167 7.91 3.17 9.13
8/9/2021 9:30:00 AM 20.71 69.278 0.167 7.96 3.12 9.21
8/9/2021 9:45:00 AM 20.87 69.566 0.167 8.03 3.07 9.29
8/9/2021 10:00:00 AM 21.05 69.89 0.166 8.11 3.11 9.36
8/9/2021 10:15:00 AM 21.24 70.232 0.166 8.17 3.08 9.42
8/9/2021 10:30:00 AM 21.46 70.628 0.166 8.26 3.03 9.48
8/9/2021 10:45:00 AM 21.69 71.042 0.165 8.33 3.05 9.54
8/9/2021 11:00:00 AM 21.92 71.456 0.165 8.43 3.01 9.58
8/9/2021 11:15:00 AM 22.16 71.888 0.165 8.52 3.07 9.63
8/9/2021 11:30:00 AM 22.4 72.32 0.165 8.6 2.98 9.62
8/9/2021 11:45:00 AM 22.64 72.752 0.164 8.65 2.95 9.62
8/9/2021 12:00:00 PM 22.89 73.202 0.164 8.71 2.97 9.62
8/9/2021 12:15:00 PM 23.13 73.634 0.164 8.77 3.01 9.59
8/9/2021 12:30:00 PM 23.4 74.12 0.164 8.82 3.06 9.57
8/9/2021 12:45:00 PM 23.68 74.624 0.163 8.87 2.88 9.53
8/9/2021 1:00:00 PM 23.89 75.002 0.163 8.9 2.91 9.47
8/9/2021 1:15:00 PM 24.21 75.578 0.163 8.93 2.88 9.44
8/9/2021 1:30:00 PM 24.48 76.064 0.163 8.97 2.97 9.38
8/9/2021 1:45:00 PM 24.74 76.532 0.163 8.99 2.95 9.32
8/9/2021 2:00:00 PM 25.02 77.036 0.162 9.01 2.89 9.29
8/9/2021 2:15:00 PM 25.3 77.54 0.162 9.02 2.96 9.21
8/9/2021 2:30:00 PM 25.56 78.008 0.162 9.04 2.87 9.15
8/9/2021 2:45:00 PM 25.8 78.44 0.162 9.06 2.81 9.08
8/9/2021 3:00:00 PM 26.01 78.818 0.162 9.08 2.77 9
8/9/2021 3:15:00 PM 26.21 79.17799 0.162 9.08 2.84 8.93
8/9/2021 3:30:00 PM 26.38 79.484 0.161 9.08 2.82 8.84
8/9/2021 3:45:00 PM 26.51 79.718 0.162 9.08 2.87 8.79
8/9/2021 4:00:00 PM 26.61 79.898 0.161 9.07 2.81 8.73
8/9/2021 4:15:00 PM 26.66 79.988 0.162 9.06 2.77 8.65
8/9/2021 4:30:00 PM 26.71 80.078 0.162 9.04 2.8 8.58
8/9/2021 4:45:00 PM 26.71 80.078 0.162 9.02 2.83 8.51
8/9/2021 5:00:00 PM 26.68 80.024 0.162 9 2.92 8.41
8/9/2021 5:15:00 PM 26.61 79.898 0.162 8.96 2.87 8.28
8/9/2021 5:30:00 PM 26.59 79.862 0.162 8.91 2.79 8.27
8/9/2021 5:45:00 PM 26.43 79.574 0.162 8.83 2.83 8.11
8/9/2021 6:00:00 PM 26.3 79.34 0.162 8.75 2.88 8.06
8/9/2021 6:15:00 PM 26.17 79.106 0.163 8.65 2.95 7.96
8/9/2021 6:30:00 PM 26.02 78.836 0.163 8.52 2.83 7.88
8/9/2021 6:45:00 PM 25.88 78.584 0.163 8.38 2.92 7.78
8/9/2021 7:00:00 PM 25.74 78.332 0.164 8.26 2.9 7.72
8/9/2021 7:15:00 PM 25.63 78.134 0.164 8.16 2.98 7.64
8/9/2021 7:30:00 PM 25.5 77.9 0.165 8.08 2.95 7.57
8/9/2021 7:45:00 PM 25.37 77.666 0.165 7.99 3.04 7.47
8/9/2021 8:00:00 PM 25.25 77.45 0.165 7.92 2.97 7.41
8/9/2021 8:15:00 PM 25.14 77.252 0.166 7.87 2.98 7.36
8/9/2021 8:30:00 PM 25.03 77.054 0.166 7.81 3.1 7.3
8/9/2021 8:45:00 PM 24.92 76.856 0.167 7.78 3.19 7.28
8/9/2021 9:00:00 PM 24.81 76.658 0.167 7.74 3.08 7.26
8/9/2021 9:15:00 PM 24.7 76.46 0.167 7.72 3.1 7.25
8/9/2021 9:30:00 PM 24.59 76.262 0.168 7.7 3.17 7.22
8/9/2021 9:45:00 PM 24.48 76.064 0.168 7.68 3.12 7.25
8/9/2021 10:00:00 PM 24.36 75.848 0.168 7.68 3.11 7.28
8/9/2021 10:15:00 PM 24.25 75.65 0.169 7.66 3.1 7.28
8/9/2021 10:30:00 PM 24.13 75.434 0.169 7.66 3.07 7.29
8/9/2021 10:45:00 PM 24.02 75.236 0.169 7.65 3.14 7.31
8/9/2021 11:00:00 PM 23.9 75.02 0.169 7.66 3.17 7.35
8/9/2021 11:15:00 PM 23.79 74.82201 0.17 7.66 3.32 7.33
8/9/2021 11:30:00 PM 23.69 74.642 0.17 7.65 3.33 7.3
8/9/2021 11:45:00 PM 23.58 74.444 0.17 7.64 3.15 7.42
8/10/2021 12:00:00 AM 23.48 74.264 0.17 7.64 3.24 7.45
8/10/2021 12:15:00 AM 23.38 74.084 0.17 7.64 3.29 7.47
8/10/2021 12:30:00 AM 23.3 73.94 0.17 7.63 3.23 7.48
8/10/2021 12:45:00 AM 23.22 73.796 0.17 7.62 3.25 7.51
8/10/2021 1:00:00 AM 23.15 73.67 0.17 7.62 3.35 7.52
8/10/2021 1:15:00 AM 23.08 73.544 0.17 7.62 3.34 7.53
8/10/2021 1:30:00 AM 23.02 73.436 0.17 7.62 3.36 7.56
8/10/2021 1:45:00 AM 22.96 73.328 0.17 7.61 3.35 7.56
8/10/2021 2:00:00 AM 22.9 73.22 0.17 7.61 3.32 7.57
8/10/2021 2:15:00 AM 22.85 73.13 0.17 7.61 3.39 7.58
8/10/2021 2:30:00 AM 22.79 73.022 0.17 7.61 3.45 7.6
8/10/2021 2:45:00 AM 22.73 72.914 0.171 7.61 3.33 7.61
8/10/2021 3:00:00 AM 22.68 72.824 0.171 7.62 3.54 7.62
8/10/2021 3:15:00 AM 22.63 72.734 0.171 7.61 3.41 7.63
8/10/2021 3:30:00 AM 22.57 72.626 0.171 7.61 3.39 7.64
8/10/2021 3:45:00 AM 22.53 72.554 0.171 7.61 3.63 7.66
8/10/2021 4:00:00 AM 22.48 72.464 0.171 7.62 3.56 7.66
8/10/2021 4:15:00 AM 22.44 72.392 0.171 7.61 3.52 7.68
8/10/2021 4:30:00 AM 22.4 72.32 0.171 7.61 3.53 7.7
8/10/2021 4:45:00 AM 22.36 72.248 0.171 7.61 3.49 7.69
8/10/2021 5:00:00 AM 22.32 72.176 0.171 7.61 3.5 7.71
8/10/2021 5:15:00 AM 22.29 72.122 0.171 7.62 3.55 7.73
8/10/2021 5:30:00 AM 22.26 72.068 0.171 7.62 3.74 7.73
8/10/2021 5:45:00 AM 22.22 71.996 0.171 7.61 3.7 7.73
8/10/2021 6:00:00 AM 22.2 71.96 0.171 7.61 3.71 7.74
8/10/2021 6:15:00 AM 22.17 71.906 0.171 7.61 3.76 7.75
8/10/2021 6:30:00 AM 22.15 71.87 0.171 7.62 3.64 7.76
8/10/2021 6:45:00 AM 22.14 71.852 0.17 7.62 3.69 7.77
8/10/2021 7:00:00 AM 22.12 71.816 0.17 7.62 3.5 7.79
8/10/2021 7:15:00 AM 22.1 71.78 0.17 7.62 3.53 7.82
8/10/2021 7:30:00 AM 22.1 71.78 0.17 7.63 3.64 7.85
8/10/2021 7:45:00 AM 22.09 71.762 0.17 7.64 3.39 7.88
8/10/2021 8:00:00 AM 22.1 71.78 0.17 7.65 3.45 7.96
8/10/2021 8:15:00 AM 22.12 71.816 0.17 7.66 3.48 8.04
8/10/2021 8:30:00 AM 22.14 71.852 0.17 7.68 3.45 8.14
8/10/2021 8:45:00 AM 22.2 71.96 0.17 7.73 3.37 8.28
8/10/2021 9:00:00 AM 22.28 72.104 0.169 7.77 3.35 8.49
8/10/2021 9:15:00 AM 22.33 72.194 0.169 7.82 3.39 8.55
8/10/2021 9:30:00 AM 22.37 72.266 0.169 7.85 3.47 8.49
8/10/2021 9:45:00 AM 22.44 72.392 0.168 7.87 3.41 8.5
8/10/2021 10:00:00 AM 22.5 72.5 0.168 7.89 3.31 8.53
8/10/2021 10:15:00 AM 22.57 72.626 0.168 7.92 3.42 8.61
8/10/2021 10:30:00 AM 22.67 72.806 0.168 7.97 3.37 8.74
8/10/2021 10:45:00 AM 22.81 73.058 0.167 8.04 3.32 8.92
8/10/2021 11:00:00 AM 22.88 73.184 0.167 8.09 3.33 8.98
8/10/2021 11:15:00 AM 22.93 73.274 0.167 8.13 3.33 8.88
8/10/2021 11:30:00 AM 23.08 73.544 0.166 8.19 3.31 8.99
8/10/2021 11:45:00 AM 23.28 73.904 0.166 8.3 3.33 9.15
8/10/2021 12:00:00 PM 23.52 74.336 0.166 8.4 3.32 9.3
8/10/2021 12:15:00 PM 23.65 74.57 0.165 8.5 3.29 9.34
8/10/2021 12:30:00 PM 23.75 74.75 0.165 8.58 3.4 9.24
8/10/2021 12:45:00 PM 23.87 74.966 0.165 8.62 3.23 9.15
8/10/2021 1:00:00 PM 24 75.2 0.165 8.67 3.38 9.12
8/10/2021 1:15:00 PM 24.13 75.434 0.164 8.73 3.27 9.13
8/10/2021 1:30:00 PM 24.23 75.614 0.164 8.76 3.29 9.16
8/10/2021 1:45:00 PM 24.4 75.92 0.164 8.79 3.22 9.2
8/10/2021 2:00:00 PM 24.51 76.118 0.164 8.82 3.19 9.18
8/10/2021 2:15:00 PM 24.55 76.19 0.163 8.85 3.16 9.12
8/10/2021 2:30:00 PM 24.71 76.478 0.163 8.9 3.23 9.15
8/10/2021 2:45:00 PM 24.92 76.856 0.163 8.92 3.14 9.16
8/10/2021 3:00:00 PM 25.17 77.306 0.163 8.96 3.1 9.14
8/10/2021 3:15:00 PM 25.33 77.594 0.163 8.99 3.18 9.12
8/10/2021 3:30:00 PM 25.41 77.738 0.163 9 3.2 9.03
8/10/2021 3:45:00 PM 25.55 77.99 0.163 9.02 3.16 8.94
8/10/2021 4:00:00 PM 25.64 78.152 0.163 9.01 3.09 8.82
8/10/2021 4:15:00 PM 25.75 78.35 0.163 9.01 3.03 8.77
8/10/2021 4:30:00 PM 25.79 78.422 0.163 8.99 3.07 8.65
8/10/2021 4:45:00 PM 25.81 78.458 0.163 8.96 3.12 8.58
8/10/2021 5:00:00 PM 25.79 78.422 0.163 8.93 3.02 8.47
8/10/2021 5:15:00 PM 25.77 78.386 0.163 8.9 3.24 8.41
8/10/2021 5:30:00 PM 25.72 78.296 0.163 8.84 3 8.34
8/10/2021 5:45:00 PM 25.65 78.17 0.163 8.79 3.04 8.26
8/10/2021 6:00:00 PM 25.59 78.062 0.164 8.73 3.05 8.24
8/10/2021 6:15:00 PM 25.54 77.972 0.164 8.68 3.08 8.25
8/10/2021 6:30:00 PM 25.48 77.864 0.158 8.62 3.14 8.21
8/10/2021 6:45:00 PM 25.42 77.756 0.164 8.55 3.15 8.11
8/10/2021 7:00:00 PM 25.37 77.666 0.164 8.48 3.06 7.99
8/10/2021 7:15:00 PM 25.31 77.558 0.165 8.4 3.06 7.93
8/10/2021 7:30:00 PM 25.25 77.45 0.165 8.31 3.1 7.84
8/10/2021 7:45:00 PM 25.17 77.306 0.165 8.2 3.11 7.71
8/10/2021 8:00:00 PM 25.07 77.126 0.166 8.1 3.09 7.59
8/10/2021 8:15:00 PM 24.97 76.946 0.166 8 3.18 7.5
8/10/2021 8:30:00 PM 24.88 76.784 0.164 7.93 3.18 7.41
8/10/2021 8:45:00 PM 24.79 76.622 0.167 7.87 3.28 7.36
8/10/2021 9:00:00 PM 24.7 76.46 0.167 7.81 3.26 7.31
8/10/2021 9:15:00 PM 24.61 76.298 0.168 7.77 3.22 7.25
8/10/2021 9:30:00 PM 24.52 76.136 0.168 7.74 3.31 7.25
8/10/2021 9:45:00 PM 24.43 75.974 0.168 7.71 3.34 7.21
8/10/2021 10:00:00 PM 24.34 75.812 0.169 7.68 3.31 7.24
8/10/2021 10:15:00 PM 24.25 75.65 0.169 7.67 3.37 7.23
8/10/2021 10:30:00 PM 24.17 75.506 0.169 7.66 3.3 7.2
8/10/2021 10:45:00 PM 24.1 75.38 0.17 7.65 3.52 7.24
8/10/2021 11:00:00 PM 24.02 75.236 0.17 7.64 3.53 7.27
8/10/2021 11:15:00 PM 23.94 75.092 0.17 7.63 3.35 7.3
8/10/2021 11:30:00 PM 23.87 74.966 0.17 7.63 3.49 7.29
8/10/2021 11:45:00 PM 23.82 74.876 0.171 7.62 3.42 7.3
8/11/2021 12:00:00 AM 23.75 74.75 0.171 7.62 3.44 7.32
8/11/2021 12:15:00 AM 23.69 74.642 0.171 7.62 3.48 7.32
8/11/2021 12:30:00 AM 23.63 74.534 0.171 7.62 3.5 7.3
8/11/2021 12:45:00 AM 23.56 74.408 0.171 7.61 3.45 7.35
8/11/2021 1:00:00 AM 23.49 74.282 0.171 7.61 3.48 7.34
8/11/2021 1:15:00 AM 23.43 74.174 0.171 7.61 3.56 7.38
8/11/2021 1:30:00 AM 23.38 74.084 0.171 7.61 3.64 7.39
8/11/2021 1:45:00 AM 23.32 73.976 0.172 7.6 3.45 7.38
8/11/2021 2:00:00 AM 23.27 73.886 0.172 7.6 3.56 7.38
8/11/2021 2:15:00 AM 23.22 73.796 0.172 7.6 3.56 7.4
8/11/2021 2:30:00 AM 23.18 73.724 0.172 7.6 3.52 7.42
8/11/2021 2:45:00 AM 23.14 73.652 0.172 7.6 3.5 7.42
8/11/2021 3:00:00 AM 23.1 73.58 0.172 7.6 3.49 7.43
8/11/2021 3:15:00 AM 23.06 73.508 0.172 7.59 3.6 7.48
8/11/2021 3:30:00 AM 23.01 73.418 0.172 7.6 3.61 7.48
8/11/2021 3:45:00 AM 22.96 73.328 0.173 7.59 3.57 7.46
8/11/2021 4:00:00 AM 22.91 73.238 0.173 7.59 3.58 7.44
8/11/2021 4:15:00 AM 22.87 73.166 0.173 7.59 3.57 7.47
8/11/2021 4:30:00 AM 22.81 73.058 0.173 7.6 3.59 7.52
8/11/2021 4:45:00 AM 22.75 72.95 0.173 7.59 3.61 7.49
8/11/2021 5:00:00 AM 22.7 72.86 0.171 7.6 3.5 7.53
8/11/2021 5:15:00 AM 22.65 72.77 0.173 7.59 3.64 7.55
8/11/2021 5:30:00 AM 22.59 72.662 0.173 7.59 3.73 7.56
8/11/2021 5:45:00 AM 22.54 72.57201 0.173 7.59 3.76 7.56
8/11/2021 6:00:00 AM 22.5 72.5 0.173 7.59 3.72 7.56
8/11/2021 6:15:00 AM 22.45 72.41 0.173 7.59 3.71 7.59
8/11/2021 6:30:00 AM 22.41 72.338 0.173 7.59 3.62 7.61
8/11/2021 6:45:00 AM 22.38 72.284 0.173 7.59 3.7 7.63
8/11/2021 7:00:00 AM 22.35 72.23 0.173 7.6 3.61 7.69
8/11/2021 7:15:00 AM 22.34 72.212 0.173 7.61 3.57 7.76
8/11/2021 7:30:00 AM 22.34 72.212 0.173 7.62 3.66 7.83
8/11/2021 7:45:00 AM 22.34 72.212 0.173 7.64 3.58 7.93
8/11/2021 8:00:00 AM 22.35 72.23 0.173 7.66 3.51 7.99
8/11/2021 8:15:00 AM 22.39 72.302 0.172 7.7 3.55 8.13
8/11/2021 8:30:00 AM 22.42 72.356 0.172 7.73 3.5 8.17
8/11/2021 8:45:00 AM 22.45 72.41 0.172 7.75 3.47 8.2
8/11/2021 9:00:00 AM 22.53 72.554 0.172 7.79 3.53 8.39
8/11/2021 9:15:00 AM 22.63 72.734 0.171 7.83 3.49 8.49
8/11/2021 9:30:00 AM 22.74 72.932 0.171 7.87 3.53 8.63
8/11/2021 9:45:00 AM 22.87 73.166 0.171 7.94 3.53 8.74
8/11/2021 10:00:00 AM 23.04 73.472 0.171 8 3.5 8.83
8/11/2021 10:15:00 AM 23.26 73.868 0.17 8.08 3.57 8.93
8/11/2021 10:30:00 AM 23.46 74.228 0.17 8.17 5.17 9.05
8/11/2021 10:45:00 AM 23.63 74.534 0.169 8.23 3.46 9.07
8/11/2021 11:00:00 AM 23.78 74.804 0.169 8.31 3.48 9.1
8/11/2021 11:15:00 AM 23.9 75.02 0.169 8.38 3.46 9.06
8/11/2021 11:30:00 AM 24.05 75.29 0.169 8.44 3.46 9.01
8/11/2021 11:45:00 AM 24.19 75.542 0.168 8.49 3.43 9.11
8/11/2021 12:00:00 PM 24.39 75.902 0.168 8.56 3.43 9.12
8/11/2021 12:15:00 PM 24.48 76.064 0.168 8.59 3.45 9.04
8/11/2021 12:30:00 PM 24.54 76.172 0.168 8.6 3.42 8.89
8/11/2021 12:45:00 PM 24.85 76.73 0.167 8.66 3.38 9.03
8/11/2021 1:00:00 PM 25.14 77.252 0.167 8.74 3.42 9.15
8/11/2021 1:15:00 PM 25.35 77.63 0.167 8.78 3.3 9.18
8/11/2021 1:30:00 PM 25.56 78.008 0.166 8.81 3.33 9.14
8/11/2021 1:45:00 PM 25.82 78.476 0.166 8.86 3.36 9.12
8/11/2021 2:00:00 PM 25.92 78.656 0.166 8.89 3.33 8.99
8/11/2021 2:15:00 PM 26.07 78.926 0.166 8.9 3.36 8.85
8/11/2021 2:30:00 PM 26.34 79.412 0.166 8.94 3.34 8.87
8/11/2021 2:45:00 PM 26.51 79.718 0.165 8.96 3.41 8.87
8/11/2021 3:00:00 PM 26.53 79.754 0.165 8.93 3.43 8.68
8/11/2021 3:15:00 PM 26.66 79.988 0.165 8.95 3.32 8.73
8/11/2021 3:30:00 PM 26.78 80.204 0.165 8.96 3.39 8.78
8/11/2021 3:45:00 PM 26.8 80.24 0.165 8.96 3.45 8.71
8/11/2021 4:00:00 PM 26.86 80.348 0.164 8.96 3.53 8.65
8/11/2021 4:15:00 PM 26.94 80.492 0.164 8.98 3.52 8.67
8/11/2021 4:30:00 PM 27.06 80.708 0.164 8.98 3.46 8.6
8/11/2021 4:45:00 PM 27.2 80.96 0.164 8.99 3.52 8.6
8/11/2021 5:00:00 PM 27.3 81.14 0.164 8.99 3.48 8.5
8/11/2021 5:15:00 PM 27.36 81.248 0.164 8.99 3.6 8.44
8/11/2021 5:30:00 PM 27.39 81.302 0.164 8.98 3.47 8.35
8/11/2021 5:45:00 PM 27.39 81.302 0.164 8.94 3.57 8.23
8/11/2021 6:00:00 PM 27.35 81.23 0.164 8.9 3.26 8.11
8/11/2021 6:15:00 PM 27.25 81.05 0.165 8.83 3.28 7.97
8/11/2021 6:30:00 PM 27.11 80.798 0.165 8.73 3.31 7.79
8/11/2021 6:45:00 PM 26.94 80.492 0.165 8.59 3.3 7.62
8/11/2021 7:00:00 PM 26.78 80.204 0.166 8.45 3.39 7.5
8/11/2021 7:15:00 PM 26.63 79.934 0.166 8.3 3.43 7.41
8/11/2021 7:30:00 PM 26.49 79.682 0.167 8.16 3.3 7.34
8/11/2021 7:45:00 PM 26.35 79.43 0.167 8.04 3.4 7.28
8/11/2021 8:00:00 PM 26.23 79.214 0.168 7.96 3.38 7.2
8/11/2021 8:15:00 PM 26.12 79.016 0.168 7.89 3.43 7.14
8/11/2021 8:30:00 PM 26.02 78.836 0.168 7.83 3.57 7.07
8/11/2021 8:45:00 PM 25.92 78.656 0.168 7.79 3.56 7.07
8/11/2021 9:00:00 PM 25.82 78.476 0.169 7.76 3.63 7.04
8/11/2021 9:15:00 PM 25.71 78.278 0.169 7.72 3.54 7.02
8/11/2021 9:30:00 PM 25.6 78.08 0.169 7.7 3.57 7.01
8/11/2021 9:45:00 PM 25.5 77.9 0.169 7.69 3.61 7.01
8/11/2021 10:00:00 PM 25.41 77.738 0.17 7.67 3.55 7.02
8/11/2021 10:15:00 PM 25.31 77.558 0.17 7.66 3.7 7.04
8/11/2021 10:30:00 PM 25.22 77.396 0.17 7.64 3.66 7.04
8/11/2021 10:45:00 PM 25.13 77.234 0.171 7.64 3.78 7.05
8/11/2021 11:00:00 PM 25.05 77.09 0.171 7.63 3.69 7.05
8/11/2021 11:15:00 PM 24.96 76.92799 0.171 7.62 3.62 7.07
8/11/2021 11:30:00 PM 24.86 76.748 0.172 7.62 3.8 7.09
8/11/2021 11:45:00 PM 24.78 76.604 0.172 7.62 3.71 7.09
8/12/2021 12:00:00 AM 24.69 76.442 0.172 7.62 3.66 7.13
8/12/2021 12:15:00 AM 24.59 76.262 0.172 7.62 3.72 7.14
8/12/2021 12:30:00 AM 24.49 76.082 0.172 7.6 3.8 7.15
8/12/2021 12:45:00 AM 24.39 75.902 0.173 7.61 3.7 7.17
8/12/2021 1:00:00 AM 24.3 75.74 0.173 7.6 3.81 7.21
8/12/2021 1:15:00 AM 24.21 75.578 0.173 7.61 3.81 7.2
8/12/2021 1:30:00 AM 24.12 75.416 0.173 7.6 3.81 7.2
8/12/2021 1:45:00 AM 24.05 75.29 0.173 7.61 3.91 7.21
8/12/2021 2:00:00 AM 23.97 75.146 0.173 7.6 3.87 7.24
8/12/2021 2:15:00 AM 23.9 75.02 0.173 7.6 3.94 7.27
8/12/2021 2:30:00 AM 23.82 74.876 0.173 7.6 3.97 7.29
8/12/2021 2:45:00 AM 23.75 74.75 0.173 7.6 3.89 7.29
8/12/2021 3:00:00 AM 23.69 74.642 0.173 7.6 3.87 7.31
8/12/2021 3:15:00 AM 23.63 74.534 0.173 7.6 3.99 7.33
8/12/2021 3:30:00 AM 23.57 74.426 0.174 7.6 3.98 7.32
8/12/2021 3:45:00 AM 23.51 74.318 0.174 7.59 3.97 7.36
8/12/2021 4:00:00 AM 23.45 74.21 0.174 7.6 3.9 7.37
8/12/2021 4:15:00 AM 23.4 74.12 0.174 7.6 3.96 7.38
8/12/2021 4:30:00 AM 23.34 74.012 0.174 7.59 3.93 7.4
8/12/2021 4:45:00 AM 23.28 73.904 0.174 7.59 4.02 7.39
8/12/2021 5:00:00 AM 23.22 73.796 0.174 7.59 3.9 7.43
8/12/2021 5:15:00 AM 23.17 73.706 0.174 7.59 3.89 7.41
8/12/2021 5:30:00 AM 23.1 73.58 0.174 7.59 3.91 7.45
8/12/2021 5:45:00 AM 23.04 73.472 0.174 7.59 3.96 7.46
8/12/2021 6:00:00 AM 22.98 73.364 0.174 7.59 4.19 7.48
8/12/2021 6:15:00 AM 22.93 73.274 0.174 7.59 3.93 7.49
8/12/2021 6:30:00 AM 22.86 73.148 0.174 7.59 3.93 7.53
8/12/2021 6:45:00 AM 22.81 73.058 0.174 7.59 3.89 7.56
8/12/2021 7:00:00 AM 22.76 72.968 0.174 7.6 3.92 7.63
8/12/2021 7:15:00 AM 22.73 72.914 0.174 7.61 3.98 7.68
8/12/2021 7:30:00 AM 22.7 72.86 0.174 7.63 3.83 7.78
8/12/2021 7:45:00 AM 22.69 72.842 0.174 7.64 4.06 7.87
8/12/2021 8:00:00 AM 22.7 72.86 0.174 7.66 3.8 7.95
8/12/2021 8:15:00 AM 22.72 72.896 0.173 7.69 3.71 8.07
8/12/2021 8:30:00 AM 22.76 72.968 0.173 7.71 3.82 8.18
8/12/2021 8:45:00 AM 22.82 73.076 0.173 7.75 3.81 8.3
8/12/2021 9:00:00 AM 22.91 73.238 0.173 7.79 3.86 8.39
8/12/2021 9:15:00 AM 23.04 73.472 0.172 7.84 3.93 8.49
8/12/2021 9:30:00 AM 23.18 73.724 0.172 7.89 3.85 8.6
8/12/2021 9:45:00 AM 23.34 74.012 0.172 7.95 3.79 8.68
8/12/2021 10:00:00 AM 23.53 74.354 0.172 8 3.84 8.78
8/12/2021 10:15:00 AM 23.74 74.732 0.171 8.07 3.8 8.86
8/12/2021 10:30:00 AM 23.98 75.164 0.171 8.14 3.71 8.95
8/12/2021 10:45:00 AM 24.24 75.632 0.171 8.21 3.84 8.96
8/12/2021 11:00:00 AM 24.41 75.938 0.17 8.28 3.83 8.95
8/12/2021 11:15:00 AM 24.74 76.532 0.17 8.36 3.85 9.03
8/12/2021 11:30:00 AM 24.97 76.946 0.17 8.45 3.82 9.08
8/12/2021 11:45:00 AM 25.28 77.504 0.17 8.52 3.89 9.11
8/12/2021 12:00:00 PM 25.43 77.774 0.169 8.58 4.04 9.12
8/12/2021 12:15:00 PM 25.61 78.098 0.169 8.64 4.14 9.12
8/12/2021 12:30:00 PM 25.9 78.62 0.169 8.71 4.01 9.09
8/12/2021 12:45:00 PM 26.11 78.998 0.168 8.75 4.19 9.1
8/12/2021 1:00:00 PM 26.32 79.376 0.168 8.81 4.23 9.06
8/12/2021 1:15:00 PM 26.47 79.646 0.168 8.84 4.09 8.99
8/12/2021 1:30:00 PM 26.63 79.934 0.168 8.86 3.93 8.93
8/12/2021 1:45:00 PM 26.73 80.114 0.168 8.88 3.9 8.88
8/12/2021 2:00:00 PM 26.93 80.474 0.167 8.91 3.85 8.92
8/12/2021 2:15:00 PM 26.99 80.582 0.167 8.91 3.72 8.79
8/12/2021 2:30:00 PM 27.01 80.618 0.167 8.89 3.63 8.67
8/12/2021 2:45:00 PM 27.01 80.618 0.165 8.9 5.04 8.57
8/12/2021 3:00:00 PM 26.81 80.258 0.164 8.79 6.03 8.09
8/12/2021 3:15:00 PM 26.71 80.078 0.165 8.68 4.36 7.79
8/12/2021 3:30:00 PM 26.61 79.898 0.165 8.55 3.99 7.61
8/12/2021 3:45:00 PM 26.46 79.628 0.165 8.41 4 7.54
8/12/2021 4:00:00 PM 26.35 79.43 0.164 8.29 3.88 7.66
8/12/2021 4:15:00 PM 26.36 79.448 0.164 8.26 3.88 7.94
8/12/2021 4:30:00 PM 26.27 79.286 0.165 8.23 3.83 7.97
8/12/2021 4:45:00 PM 26.25 79.25 0.165 8.23 3.85 8.1
8/12/2021 5:00:00 PM 26.38 79.484 0.164 8.31 3.95 8.22
8/12/2021 5:15:00 PM 26.45 79.61 0.164 8.35 3.94 8.23
8/12/2021 5:30:00 PM 26.47 79.646 0.164 8.38 3.92 8.14
8/12/2021 5:45:00 PM 26.48 79.664 0.164 8.4 3.93 8.08
8/12/2021 6:00:00 PM 26.45 79.61 0.165 8.38 3.97 8.04
8/12/2021 6:15:00 PM 26.38 79.484 0.165 8.33 3.96 7.94
8/12/2021 6:30:00 PM 26.27 79.286 0.166 8.27 3.96 7.84
8/12/2021 6:45:00 PM 26.13 79.034 0.167 8.19 3.96 7.76
8/12/2021 7:00:00 PM 25.98 78.764 0.167 8.1 3.73 7.65
8/12/2021 7:15:00 PM 25.85 78.53 0.168 8.03 3.74 7.57
8/12/2021 7:30:00 PM 25.73 78.314 0.167 7.95 3.68 7.45
8/12/2021 7:45:00 PM 25.6 78.08 0.166 7.9 3.6 7.34
8/12/2021 8:00:00 PM 25.49 77.882 0.166 7.83 3.75 7.29
8/12/2021 8:15:00 PM 25.38 77.684 0.169 7.8 3.73 7.21
8/12/2021 8:30:00 PM 25.29 77.522 0.169 7.75 3.72 7.19
8/12/2021 8:45:00 PM 25.2 77.36 0.17 7.73 3.78 7.11
8/12/2021 9:00:00 PM 25.12 77.216 0.168 7.7 3.76 7.12
8/12/2021 9:15:00 PM 25.04 77.07201 0.17 7.67 3.7 7.11
8/12/2021 9:30:00 PM 24.95 76.91 0.17 7.66 3.76 7.11
8/12/2021 9:45:00 PM 24.71 76.478 0.162 7.67 11.43 7.28
8/12/2021 10:00:00 PM 24.66 76.388 0.164 7.64 13.3 7.22
8/12/2021 10:15:00 PM 24.61 76.298 0.165 7.62 5.51 7.21
8/12/2021 10:30:00 PM 24.52 76.136 0.165 7.63 5.4 7.26
8/12/2021 10:45:00 PM 24.42 75.956 0.164 7.62 5.14 7.26
8/12/2021 11:00:00 PM 24.34 75.812 0.164 7.62 4.98 7.26
8/12/2021 11:15:00 PM 24.26 75.668 0.164 7.6 4.79 7.25
8/12/2021 11:30:00 PM 24.17 75.506 0.165 7.59 4.84 7.24
8/12/2021 11:45:00 PM 24.07 75.326 0.165 7.59 4.93 7.28
8/13/2021 12:00:00 AM 23.99 75.182 0.165 7.59 4.93 7.3
8/13/2021 12:15:00 AM 23.91 75.038 0.166 7.59 4.81 7.31
8/13/2021 12:30:00 AM 23.84 74.912 0.167 7.58 4.9 7.36
8/13/2021 12:45:00 AM 23.78 74.804 0.167 7.6 4.87 7.37
8/13/2021 1:00:00 AM 23.72 74.696 0.168 7.58 4.77 7.39
8/13/2021 1:15:00 AM 23.67 74.606 0.169 7.58 4.91 7.44
8/13/2021 1:30:00 AM 23.61 74.498 0.169 7.59 4.86 7.48
8/13/2021 1:45:00 AM 23.56 74.408 0.169 7.6 5.03 7.51
8/13/2021 2:00:00 AM 23.5 74.3 0.169 7.61 5 7.54
8/13/2021 2:15:00 AM 23.45 74.21 0.169 7.61 4.97 7.55
8/13/2021 2:30:00 AM 23.39 74.102 0.169 7.61 4.79 7.57
8/13/2021 2:45:00 AM 23.35 74.03 0.169 7.61 4.99 7.59
8/13/2021 3:00:00 AM 23.29 73.922 0.169 7.61 4.66 7.61
8/13/2021 3:15:00 AM 23.24 73.832 0.169 7.6 4.68 7.62
8/13/2021 3:30:00 AM 23.19 73.742 0.169 7.61 4.62 7.63
8/13/2021 3:45:00 AM 23.13 73.634 0.17 7.61 4.68 7.64
8/13/2021 4:00:00 AM 23.08 73.544 0.171 7.62 4.64 7.65
8/13/2021 4:15:00 AM 23.02 73.436 0.172 7.62 4.64 7.66
8/13/2021 4:30:00 AM 22.95 73.31 0.174 7.6 4.76 7.68
8/13/2021 4:45:00 AM 22.89 73.202 0.176 7.62 4.56 7.69
8/13/2021 5:00:00 AM 22.82 73.076 0.177 7.61 4.63 7.69
8/13/2021 5:15:00 AM 22.75 72.95 0.177 7.61 4.63 7.71
8/13/2021 5:30:00 AM 22.68 72.824 0.177 7.62 4.57 7.73
8/13/2021 5:45:00 AM 22.63 72.734 0.176 7.61 4.63 7.73
8/13/2021 6:00:00 AM 22.58 72.644 0.176 7.61 4.56 7.74
8/13/2021 6:15:00 AM 22.54 72.57201 0.175 7.61 4.55 7.74
8/13/2021 6:30:00 AM 22.49 72.482 0.174 7.61 4.61 7.76
8/13/2021 6:45:00 AM 22.45 72.41 0.173 7.61 4.56 7.8
8/13/2021 7:00:00 AM 22.42 72.356 0.173 7.62 4.45 7.82
8/13/2021 7:15:00 AM 22.39 72.302 0.172 7.61 4.46 7.85
8/13/2021 7:30:00 AM 22.37 72.266 0.171 7.63 4.36 7.92
8/13/2021 7:45:00 AM 22.36 72.248 0.171 7.64 4.4 7.96
8/13/2021 8:00:00 AM 22.37 72.266 0.171 7.65 4.45 8.06
8/13/2021 8:15:00 AM 22.38 72.284 0.17 7.67 4.36 8.16
8/13/2021 8:30:00 AM 22.41 72.338 0.17 7.7 4.39 8.23
8/13/2021 8:45:00 AM 22.45 72.41 0.17 7.73 4.26 8.37
8/13/2021 9:00:00 AM 22.5 72.5 0.17 7.76 4.24 8.46
8/13/2021 9:15:00 AM 22.54 72.57201 0.17 7.78 4.21 8.49
8/13/2021 9:30:00 AM 22.64 72.752 0.17 7.81 4.16 8.61
8/13/2021 9:45:00 AM 22.77 72.986 0.171 7.89 4.04 8.7
8/13/2021 10:00:00 AM 22.93 73.274 0.171 7.92 4.14 8.79
8/13/2021 10:15:00 AM 23.09 73.562 0.171 7.96 3.99 8.8
8/13/2021 10:30:00 AM 23.3 73.94 0.171 8.01 4 8.87
8/13/2021 10:45:00 AM 23.54 74.372 0.171 8.07 4 8.91
8/13/2021 11:00:00 AM 23.8 74.84 0.171 8.13 3.85 8.93
8/13/2021 11:15:00 AM 24.07 75.326 0.171 8.18 3.94 8.97
8/13/2021 11:30:00 AM 24.32 75.776 0.17 8.25 3.91 9
8/13/2021 11:45:00 AM 24.6 76.28 0.17 8.31 3.94 9.02
8/13/2021 12:00:00 PM 24.87 76.766 0.17 8.38 3.95 9
8/13/2021 12:15:00 PM 25.13 77.234 0.17 8.42 4.01 8.95
8/13/2021 12:30:00 PM 25.39 77.702 0.169 8.47 3.97 8.92
8/13/2021 12:45:00 PM 25.68 78.224 0.169 8.51 3.94 8.88
8/13/2021 1:00:00 PM 25.98 78.764 0.169 8.55 3.88 8.84
8/13/2021 1:15:00 PM 26.24 79.232 0.168 8.6 3.78 8.79
8/13/2021 1:30:00 PM 26.53 79.754 0.168 8.62 3.84 8.72
8/13/2021 1:45:00 PM 26.84 80.312 0.168 8.65 3.78 8.67
8/13/2021 2:00:00 PM 27.14 80.852 0.167 8.67 3.78 8.63
8/13/2021 2:15:00 PM 27.43 81.374 0.167 8.69 3.84 8.54
8/13/2021 2:30:00 PM 27.68 81.824 0.167 8.71 3.81 8.48
8/13/2021 2:45:00 PM 27.86 82.148 0.166 8.71 3.79 8.4
8/13/2021 3:00:00 PM 28.09 82.562 0.166 8.72 3.77 8.36
8/13/2021 3:15:00 PM 28.26 82.868 0.166 8.71 3.82 8.32
8/13/2021 3:30:00 PM 28.4 83.12 0.166 8.7 3.86 8.25
8/13/2021 3:45:00 PM 28.53 83.354 0.166 8.7 3.85 8.21
8/13/2021 4:00:00 PM 28.63 83.534 0.166 8.68 3.91 8.15
8/13/2021 4:15:00 PM 28.69 83.642 0.166 8.67 3.85 8.09
8/13/2021 4:30:00 PM 28.72 83.696 0.166 8.65 3.91 8.05
8/13/2021 4:45:00 PM 28.73 83.714 0.166 8.62 3.89 8
8/13/2021 5:00:00 PM 28.66 83.588 0.166 8.56 3.92 7.91
8/13/2021 5:15:00 PM 28.59 83.462 0.167 8.53 4.01 7.88
8/13/2021 5:30:00 PM 28.39 83.102 0.167 8.43 3.91 7.7
8/13/2021 5:45:00 PM 28.15 82.67 0.168 8.28 4 7.46
8/13/2021 6:00:00 PM 27.85 82.13 0.167 8.15 4.34 7.34
8/13/2021 6:15:00 PM 27.62 81.716 0.166 8.02 4.33 7.23
8/13/2021 6:30:00 PM 27.4 81.32 0.166 7.95 4.25 7.19
8/13/2021 6:45:00 PM 27.21 80.978 0.166 7.89 4.28 7.16
8/13/2021 7:00:00 PM 27.07 80.726 0.167 7.85 4.32 7.22
8/13/2021 7:15:00 PM 26.94 80.492 0.167 7.82 4.25 7.26
8/13/2021 7:30:00 PM 26.8 80.24 0.167 7.8 4.23 7.27
8/13/2021 7:45:00 PM 26.68 80.024 0.168 7.79 4.27 7.26
8/13/2021 8:00:00 PM 26.56 79.808 0.168 7.77 4.28 7.26
8/13/2021 8:15:00 PM 26.42 79.556 0.17 7.76 4.46 7.24
8/13/2021 8:30:00 PM 26.28 79.304 0.17 7.74 4.52 7.23
8/13/2021 8:45:00 PM 26.14 79.052 0.171 7.74 4.53 7.22
8/13/2021 9:00:00 PM 25.99 78.782 0.171 7.71 4.52 7.23
8/13/2021 9:15:00 PM 25.84 78.512 0.171 7.69 4.54 7.24
8/13/2021 9:30:00 PM 25.7 78.26 0.171 7.69 4.62 7.26
8/13/2021 9:45:00 PM 25.55 77.99 0.171 7.68 4.61 7.28
8/13/2021 10:00:00 PM 25.42 77.756 0.171 7.67 4.63 7.3
8/13/2021 10:15:00 PM 25.28 77.504 0.171 7.68 4.8 7.32
8/13/2021 10:30:00 PM 25.15 77.27 0.17 7.66 4.75 7.35
8/13/2021 10:45:00 PM 25.04 77.07201 0.17 7.66 4.68 7.36
8/13/2021 11:00:00 PM 24.93 76.874 0.17 7.65 4.76 7.39
8/13/2021 11:15:00 PM 24.82 76.676 0.17 7.66 4.75 7.4
8/13/2021 11:30:00 PM 24.73 76.514 0.17 7.65 4.85 7.41
8/13/2021 11:45:00 PM 24.64 76.352 0.17 7.64 4.72 7.42
8/14/2021 12:00:00 AM 24.56 76.208 0.169 7.63 4.84 7.44
8/14/2021 12:15:00 AM 24.49 76.082 0.169 7.65 4.86 7.46
8/14/2021 12:30:00 AM 24.42 75.956 0.169 7.65 4.85 7.48
8/14/2021 12:45:00 AM 24.35 75.83 0.169 7.65 4.82 7.49
8/14/2021 1:00:00 AM 24.29 75.722 0.169 7.64 4.85 7.48
8/14/2021 1:15:00 AM 24.22 75.596 0.169 7.65 4.77 7.5
8/14/2021 1:30:00 AM 24.16 75.488 0.169 7.64 4.75 7.51
8/14/2021 1:45:00 AM 24.09 75.362 0.169 7.64 4.97 7.53
8/14/2021 2:00:00 AM 24.03 75.254 0.169 7.63 4.95 7.53
8/14/2021 2:15:00 AM 23.97 75.146 0.169 7.63 4.89 7.56
8/14/2021 2:30:00 AM 23.91 75.038 0.169 7.63 5.01 7.57
8/14/2021 2:45:00 AM 23.85 74.93 0.169 7.63 4.96 7.58
8/14/2021 3:00:00 AM 23.79 74.82201 0.168 7.62 5.06 7.59
8/14/2021 3:15:00 AM 23.72 74.696 0.168 7.63 5.09 7.61
8/14/2021 3:30:00 AM 23.66 74.588 0.168 7.64 4.92 7.62
8/14/2021 3:45:00 AM 23.6 74.48 0.169 7.63 5.07 7.62
8/14/2021 4:00:00 AM 23.55 74.39 0.169 7.63 5.05 7.65
8/14/2021 4:15:00 AM 23.5 74.3 0.169 7.62 5.09 7.65
8/14/2021 4:30:00 AM 23.45 74.21 0.169 7.64 5.06 7.66
8/14/2021 4:45:00 AM 23.4 74.12 0.169 7.64 5.02 7.66
8/14/2021 5:00:00 AM 23.36 74.048 0.169 7.63 5.15 7.67
8/14/2021 5:15:00 AM 23.32 73.976 0.169 7.64 5.06 7.69
8/14/2021 5:30:00 AM 23.27 73.886 0.17 7.64 5.29 7.68
8/14/2021 5:45:00 AM 23.23 73.814 0.17 7.64 5.35 7.69
8/14/2021 6:00:00 AM 23.19 73.742 0.17 7.63 5.32 7.73
8/14/2021 6:15:00 AM 23.16 73.688 0.17 7.63 5.32 7.73
8/14/2021 6:30:00 AM 23.12 73.616 0.17 7.63 5.53 7.74
8/14/2021 6:45:00 AM 23.09 73.562 0.17 7.63 5.39 7.76
8/14/2021 7:00:00 AM 23.06 73.508 0.17 7.63 5.34 7.8
8/14/2021 7:15:00 AM 23.04 73.472 0.17 7.64 5.23 7.84
8/14/2021 7:30:00 AM 23.03 73.454 0.17 7.66 5.18 7.87
8/14/2021 7:45:00 AM 23.02 73.436 0.17 7.65 5.15 7.93
8/14/2021 8:00:00 AM 23.03 73.454 0.17 7.68 5.11 7.99
8/14/2021 8:15:00 AM 23.05 73.49 0.17 7.7 5.16 8.06
8/14/2021 8:30:00 AM 23.06 73.508 0.17 7.71 5.1 8.08
8/14/2021 8:45:00 AM 23.09 73.562 0.17 7.72 5.08 8.13
8/14/2021 9:00:00 AM 23.14 73.652 0.17 7.76 4.96 8.23
8/14/2021 9:15:00 AM 23.18 73.724 0.171 7.78 5.09 8.28
8/14/2021 9:30:00 AM 23.26 73.868 0.17 7.81 4.92 8.37
8/14/2021 9:45:00 AM 23.3 73.94 0.171 7.84 5 8.39
8/14/2021 10:00:00 AM 23.33 73.994 0.171 7.86 4.84 8.31
8/14/2021 10:15:00 AM 23.34 74.012 0.171 7.85 4.88 8.2
8/14/2021 10:30:00 AM 23.32 73.976 0.171 7.85 4.83 8.19
8/14/2021 10:45:00 AM 23.32 73.976 0.171 7.86 4.92 8.32
8/14/2021 11:00:00 AM 23.32 73.976 0.171 7.89 4.83 8.45
8/14/2021 11:15:00 AM 23.3 73.94 0.171 7.91 4.84 8.44
8/14/2021 11:30:00 AM 23.33 73.994 0.171 7.93 4.86 8.48
8/14/2021 11:45:00 AM 23.32 73.976 0.171 7.95 4.72 8.41
8/14/2021 12:00:00 PM 23.33 73.994 0.171 7.95 4.71 8.39
8/14/2021 12:15:00 PM 23.35 74.03 0.171 7.98 4.66 8.53
8/14/2021 12:30:00 PM 23.37 74.066 0.171 8.02 4.75 8.64
8/14/2021 12:45:00 PM 23.43 74.174 0.171 8.07 4.64 8.77
8/14/2021 1:00:00 PM 23.44 74.192 0.171 8.11 4.6 8.77
8/14/2021 1:15:00 PM 23.46 74.228 0.171 8.13 4.59 8.69
8/14/2021 1:30:00 PM 23.51 74.318 0.171 8.15 4.64 8.67
8/14/2021 1:45:00 PM 23.55 74.39 0.17 8.17 4.62 8.74
8/14/2021 2:00:00 PM 23.61 74.498 0.17 8.23 4.57 8.84
8/14/2021 2:15:00 PM 23.61 74.498 0.17 8.26 4.54 8.83
8/14/2021 2:30:00 PM 23.68 74.624 0.17 8.31 4.59 8.91
8/14/2021 2:45:00 PM 23.72 74.696 0.17 8.35 4.58 8.89
8/14/2021 3:00:00 PM 23.76 74.768 0.17 8.38 4.5 8.88
8/14/2021 3:15:00 PM 23.81 74.858 0.169 8.41 4.58 8.9
8/14/2021 3:30:00 PM 23.9 75.02 0.169 8.44 4.65 8.92
8/14/2021 3:45:00 PM 24.02 75.236 0.169 8.46 4.5 8.87
8/14/2021 4:00:00 PM 24.18 75.524 0.169 8.49 4.58 8.83
8/14/2021 4:15:00 PM 24.31 75.758 0.169 8.51 4.7 8.78
8/14/2021 4:30:00 PM 24.44 75.992 0.169 8.51 4.57 8.73
8/14/2021 4:45:00 PM 24.53 76.154 0.169 8.52 4.68 8.67
8/14/2021 5:00:00 PM 24.58 76.244 0.169 8.5 4.66 8.6
8/14/2021 5:15:00 PM 24.55 76.19 0.169 8.47 4.57 8.56
8/14/2021 5:30:00 PM 24.48 76.064 0.169 8.43 4.65 8.5
8/14/2021 5:45:00 PM 24.36 75.848 0.169 8.38 4.68 8.43
8/14/2021 6:00:00 PM 24.23 75.614 0.169 8.31 4.66 8.34
8/14/2021 6:15:00 PM 24.09 75.362 0.17 8.25 4.63 8.27
8/14/2021 6:30:00 PM 23.94 75.092 0.17 8.17 4.6 8.2
8/14/2021 6:45:00 PM 23.8 74.84 0.17 8.1 4.73 8.14
8/14/2021 7:00:00 PM 23.66 74.588 0.17 8.04 4.72 8.06
8/14/2021 7:15:00 PM 23.52 74.336 0.17 7.98 4.75 8
8/14/2021 7:30:00 PM 23.37 74.066 0.17 7.94 4.7 7.95
8/14/2021 7:45:00 PM 23.23 73.814 0.17 7.9 4.84 7.91
8/14/2021 8:00:00 PM 23.1 73.58 0.171 7.86 4.84 7.87
8/14/2021 8:15:00 PM 22.98 73.364 0.171 7.82 4.9 7.83
8/14/2021 8:30:00 PM 22.87 73.166 0.171 7.8 5.03 7.81
8/14/2021 8:45:00 PM 22.76 72.968 0.171 7.78 5.06 7.81
8/14/2021 9:00:00 PM 22.65 72.77 0.171 7.75 4.88 7.79
8/14/2021 9:15:00 PM 22.53 72.554 0.171 7.73 4.82 7.82
8/14/2021 9:30:00 PM 22.41 72.338 0.171 7.72 4.95 7.83
8/14/2021 9:45:00 PM 22.29 72.122 0.171 7.71 4.87 7.81
8/14/2021 10:00:00 PM 22.16 71.888 0.171 7.7 4.95 7.85
8/14/2021 10:15:00 PM 22.03 71.654 0.171 7.69 4.95 7.87
8/14/2021 10:30:00 PM 21.91 71.438 0.172 7.69 4.97 7.91
8/14/2021 10:45:00 PM 21.78 71.204 0.172 7.68 4.92 7.91
8/14/2021 11:00:00 PM 21.66 70.988 0.172 7.68 5.01 7.94
8/14/2021 11:15:00 PM 21.54 70.772 0.172 7.68 5.07 7.95
8/14/2021 11:30:00 PM 21.42 70.556 0.172 7.67 4.84 7.98
8/14/2021 11:45:00 PM 21.31 70.358 0.17 7.67 4.88 8.02
8/15/2021 12:00:00 AM 21.2 70.16 0.172 7.67 4.86 8.04
8/15/2021 12:15:00 AM 21.1 69.98 0.171 7.65 4.48 8.04
8/15/2021 12:30:00 AM 21 69.8 0.171 7.66 4.51 8.06
8/15/2021 12:45:00 AM 20.91 69.638 0.171 7.65 4.54 8.1
8/15/2021 1:00:00 AM 20.82 69.476 0.171 7.66 4.52 8.1
8/15/2021 1:15:00 AM 20.73 69.314 0.171 7.65 4.52 8.1
8/15/2021 1:30:00 AM 20.65 69.17 0.171 7.66 4.5 8.15
8/15/2021 1:45:00 AM 20.57 69.026 0.171 7.66 4.62 8.18
8/15/2021 2:00:00 AM 20.48 68.864 0.171 7.66 4.67 8.16
8/15/2021 2:15:00 AM 20.39 68.702 0.171 7.65 4.56 8.18
8/15/2021 2:30:00 AM 20.3 68.54 0.171 7.65 4.58 8.19
8/15/2021 2:45:00 AM 20.22 68.396 0.171 7.65 4.6 8.21
8/15/2021 3:00:00 AM 20.14 68.252 0.166 7.64 4.66 8.24
8/15/2021 3:15:00 AM 20.07 68.126 0.172 7.65 4.6 8.25
8/15/2021 3:30:00 AM 20.01 68.018 0.166 7.64 4.64 8.28
8/15/2021 3:45:00 AM 19.95 67.91 0.172 7.64 4.6 8.31
8/15/2021 4:00:00 AM 19.89 67.802 0.172 7.65 4.67 8.31
8/15/2021 4:15:00 AM 19.85 67.73 0.172 7.65 4.65 8.31
8/15/2021 4:30:00 AM 19.8 67.64 0.171 7.65 4.7 8.34
8/15/2021 4:45:00 AM 19.74 67.532 0.171 7.65 4.98 8.33
8/15/2021 5:00:00 AM 19.66 67.388 0.164 7.65 4.72 8.35
8/15/2021 5:15:00 AM 19.58 67.244 0.172 7.65 4.77 8.36
8/15/2021 5:30:00 AM 19.5 67.1 0.172 7.65 4.76 8.4
8/15/2021 5:45:00 AM 19.41 66.938 0.172 7.66 4.82 8.4
8/15/2021 6:00:00 AM 19.33 66.794 0.172 7.66 4.86 8.41
8/15/2021 6:15:00 AM 19.25 66.65 0.172 7.66 4.81 8.44
8/15/2021 6:30:00 AM 19.17 66.506 0.172 7.66 4.85 8.47
8/15/2021 6:45:00 AM 19.1 66.38 0.171 7.67 4.74 8.5
8/15/2021 7:00:00 AM 19.05 66.29 0.172 7.67 4.9 8.53
8/15/2021 7:15:00 AM 19.02 66.236 0.171 7.68 4.75 8.59
8/15/2021 7:30:00 AM 18.98 66.164 0.171 7.69 4.69 8.67
8/15/2021 7:45:00 AM 18.96 66.128 0.171 7.71 4.71 8.77
8/15/2021 8:00:00 AM 18.94 66.092 0.171 7.73 4.73 8.81
8/15/2021 8:15:00 AM 18.94 66.092 0.171 7.74 4.72 8.91
8/15/2021 8:30:00 AM 18.95 66.11 0.171 7.77 4.62 9.02
8/15/2021 8:45:00 AM 18.98 66.164 0.171 7.8 4.66 9.11
8/15/2021 9:00:00 AM 19 66.2 0.17 7.84 4.62 9.18
8/15/2021 9:15:00 AM 19.06 66.308 0.17 7.86 4.57 9.24
8/15/2021 9:30:00 AM 19.16 66.488 0.17 7.91 4.56 9.34
8/15/2021 9:45:00 AM 19.28 66.704 0.17 7.94 4.59 9.43
8/15/2021 10:00:00 AM 19.39 66.902 0.17 7.98 4.43 9.46
8/15/2021 10:15:00 AM 19.49 67.082 0.169 8.03 4.46 9.52
8/15/2021 10:30:00 AM 19.6 67.28 0.169 8.06 4.46 9.56
8/15/2021 10:45:00 AM 19.78 67.604 0.169 8.12 4.49 9.6
8/15/2021 11:00:00 AM 20 68 0.169 8.16 4.48 9.63
8/15/2021 11:15:00 AM 20.13 68.234 0.169 8.21 4.44 9.63
8/15/2021 11:30:00 AM 20.43 68.774 0.169 8.25 4.43 9.66
8/15/2021 11:45:00 AM 20.67 69.206 0.169 8.3 4.41 9.62
8/15/2021 12:00:00 PM 20.93 69.674 0.169 8.33 4.43 9.58
8/15/2021 12:15:00 PM 21.22 70.196 0.169 8.36 4.47 9.52
8/15/2021 12:30:00 PM 21.48 70.664 0.168 8.4 4.37 9.47
8/15/2021 12:45:00 PM 21.78 71.204 0.168 8.43 4.35 9.44
8/15/2021 1:00:00 PM 22.11 71.798 0.168 8.47 4.35 9.41
8/15/2021 1:15:00 PM 22.41 72.338 0.168 8.5 4.81 9.36
8/15/2021 1:30:00 PM 22.64 72.752 0.168 8.54 3.61 9.34
8/15/2021 1:45:00 PM 22.86 73.148 0.168 8.58 3.52 9.29
8/15/2021 2:00:00 PM 23.1 73.58 0.168 8.6 3.43 9.23
8/15/2021 2:15:00 PM 23.4 74.12 0.167 8.62 3.44 9.16
8/15/2021 2:30:00 PM 23.65 74.57 0.167 8.65 3.51 9.13
8/15/2021 2:45:00 PM 23.8 74.84 0.167 8.68 3.46 9.12
8/15/2021 3:00:00 PM 23.95 75.11 0.167 8.71 3.44 9.07
8/15/2021 3:15:00 PM 24.09 75.362 0.167 8.73 3.44 9
8/15/2021 3:30:00 PM 24.22 75.596 0.167 8.74 3.41 8.99
8/15/2021 3:45:00 PM 24.24 75.632 0.167 8.74 3.42 8.92
8/15/2021 4:00:00 PM 24.32 75.776 0.167 8.75 3.44 8.86
8/15/2021 4:15:00 PM 24.37 75.866 0.167 8.74 3.82 8.88
8/15/2021 4:30:00 PM 24.41 75.938 0.167 8.73 3.48 8.82
8/15/2021 4:45:00 PM 24.37 75.866 0.167 8.73 3.41 8.77
8/15/2021 5:00:00 PM 24.36 75.848 0.167 8.73 3.48 8.73
8/15/2021 5:15:00 PM 24.36 75.848 0.167 8.72 3.53 8.68
8/15/2021 5:30:00 PM 24.26 75.668 0.167 8.68 3.59 8.61
8/15/2021 5:45:00 PM 24.13 75.434 0.167 8.64 3.47 8.54
8/15/2021 6:00:00 PM 23.98 75.164 0.167 8.58 3.55 8.52
8/15/2021 6:15:00 PM 23.8 74.84 0.168 8.5 3.57 8.43
8/15/2021 6:30:00 PM 23.64 74.552 0.168 8.43 3.58 8.39
8/15/2021 6:45:00 PM 23.46 74.228 0.168 8.34 3.65 8.27
8/15/2021 7:00:00 PM 23.31 73.958 0.168 8.25 3.63 8.18
8/15/2021 7:15:00 PM 23.16 73.688 0.169 8.16 3.69 8.12
8/15/2021 7:30:00 PM 23.01 73.418 0.169 8.09 3.68 8.05
8/15/2021 7:45:00 PM 22.86 73.148 0.169 8.03 3.65 7.97
8/15/2021 8:00:00 PM 22.72 72.896 0.17 7.97 3.74 7.96
8/15/2021 8:15:00 PM 22.59 72.662 0.17 7.92 3.71 7.88
8/15/2021 8:30:00 PM 22.46 72.42799 0.17 7.88 3.87 7.87
8/15/2021 8:45:00 PM 22.34 72.212 0.171 7.84 3.88 7.85
8/15/2021 9:00:00 PM 22.23 72.014 0.171 7.82 3.94 7.84
8/15/2021 9:15:00 PM 22.12 71.816 0.171 7.79 3.91 7.83
8/15/2021 9:30:00 PM 22.01 71.618 0.172 7.77 3.91 7.82
8/15/2021 9:45:00 PM 21.9 71.42 0.172 7.76 3.86 7.82
8/15/2021 10:00:00 PM 21.79 71.222 0.172 7.75 3.78 7.85
8/15/2021 10:15:00 PM 21.69 71.042 0.172 7.73 3.93 7.88
8/15/2021 10:30:00 PM 21.58 70.844 0.173 7.73 3.8 7.89
8/15/2021 10:45:00 PM 21.46 70.628 0.173 7.72 3.87 7.91
8/15/2021 11:00:00 PM 21.36 70.448 0.173 7.71 3.88 7.94
8/15/2021 11:15:00 PM 21.25 70.25 0.173 7.7 3.87 7.94
8/15/2021 11:30:00 PM 21.16 70.088 0.173 7.69 3.87 7.97
8/15/2021 11:45:00 PM 21.06 69.908 0.174 7.7 3.97 7.99
8/16/2021 12:00:00 AM 20.97 69.746 0.174 7.69 4 8.01
8/16/2021 12:15:00 AM 20.88 69.584 0.174 7.68 4.08 8.02
8/16/2021 12:30:00 AM 20.79 69.422 0.17 7.68 4.09 8.04
8/16/2021 12:45:00 AM 20.71 69.278 0.173 7.67 4 8.03
8/16/2021 1:00:00 AM 20.63 69.134 0.174 7.67 3.93 8.09
8/16/2021 1:15:00 AM 20.57 69.026 0.169 7.67 3.97 8.11
8/16/2021 1:30:00 AM 20.49 68.882 0.174 7.67 4.03 8.13
8/16/2021 1:45:00 AM 20.43 68.774 0.174 7.66 3.96 8.15
8/16/2021 2:00:00 AM 20.37 68.666 0.174 7.66 4.06 8.17
8/16/2021 2:15:00 AM 20.3 68.54 0.174 7.67 4.05 8.15
8/16/2021 2:30:00 AM 20.25 68.45 0.174 7.66 4.08 8.18
8/16/2021 2:45:00 AM 20.19 68.342 0.174 7.66 4.06 8.19
8/16/2021 3:00:00 AM 20.14 68.252 0.174 7.66 4.13 8.19
8/16/2021 3:15:00 AM 20.09 68.162 0.174 7.66 4.14 8.21
8/16/2021 3:30:00 AM 20.04 68.07201 0.175 7.65 4.12 8.22
8/16/2021 3:45:00 AM 20 68 0.175 7.65 4.04 8.22
8/16/2021 4:00:00 AM 19.96 67.92799 0.175 7.66 4.2 8.24
8/16/2021 4:15:00 AM 19.91 67.838 0.175 7.66 4.1 8.07
8/16/2021 4:30:00 AM 19.88 67.784 0.175 7.64 4.17 8.29
8/16/2021 4:45:00 AM 19.84 67.712 0.175 7.65 4.18 8.28
8/16/2021 5:00:00 AM 19.81 67.658 0.175 7.65 4.13 8.3
8/16/2021 5:15:00 AM 19.77 67.586 0.175 7.65 4.16 8.3
8/16/2021 5:30:00 AM 19.74 67.532 0.175 7.65 4.46 8.31
8/16/2021 5:45:00 AM 19.7 67.46 0.175 7.65 4.16 8.32
8/16/2021 6:00:00 AM 19.67 67.406 0.175 7.64 4.32 8.35
8/16/2021 6:15:00 AM 19.64 67.352 0.175 7.65 4.27 8.36
8/16/2021 6:30:00 AM 19.61 67.298 0.175 7.64 4.31 8.37
8/16/2021 6:45:00 AM 19.58 67.244 0.175 7.64 4.27 8.38
8/16/2021 7:00:00 AM 19.56 67.208 0.175 7.65 4.24 8.41
8/16/2021 7:15:00 AM 19.54 67.172 0.175 7.66 4.18 8.46
8/16/2021 7:30:00 AM 19.54 67.172 0.175 7.67 4.11 8.57
8/16/2021 7:45:00 AM 19.55 67.19 0.175 7.69 4.03 8.67
8/16/2021 8:00:00 AM 19.55 67.19 0.175 7.7 4.09 8.7
8/16/2021 8:15:00 AM 19.57 67.226 0.175 7.72 4.14 8.74
8/16/2021 8:30:00 AM 19.59 67.262 0.175 7.74 4.06 8.75
8/16/2021 8:45:00 AM 19.6 67.28 0.174 7.74 4.08 8.75
8/16/2021 9:00:00 AM 19.63 67.334 0.174 7.76 4.05 8.76
8/16/2021 9:15:00 AM 19.65 67.37 0.174 7.78 4.03 8.83
8/16/2021 9:30:00 AM 19.68 67.424 0.174 7.78 4.12 8.86
8/16/2021 9:45:00 AM 19.72 67.496 0.174 7.8 4.13 8.94
8/16/2021 10:00:00 AM 19.75 67.55 0.174 7.83 3.96 9.03
8/16/2021 10:15:00 AM 19.8 67.64 0.174 7.85 4.01 9.07
8/16/2021 10:30:00 AM 19.88 67.784 0.173 7.88 4 9.16
8/16/2021 10:45:00 AM 19.97 67.946 0.173 7.92 3.96 9.27
8/16/2021 11:00:00 AM 20.05 68.09 0.173 7.97 3.99 9.35
8/16/2021 11:15:00 AM 20.17 68.306 0.172 8.02 3.92 9.43
8/16/2021 11:30:00 AM 20.3 68.54 0.172 8.08 3.9 9.51
8/16/2021 11:45:00 AM 20.44 68.792 0.172 8.14 3.96 9.57
8/16/2021 12:00:00 PM 20.6 69.08 0.171 8.21 4.01 9.64
8/16/2021 12:15:00 PM 20.75 69.35 0.171 8.27 3.87 9.64
8/16/2021 12:30:00 PM 20.94 69.692 0.171 8.33 3.97 9.67
8/16/2021 12:45:00 PM 21.15 70.07 0.17 8.42 4 9.7
8/16/2021 1:00:00 PM 21.31 70.358 0.17 8.49 4.05 9.68
8/16/2021 1:15:00 PM 21.5 70.7 0.17 8.55 4.15 9.7
8/16/2021 1:30:00 PM 21.7 71.06 0.17 8.6 4.12 9.68
8/16/2021 1:45:00 PM 21.81 71.258 0.169 8.63 4.17 9.58
8/16/2021 2:00:00 PM 21.97 71.546 0.169 8.68 4.2 9.56
8/16/2021 2:15:00 PM 22.11 71.798 0.169 8.71 4.2 9.55
8/16/2021 2:30:00 PM 22.25 72.05 0.169 8.74 4.22 9.51
8/16/2021 2:45:00 PM 22.43 72.374 0.168 8.78 4.27 9.52
8/16/2021 3:00:00 PM 22.57 72.626 0.168 8.81 3.98 9.51
8/16/2021 3:15:00 PM 22.67 72.806 0.168 8.84 3.96 9.45
8/16/2021 3:30:00 PM 22.84 73.112 0.168 8.86 4.04 9.42
8/16/2021 3:45:00 PM 23.08 73.544 0.167 8.88 4.04 9.39
8/16/2021 4:00:00 PM 23.11 73.598 0.167 8.88 4.04 9.26
8/16/2021 4:15:00 PM 23.14 73.652 0.167 8.85 4 9.04
8/16/2021 4:30:00 PM 23.2 73.76 0.167 8.85 4 9
8/16/2021 4:45:00 PM 23.23 73.814 0.167 8.83 4.09 8.92
8/16/2021 5:00:00 PM 23.21 73.778 0.167 8.79 4.07 8.86
8/16/2021 5:15:00 PM 23.14 73.652 0.167 8.73 4.07 8.74
8/16/2021 5:30:00 PM 23.1 73.58 0.167 8.7 4.04 8.75
8/16/2021 5:45:00 PM 23.04 73.472 0.168 8.66 4.07 8.67
8/16/2021 6:00:00 PM 23.03 73.454 0.168 8.62 4.12 8.69
8/16/2021 6:15:00 PM 23.01 73.418 0.168 8.59 4.1 8.68
8/16/2021 6:30:00 PM 22.98 73.364 0.168 8.52 4.12 8.57
8/16/2021 6:45:00 PM 22.94 73.292 0.168 8.44 4.12 8.46
8/16/2021 7:00:00 PM 22.89 73.202 0.168 8.36 4.15 8.36
8/16/2021 7:15:00 PM 22.84 73.112 0.169 8.27 4.26 8.28
8/16/2021 7:30:00 PM 22.77 72.986 0.169 8.2 4.33 7.73
8/16/2021 7:45:00 PM 22.69 72.842 0.169 8.11 4.23 8.1
8/16/2021 8:00:00 PM 22.61 72.698 0.17 8.03 4.25 8.04
8/16/2021 8:15:00 PM 22.52 72.536 0.17 7.96 4.22 7.99
8/16/2021 8:30:00 PM 22.44 72.392 0.17 7.92 4.32 7.93
8/16/2021 8:45:00 PM 22.37 72.266 0.17 7.87 4.38 7.91
8/16/2021 9:00:00 PM 22.3 72.14 0.171 7.83 4.42 7.88
8/16/2021 9:15:00 PM 22.23 72.014 0.171 7.8 4.52 7.85
8/16/2021 9:30:00 PM 22.17 71.906 0.171 7.78 4.48 7.86
8/16/2021 9:45:00 PM 22.11 71.798 0.172 7.76 4.35 7.83
8/16/2021 10:00:00 PM 22.05 71.69 0.172 7.74 4.42 7.83
8/16/2021 10:15:00 PM 22 71.6 0.172 7.72 4.43 7.85
8/16/2021 10:30:00 PM 21.94 71.492 0.172 7.71 4.51 7.84
8/16/2021 10:45:00 PM 21.89 71.402 0.172 7.7 4.42 7.86
8/16/2021 11:00:00 PM 21.84 71.312 0.172 7.7 4.52 7.86
8/16/2021 11:15:00 PM 21.79 71.222 0.173 7.69 4.51 7.87
8/16/2021 11:30:00 PM 21.75 71.15 0.173 7.68 4.04 7.87
8/16/2021 11:45:00 PM 21.7 71.06 0.173 7.68 4.07 7.86
8/17/2021 12:00:00 AM 21.67 71.006 0.173 7.68 3.98 7.89
8/17/2021 12:15:00 AM 21.62 70.916 0.172 7.67 4.09 7.9
8/17/2021 12:30:00 AM 21.58 70.844 0.173 7.67 4.12 7.89
8/17/2021 12:45:00 AM 21.54 70.772 0.173 7.67 4.1 7.91
8/17/2021 1:00:00 AM 21.5 70.7 0.173 7.65 4.15 7.89
8/17/2021 1:15:00 AM 21.47 70.646 0.173 7.66 4.13 7.92
8/17/2021 1:30:00 AM 21.44 70.592 0.173 7.66 4.15 7.93
8/17/2021 1:45:00 AM 21.41 70.538 0.173 7.65 4.2 7.96
8/17/2021 2:00:00 AM 21.38 70.484 0.173 7.65 4.09 7.95
8/17/2021 2:15:00 AM 21.35 70.43 0.173 7.64 4.16 7.94
8/17/2021 2:30:00 AM 21.33 70.394 0.173 7.64 4.19 7.96
8/17/2021 2:45:00 AM 21.31 70.358 0.173 7.65 4.12 7.96
8/17/2021 3:00:00 AM 21.28 70.304 0.173 7.64 4.14 7.97
8/17/2021 3:15:00 AM 21.26 70.268 0.173 7.65 4.18 7.97
8/17/2021 3:30:00 AM 21.24 70.232 0.174 7.65 4.3 7.97
8/17/2021 3:45:00 AM 21.22 70.196 0.174 7.64 4.26 7.99
8/17/2021 4:00:00 AM 21.2 70.16 0.174 7.64 4.27 7.97
8/17/2021 4:15:00 AM 21.18 70.124 0.174 7.65 4.23 7.98
8/17/2021 4:30:00 AM 21.16 70.088 0.174 7.64 4.31 8
8/17/2021 4:45:00 AM 21.14 70.052 0.174 7.64 4.25 8
8/17/2021 5:00:00 AM 21.12 70.016 0.174 7.64 4.29 8
8/17/2021 5:15:00 AM 21.1 69.98 0.174 7.64 4.35 8.02
8/17/2021 5:30:00 AM 21.08 69.944 0.174 7.64 4.32 8
8/17/2021 5:45:00 AM 21.06 69.908 0.174 7.63 4.41 8
8/17/2021 6:00:00 AM 21.04 69.872 0.173 7.64 4.47 8.01
8/17/2021 6:15:00 AM 21.02 69.836 0.173 7.63 4.49 8.02
8/17/2021 6:30:00 AM 21.01 69.818 0.173 7.65 4.38 8.02
8/17/2021 6:45:00 AM 20.99 69.782 0.173 7.65 4.43 8.04
8/17/2021 7:00:00 AM 20.98 69.764 0.173 7.66 4.35 8.06
8/17/2021 7:15:00 AM 20.96 69.728 0.173 7.66 4.54 8.11
8/17/2021 7:30:00 AM 20.95 69.71 0.173 7.66 4.49 8.12
8/17/2021 7:45:00 AM 20.95 69.71 0.172 7.66 4.37 8.17
8/17/2021 8:00:00 AM 20.94 69.692 0.172 7.67 4.29 8.2
8/17/2021 8:15:00 AM 20.94 69.692 0.172 7.69 4.22 8.25
8/17/2021 8:30:00 AM 20.95 69.71 0.172 7.7 4.34 8.29
8/17/2021 8:45:00 AM 20.95 69.71 0.171 7.71 4.31 8.33
8/17/2021 9:00:00 AM 20.96 69.728 0.171 7.73 4.29 8.38
8/17/2021 9:15:00 AM 20.98 69.764 0.17 7.75 4.35 8.44
8/17/2021 9:30:00 AM 21.01 69.818 0.17 7.76 4.32 8.51
8/17/2021 9:45:00 AM 21.03 69.854 0.17 7.78 4.32 8.56
8/17/2021 10:00:00 AM 21.07 69.926 0.17 7.79 4.3 8.61
8/17/2021 10:15:00 AM 21.11 69.998 0.169 7.81 4.16 8.65
8/17/2021 10:30:00 AM 21.15 70.07 0.169 7.84 4.39 8.73
8/17/2021 10:45:00 AM 21.21 70.17799 0.168 7.86 4.15 8.81
8/17/2021 11:00:00 AM 21.31 70.358 0.168 7.91 4.11 8.96
8/17/2021 11:15:00 AM 21.38 70.484 0.167 7.95 4.29 9.04
8/17/2021 11:30:00 AM 21.47 70.646 0.167 7.99 4.65 9.08
8/17/2021 11:45:00 AM 21.54 70.772 0.166 8.03 4.29 9.06
8/17/2021 12:00:00 PM 21.64 70.952 0.166 8.07 4.27 9.09
8/17/2021 12:15:00 PM 21.78 71.204 0.166 8.13 4.22 9.22
8/17/2021 12:30:00 PM 21.82 71.276 0.166 8.16 4.18 9.13
8/17/2021 12:45:00 PM 21.84 71.312 0.166 8.13 4.24 8.94
8/17/2021 1:00:00 PM 21.91 71.438 0.166 8.14 4.27 8.98
8/17/2021 1:15:00 PM 21.94 71.492 0.166 8.14 4.23 8.94
8/17/2021 1:30:00 PM 21.97 71.546 0.166 8.14 4.26 8.94
8/17/2021 1:45:00 PM 21.99 71.582 0.166 8.14 4.28 8.9
8/17/2021 2:00:00 PM 22.01 71.618 0.166 8.14 4.21 8.89
8/17/2021 2:15:00 PM 22.04 71.672 0.166 8.13 4.28 8.9
8/17/2021 2:30:00 PM 22.09 71.762 0.166 8.16 4.26 8.93
8/17/2021 2:45:00 PM 22.18 71.924 0.166 8.18 4.28 9.04
8/17/2021 3:00:00 PM 22.28 72.104 0.165 8.25 4.37 9.16
8/17/2021 3:15:00 PM 22.38 72.284 0.165 8.3 4.21 9.18
8/17/2021 3:30:00 PM 22.51 72.518 0.165 8.36 4.25 9.22
8/17/2021 3:45:00 PM 22.68 72.824 0.165 8.42 4.3 9.22
8/17/2021 4:00:00 PM 22.88 73.184 0.165 8.49 4.28 9.23
8/17/2021 4:15:00 PM 22.98 73.364 0.165 8.51 4.22 9.16
8/17/2021 4:30:00 PM 23.15 73.67 0.165 8.56 4.3 9.18
8/17/2021 4:45:00 PM 23.28 73.904 0.165 8.59 4.32 9.14
8/17/2021 5:00:00 PM 23.34 74.012 0.166 8.6 4.25 9.04
8/17/2021 5:15:00 PM 23.38 74.084 0.166 8.59 4.26 8.94
8/17/2021 5:30:00 PM 23.45 74.21 0.166 8.59 4.3 8.93
8/17/2021 5:45:00 PM 23.43 74.174 0.166 8.54 4.29 8.8
8/17/2021 6:00:00 PM 23.42 74.156 0.166 8.51 4.29 8.73
8/17/2021 6:15:00 PM 23.39 74.102 0.166 8.46 4.29 8.63
8/17/2021 6:30:00 PM 23.36 74.048 0.166 8.4 4.36 8.54
8/17/2021 6:45:00 PM 23.31 73.958 0.167 8.32 4.4 8.42
8/17/2021 7:00:00 PM 23.26 73.868 0.167 8.21 4.56 8.31
8/17/2021 7:15:00 PM 23.19 73.742 0.165 8.14 6.2 8.25
8/17/2021 7:30:00 PM 23.11 73.598 0.166 8.06 6.31 8.17
8/17/2021 7:45:00 PM 23.04 73.472 0.165 8.01 5.72 8.12
8/17/2021 8:00:00 PM 22.98 73.364 0.166 7.96 6.41 8.07
8/17/2021 8:15:00 PM 22.93 73.274 0.166 7.92 5.92 8.02
8/17/2021 8:30:00 PM 22.88 73.184 0.166 7.87 5.64 8
8/17/2021 8:45:00 PM 22.83 73.094 0.167 7.84 5.83 7.99
8/17/2021 9:00:00 PM 22.77 72.986 0.167 7.81 5.61 7.97
8/17/2021 9:15:00 PM 22.71 72.878 0.168 7.78 5.53 7.97
8/17/2021 9:30:00 PM 22.65 72.77 0.169 7.77 5.65 7.95
8/17/2021 9:45:00 PM 22.6 72.68 0.169 7.75 5.7 7.96
8/17/2021 10:00:00 PM 22.54 72.57201 0.169 7.73 5.5 7.97
8/17/2021 10:15:00 PM 22.49 72.482 0.17 7.72 5.49 7.98
8/17/2021 10:30:00 PM 22.44 72.392 0.17 7.71 5.56 7.98
8/17/2021 10:45:00 PM 22.39 72.302 0.17 7.69 5.47 7.97
8/17/2021 11:00:00 PM 22.34 72.212 0.17 7.7 5.56 7.97
8/17/2021 11:15:00 PM 22.3 72.14 0.17 7.68 5.45 7.98
8/17/2021 11:30:00 PM 22.26 72.068 0.171 7.66 5.35 7.98
8/17/2021 11:45:00 PM 22.22 71.996 0.171 7.66 5.28 7.98
8/18/2021 12:00:00 AM 22.19 71.942 0.171 7.66 5.34 7.99
8/18/2021 12:15:00 AM 22.15 71.87 0.171 7.65 5.25 7.98
8/18/2021 12:30:00 AM 22.11 71.798 0.171 7.65 5.18 7.98
8/18/2021 12:45:00 AM 22.08 71.744 0.171 7.65 5.27 7.98
8/18/2021 1:00:00 AM 22.05 71.69 0.171 7.65 5.26 7.97
8/18/2021 1:15:00 AM 22.01 71.618 0.171 7.65 5.25 7.97
8/18/2021 1:30:00 AM 21.98 71.564 0.171 7.64 5.06 7.96
8/18/2021 1:45:00 AM 21.94 71.492 0.171 7.63 5.07 7.98
8/18/2021 2:00:00 AM 21.91 71.438 0.171 7.63 5.01 7.97
8/18/2021 2:15:00 AM 21.88 71.384 0.171 7.62 5.01 7.98
8/18/2021 2:30:00 AM 21.85 71.33 0.171 7.61 5 7.98
8/18/2021 2:45:00 AM 21.83 71.294 0.171 7.61 5.01 7.96
8/18/2021 3:00:00 AM 21.8 71.24 0.171 7.61 5.06 7.98
8/18/2021 3:15:00 AM 21.78 71.204 0.171 7.6 5.09 7.99
8/18/2021 3:30:00 AM 21.76 71.168 0.171 7.6 5.01 7.99
8/18/2021 3:45:00 AM 21.73 71.114 0.172 7.6 4.96 8.01
8/18/2021 4:00:00 AM 21.71 71.078 0.172 7.61 5.04 8
8/18/2021 4:15:00 AM 21.68 71.024 0.172 7.61 4.89 7.99
8/18/2021 4:30:00 AM 21.66 70.988 0.172 7.6 5.04 8
8/18/2021 4:45:00 AM 21.63 70.934 0.172 7.6 5.09 8
8/18/2021 5:00:00 AM 21.61 70.898 0.172 7.6 5.02 8.01
8/18/2021 5:15:00 AM 21.59 70.862 0.172 7.61 5 8.01
8/18/2021 5:30:00 AM 21.57 70.826 0.172 7.6 5.1 8
8/18/2021 5:45:00 AM 21.55 70.79 0.172 7.61 5.11 8.01
8/18/2021 6:00:00 AM 21.53 70.754 0.172 7.62 5.29 7.99
8/18/2021 6:15:00 AM 21.52 70.736 0.172 7.62 5.31 8
8/18/2021 6:30:00 AM 21.5 70.7 0.173 7.61 5.18 8
8/18/2021 6:45:00 AM 21.48 70.664 0.172 7.61 5.21 7.99
8/18/2021 7:00:00 AM 21.47 70.646 0.172 7.6 5.33 8.06
8/18/2021 7:15:00 AM 21.46 70.628 0.172 7.61 5.35 8.05
8/18/2021 7:30:00 AM 21.45 70.61 0.172 7.62 5.41 8.07
8/18/2021 7:45:00 AM 21.45 70.61 0.171 7.61 5.31 8.12
8/18/2021 8:00:00 AM 21.46 70.628 0.171 7.63 5.18 8.2
8/18/2021 8:15:00 AM 21.48 70.664 0.171 7.64 5.23 8.3
8/18/2021 8:30:00 AM 21.51 70.718 0.17 7.65 5.2 8.38
8/18/2021 8:45:00 AM 21.55 70.79 0.17 7.69 5.19 8.44
8/18/2021 9:00:00 AM 21.59 70.862 0.169 7.71 5.17 8.53
8/18/2021 9:15:00 AM 21.68 71.024 0.169 7.76 5.19 8.68
8/18/2021 9:30:00 AM 21.75 71.15 0.168 7.81 5.19 8.76
8/18/2021 9:45:00 AM 21.83 71.294 0.168 7.84 5.07 8.81
8/18/2021 10:00:00 AM 21.9 71.42 0.167 7.88 5.1 8.85
8/18/2021 10:15:00 AM 21.98 71.564 0.167 7.91 4.98 8.84
8/18/2021 10:30:00 AM 22.09 71.762 0.166 7.94 5.11 8.95
8/18/2021 10:45:00 AM 22.18 71.924 0.166 8 4.96 9.01
8/18/2021 11:00:00 AM 22.26 72.068 0.165 8.04 5.09 9
8/18/2021 11:15:00 AM 22.34 72.212 0.165 8.06 5 9.01
8/18/2021 11:30:00 AM 22.39 72.302 0.165 8.08 5.02 8.94
8/18/2021 11:45:00 AM 22.42 72.356 0.164 8.07 4.95 8.8
8/18/2021 12:00:00 PM 22.49 72.482 0.164 8.07 5 8.81
8/18/2021 12:15:00 PM 22.6 72.68 0.163 8.11 5.03 8.94
8/18/2021 12:30:00 PM 22.67 72.806 0.163 8.15 5.03 9.01
8/18/2021 12:45:00 PM 22.7 72.86 0.163 8.16 5.03 8.97
8/18/2021 1:00:00 PM 22.88 73.184 0.162 8.21 5.1 9.07
8/18/2021 1:15:00 PM 23.04 73.472 0.162 8.27 5.05 9.15
8/18/2021 1:30:00 PM 23.09 73.562 0.162 8.3 5.22 9.09
8/18/2021 1:45:00 PM 23.28 73.904 0.162 8.36 5.05 9.12
8/18/2021 2:00:00 PM 23.45 74.21 0.161 8.42 5.06 9.16
8/18/2021 2:15:00 PM 23.66 74.588 0.161 8.48 5.07 9.19
8/18/2021 2:30:00 PM 23.82 74.876 0.161 8.53 5.18 9.15
8/18/2021 2:45:00 PM 23.84 74.912 0.161 8.51 5.05 8.93
8/18/2021 3:00:00 PM 23.98 75.164 0.161 8.53 5.13 8.92
8/18/2021 3:15:00 PM 24.1 75.38 0.161 8.56 5.01 8.93
8/18/2021 3:30:00 PM 24.22 75.596 0.161 8.56 5.01 8.94
8/18/2021 3:45:00 PM 24.34 75.812 0.161 8.6 4.98 8.95
8/18/2021 4:00:00 PM 24.38 75.884 0.161 8.61 5 8.91
8/18/2021 4:15:00 PM 24.41 75.938 0.161 8.61 4.98 8.8
8/18/2021 4:30:00 PM 24.42 75.956 0.161 8.57 5.04 8.61
8/18/2021 4:45:00 PM 24.43 75.974 0.162 8.53 5.11 8.5
8/18/2021 5:00:00 PM 24.39 75.902 0.162 8.46 4.99 8.36
8/18/2021 5:15:00 PM 24.34 75.812 0.162 8.42 5.06 8.37
8/18/2021 5:30:00 PM 24.25 75.65 0.163 8.34 4.99 8.25
8/18/2021 5:45:00 PM 24.16 75.488 0.163 8.24 4.96 8.13
8/18/2021 6:00:00 PM 24.09 75.362 0.164 8.15 4.94 8.09
8/18/2021 6:15:00 PM 24.02 75.236 0.164 8.1 4.97 8.01
8/18/2021 6:30:00 PM 23.94 75.092 0.164 8.03 5.08 7.91
8/18/2021 6:45:00 PM 23.86 74.948 0.164 7.96 5.17 7.85
8/18/2021 7:00:00 PM 23.78 74.804 0.165 7.92 5.09 7.78
8/18/2021 7:15:00 PM 23.7 74.66 0.164 7.88 5.2 7.77
8/18/2021 7:30:00 PM 23.62 74.516 0.164 7.84 5.27 7.76
8/18/2021 7:45:00 PM 23.54 74.372 0.164 7.8 5.76 7.74
8/18/2021 8:00:00 PM 23.47 74.246 0.163 7.79 5.59 7.74
8/18/2021 8:15:00 PM 23.4 74.12 0.163 7.76 5.57 7.7
8/18/2021 8:30:00 PM 23.34 74.012 0.163 7.74 5.59 7.69
8/18/2021 8:45:00 PM 23.29 73.922 0.163 7.73 5.52 7.67
8/18/2021 9:00:00 PM 23.24 73.832 0.163 7.71 5.52 7.68
8/18/2021 9:15:00 PM 23.19 73.742 0.163 7.69 5.68 7.7
8/18/2021 9:30:00 PM 23.14 73.652 0.163 7.67 5.66 7.7
8/18/2021 9:45:00 PM 23.09 73.562 0.163 7.66 5.7 7.71
8/18/2021 10:00:00 PM 23.04 73.472 0.163 7.67 5.88 7.73
8/18/2021 10:15:00 PM 22.98 73.364 0.162 7.66 7.83 7.75
8/18/2021 10:30:00 PM 22.93 73.274 0.161 7.66 6.88 7.79
8/18/2021 10:45:00 PM 22.88 73.184 0.16 7.65 7.38 7.8
8/18/2021 11:00:00 PM 22.83 73.094 0.161 7.64 7.27 7.81
8/18/2021 11:15:00 PM 22.78 73.004 0.16 7.64 7.43 7.84
8/18/2021 11:30:00 PM 22.72 72.896 0.159 7.63 7.94 7.85
8/18/2021 11:45:00 PM 22.66 72.788 0.158 7.62 9.27 7.87
8/19/2021 12:00:00 AM 22.6 72.68 0.157 7.61 10.56 7.87
8/19/2021 12:15:00 AM 22.55 72.59 0.158 7.6 10.84 7.89
8/19/2021 12:30:00 AM 22.5 72.5 0.158 7.6 11.58 7.89
8/19/2021 12:45:00 AM 22.47 72.446 0.159 7.58 12.09 7.93
8/19/2021 1:00:00 AM 22.44 72.392 0.158 7.58 12.56 7.94
8/19/2021 1:15:00 AM 22.42 72.356 0.157 7.6 13.34 7.94
8/19/2021 1:30:00 AM 22.38 72.284 0.156 7.6 13.45 7.99
8/19/2021 1:45:00 AM 22.33 72.194 0.156 7.6 13.58 8
8/19/2021 2:00:00 AM 22.27 72.086 0.157 7.6 13.69 8.03
8/19/2021 2:15:00 AM 22.18 71.924 0.158 7.6 14.5 8.05
8/19/2021 2:30:00 AM 22.07 71.726 0.159 7.61 15.17 8.07
8/19/2021 2:45:00 AM 21.97 71.546 0.159 7.61 16.52 8.08
8/19/2021 3:00:00 AM 21.9 71.42 0.159 7.61 16.4 8.1
8/19/2021 3:15:00 AM 21.85 71.33 0.159 7.61 17.56 8.12
8/19/2021 3:30:00 AM 21.84 71.312 0.16 7.62 17.45 8.11
8/19/2021 3:45:00 AM 21.84 71.312 0.161 7.62 17.58 8.1
8/19/2021 4:00:00 AM 21.86 71.348 0.161 7.63 17.82 8.1
8/19/2021 4:15:00 AM 21.87 71.366 0.16 7.63 17.63 8.09
8/19/2021 4:30:00 AM 21.88 71.384 0.16 7.63 19.85 8.1
8/19/2021 4:45:00 AM 21.9 71.42 0.16 7.62 23.09 8.12
8/19/2021 5:00:00 AM 21.92 71.456 0.16 7.62 22.03 8.11
8/19/2021 5:15:00 AM 21.93 71.474 0.16 7.62 24.51 8.1
8/19/2021 5:30:00 AM 21.92 71.456 0.16 7.61 26.24 8.11
8/19/2021 5:45:00 AM 21.89 71.402 0.158 7.61 26.49 8.11
8/19/2021 6:00:00 AM 21.87 71.366 0.155 7.61 25.79 8.11
8/19/2021 6:15:00 AM 21.85 71.33 0.152 7.6 26.1 8.12
8/19/2021 6:30:00 AM 21.85 71.33 0.149 7.59 24.74 8.13
8/19/2021 6:45:00 AM 21.84 71.312 0.147 7.59 30.59 8.13
8/19/2021 7:00:00 AM 21.85 71.33 0.145 7.59 25.56 8.14
8/19/2021 7:15:00 AM 21.86 71.348 0.144 7.59 23.96 8.15
8/19/2021 7:30:00 AM 21.87 71.366 0.144 7.59 35.52 8.18
8/19/2021 7:45:00 AM 21.87 71.366 0.146 7.6 28.67 8.17
8/19/2021 8:00:00 AM 21.86 71.348 0.15 7.6 29.7 8.17
8/19/2021 8:15:00 AM 21.84 71.312 0.154 7.6 30.26 8.17
8/19/2021 8:30:00 AM 21.8 71.24 0.158 7.6 31.52 8.19
8/19/2021 8:45:00 AM 21.77 71.186 0.161 7.61 31.12 8.21
8/19/2021 9:00:00 AM 21.72 71.096 0.162 7.6 33.01 8.24
8/19/2021 9:15:00 AM 21.67 71.006 0.162 7.61 31.71 8.25
8/19/2021 9:30:00 AM 21.64 70.952 0.16 7.61 33.65 8.25
8/19/2021 9:45:00 AM 21.63 70.934 0.157 7.61 30.64 8.27
8/19/2021 10:00:00 AM 21.63 70.934 0.155 7.62 30.35 8.27
8/19/2021 10:15:00 AM 21.64 70.952 0.153 7.62 29.44 8.26
8/19/2021 10:30:00 AM 21.65 70.97 0.152 7.62 28.74 8.26
8/19/2021 10:45:00 AM 21.67 71.006 0.151 7.63 28.02 8.28
8/19/2021 11:00:00 AM 21.71 71.078 0.151 7.63 27.02 8.29
8/19/2021 11:15:00 AM 21.79 71.222 0.15 7.64 27.19 8.29
8/19/2021 11:30:00 AM 21.85 71.33 0.149 7.65 26.91 8.29
8/19/2021 11:45:00 AM 21.89 71.402 0.148 7.65 26.64 8.28
8/19/2021 12:00:00 PM 21.96 71.528 0.147 7.65 26.94 8.28
8/19/2021 12:15:00 PM 22.09 71.762 0.146 7.66 26.17 8.28
8/19/2021 12:30:00 PM 22.22 71.996 0.146 7.66 27.59 8.28
8/19/2021 12:45:00 PM 22.36 72.248 0.147 7.67 28.68 8.28
8/19/2021 1:00:00 PM 22.43 72.374 0.149 7.67 28.78 8.25
8/19/2021 1:15:00 PM 22.56 72.608 0.151 7.67 28.56 8.24
8/19/2021 1:30:00 PM 22.64 72.752 0.152 7.67 30.33 8.24
8/19/2021 1:45:00 PM 22.77 72.986 0.151 7.67 30.67 8.22
8/19/2021 2:00:00 PM 22.83 73.094 0.15 7.67 30.07 8.21
8/19/2021 2:15:00 PM 22.78 73.004 0.147 7.67 30.02 8.18
8/19/2021 2:30:00 PM 22.7 72.86 0.145 7.66 29.61 8.18
8/19/2021 2:45:00 PM 22.64 72.752 0.142 7.65 26.88 8.18
8/19/2021 3:00:00 PM 22.69 72.842 0.141 7.65 27.87 8.18
8/19/2021 3:15:00 PM 22.77 72.986 0.14 7.65 27.17 8.19
8/19/2021 3:30:00 PM 22.82 73.076 0.139 7.65 27.14 8.19
8/19/2021 3:45:00 PM 22.84 73.112 0.14 7.66 25.77 8.19
8/19/2021 4:00:00 PM 22.81 73.058 0.14 7.65 25.87 8.17
8/19/2021 4:15:00 PM 22.85 73.13 0.141 7.65 26.22 8.17
8/19/2021 4:30:00 PM 22.81 73.058 0.141 7.64 26.08 8.17
8/19/2021 4:45:00 PM 22.82 73.076 0.142 7.64 26.44 8.16
8/19/2021 5:00:00 PM 22.8 73.04 0.142 7.63 26.46 8.17
8/19/2021 5:15:00 PM 22.8 73.04 0.141 7.63 25.95 8.16
8/19/2021 5:30:00 PM 22.8 73.04 0.141 7.63 25.52 8.16
8/19/2021 5:45:00 PM 22.79 73.022 0.14 7.63 24.16 8.15
8/19/2021 6:00:00 PM 22.74 72.932 0.139 7.62 23.76 8.13
8/19/2021 6:15:00 PM 22.7 72.86 0.138 7.62 22.69 8.13
8/19/2021 6:30:00 PM 22.67 72.806 0.137 7.62 21.94 8.14
8/19/2021 6:45:00 PM 22.63 72.734 0.136 7.62 21.07 8.14
8/19/2021 7:00:00 PM 22.6 72.68 0.135 7.62 20.97 8.13
8/19/2021 7:15:00 PM 22.56 72.608 0.134 7.61 20.82 8.15
8/19/2021 7:30:00 PM 22.53 72.554 0.126 7.61 20.57 8.15
8/19/2021 7:45:00 PM 22.5 72.5 0.131 7.6 20.51 8.16
8/19/2021 8:00:00 PM 22.46 72.42799 0.13 7.6 20.55 8.15
8/19/2021 8:15:00 PM 22.42 72.356 0.13 7.59 20.44 8.14
8/19/2021 8:30:00 PM 22.38 72.284 0.129 7.59 20.03 8.13
8/19/2021 8:45:00 PM 22.33 72.194 0.128 7.57 20.78 8.14
8/19/2021 9:00:00 PM 22.28 72.104 0.127 7.57 20.64 8.15
8/19/2021 9:15:00 PM 22.22 71.996 0.127 7.57 20.23 8.16
8/19/2021 9:30:00 PM 22.17 71.906 0.126 7.55 20.56 8.17
8/19/2021 9:45:00 PM 22.11 71.798 0.126 7.56 20.25 8.16
8/19/2021 10:00:00 PM 22.06 71.708 0.126 7.55 19.57 8.19
8/19/2021 10:15:00 PM 22.01 71.618 0.125 7.55 19.5 8.2
8/19/2021 10:30:00 PM 21.96 71.528 0.125 7.54 19.19 8.21
8/19/2021 10:45:00 PM 21.91 71.438 0.125 7.54 19.03 8.22
8/19/2021 11:00:00 PM 21.86 71.348 0.125 7.53 18.77 8.22
8/19/2021 11:15:00 PM 21.82 71.276 0.125 7.54 18.19 8.23
8/19/2021 11:30:00 PM 21.77 71.186 0.125 7.54 18.79 8.23
8/19/2021 11:45:00 PM 21.73 71.114 0.125 7.53 18.25 8.26
8/20/2021 12:00:00 AM 21.68 71.024 0.125 7.54 18.48 8.27
8/20/2021 12:15:00 AM 21.64 70.952 0.125 7.54 17.93 8.27
8/20/2021 12:30:00 AM 21.6 70.88 0.125 7.53 17.93 8.28
8/20/2021 12:45:00 AM 21.56 70.808 0.125 7.53 17.78 8.28
8/20/2021 1:00:00 AM 21.52 70.736 0.125 7.53 17.78 8.28
8/20/2021 1:15:00 AM 21.48 70.664 0.118 7.53 17.58 8.29
8/20/2021 1:30:00 AM 21.45 70.61 0.124 7.52 17.44 8.3
8/20/2021 1:45:00 AM 21.41 70.538 0.126 7.52 17.17 8.31
8/20/2021 2:00:00 AM 21.38 70.484 0.126 7.53 17.05 8.3
8/20/2021 2:15:00 AM 21.34 70.412 0.127 7.52 17.21 8.29
8/20/2021 2:30:00 AM 21.3 70.34 0.127 7.53 17.01 8.32
8/20/2021 2:45:00 AM 21.27 70.286 0.124 7.52 16.75 8.32
8/20/2021 3:00:00 AM 21.23 70.214 0.127 7.52 16.94 8.33
8/20/2021 3:15:00 AM 21.2 70.16 0.122 7.52 16.58 8.34
8/20/2021 3:30:00 AM 21.16 70.088 0.128 7.52 16.67 8.34
8/20/2021 3:45:00 AM 21.13 70.034 0.128 7.52 16.05 8.36
8/20/2021 4:00:00 AM 21.1 69.98 0.128 7.53 17.69 8.35
8/20/2021 4:15:00 AM 21.06 69.908 0.128 7.53 15.6 8.34
8/20/2021 4:30:00 AM 21.03 69.854 0.129 7.53 15.23 8.36
8/20/2021 4:45:00 AM 21 69.8 0.129 7.53 15.56 8.37
8/20/2021 5:00:00 AM 20.97 69.746 0.129 7.52 15.47 8.39
8/20/2021 5:15:00 AM 20.94 69.692 0.129 7.53 15.07 8.38
8/20/2021 5:30:00 AM 20.92 69.656 0.129 7.52 15.09 8.39
8/20/2021 5:45:00 AM 20.89 69.602 0.13 7.53 15.09 8.39
8/20/2021 6:00:00 AM 20.86 69.548 0.13 7.52 15.48 8.39
8/20/2021 6:15:00 AM 20.84 69.512 0.13 7.51 15.2 8.4
8/20/2021 6:30:00 AM 20.81 69.458 0.13 7.53 14.99 8.39
8/20/2021 6:45:00 AM 20.79 69.422 0.13 7.53 15.1 8.39
8/20/2021 7:00:00 AM 20.77 69.386 0.13 7.52 14.96 8.41
8/20/2021 7:15:00 AM 20.75 69.35 0.131 7.53 14.82 8.42
8/20/2021 7:30:00 AM 20.74 69.332 0.131 7.53 14.64 8.43
8/20/2021 7:45:00 AM 20.74 69.332 0.131 7.53 14.4 8.45
8/20/2021 8:00:00 AM 20.74 69.332 0.131 7.54 13.95 8.48
8/20/2021 8:15:00 AM 20.76 69.368 0.131 7.55 14.14 8.5
8/20/2021 8:30:00 AM 20.78 69.404 0.131 7.56 13.35 8.52
8/20/2021 8:45:00 AM 20.81 69.458 0.131 7.57 12.97 8.55
8/20/2021 9:00:00 AM 20.84 69.512 0.131 7.58 13.17 8.57
8/20/2021 9:15:00 AM 20.87 69.566 0.131 7.59 12.74 8.58
8/20/2021 9:30:00 AM 20.9 69.62 0.132 7.6 12.48 8.57
8/20/2021 9:45:00 AM 20.94 69.692 0.132 7.62 12.22 8.6
8/20/2021 10:00:00 AM 21 69.8 0.132 7.62 13.07 8.63
8/20/2021 10:15:00 AM 21.06 69.908 0.132 7.64 12.97 8.66
8/20/2021 10:30:00 AM 21.11 69.998 0.132 7.65 12.13 8.67
8/20/2021 10:45:00 AM 21.16 70.088 0.132 7.67 12 8.67
8/20/2021 11:00:00 AM 21.21 70.17799 0.132 7.69 12.1 8.67
8/20/2021 11:15:00 AM 21.27 70.286 0.132 7.7 11.49 8.68
8/20/2021 11:30:00 AM 21.33 70.394 0.132 7.73 11.61 8.71
8/20/2021 11:45:00 AM 21.39 70.502 0.132 7.74 11.47 8.69
8/20/2021 12:00:00 PM 21.44 70.592 0.132 7.75 11.37 8.69
8/20/2021 12:15:00 PM 21.5 70.7 0.132 7.76 11.07 8.68
8/20/2021 12:30:00 PM 21.56 70.808 0.132 7.77 11.33 8.68
8/20/2021 12:45:00 PM 21.62 70.916 0.132 7.78 11.25 8.7
8/20/2021 1:00:00 PM 21.68 71.024 0.132 7.79 11.61 8.7
8/20/2021 1:15:00 PM 21.74 71.132 0.132 7.8 10.71 8.7
8/20/2021 1:30:00 PM 21.81 71.258 0.132 7.81 10.52 8.71
8/20/2021 1:45:00 PM 21.88 71.384 0.132 7.83 10.68 8.7
8/20/2021 2:00:00 PM 21.93 71.474 0.133 7.83 10.55 8.69
8/20/2021 2:15:00 PM 22.01 71.618 0.133 7.84 10.48 8.7
8/20/2021 2:30:00 PM 22.09 71.762 0.133 7.85 10.4 8.71
8/20/2021 2:45:00 PM 22.18 71.924 0.133 7.87 10.36 8.7
8/20/2021 3:00:00 PM 22.2 71.96 0.133 7.88 10.33 8.62
8/20/2021 3:15:00 PM 22.17 71.906 0.133 7.85 10.31 8.54
8/20/2021 3:30:00 PM 22.15 71.87 0.133 7.82 15.49 8.49
8/20/2021 3:45:00 PM 22.13 71.834 0.133 7.8 10.28 8.48
8/20/2021 4:00:00 PM 22.09 71.762 0.133 7.79 10.34 8.46
8/20/2021 4:15:00 PM 22.05 71.69 0.133 7.78 10.39 8.42
8/20/2021 4:30:00 PM 22.02 71.636 0.133 7.76 10.13 8.4
8/20/2021 4:45:00 PM 22.01 71.618 0.134 7.76 10.13 8.39
8/20/2021 5:00:00 PM 22.01 71.618 0.134 7.75 10.14 8.41
8/20/2021 5:15:00 PM 22.03 71.654 0.134 7.75 10.01 8.43
8/20/2021 5:30:00 PM 22.04 71.672 0.134 7.76 9.88 8.4
8/20/2021 5:45:00 PM 22.05 71.69 0.134 7.76 10.1 8.43
8/20/2021 6:00:00 PM 22.05 71.69 0.134 7.76 10.05 8.39
8/20/2021 6:15:00 PM 22.05 71.69 0.134 7.76 9.86 8.4
8/20/2021 6:30:00 PM 22.04 71.672 0.134 7.75 9.99 8.38
8/20/2021 6:45:00 PM 22.03 71.654 0.134 7.74 9.74 8.36
8/20/2021 7:00:00 PM 22.02 71.636 0.134 7.73 9.69 8.34
8/20/2021 7:15:00 PM 22 71.6 0.134 7.72 9.74 8.31
8/20/2021 7:30:00 PM 21.98 71.564 0.134 7.71 9.72 8.29
8/20/2021 7:45:00 PM 21.96 71.528 0.134 7.69 9.83 8.26
8/20/2021 8:00:00 PM 21.94 71.492 0.135 7.68 9.91 8.25
8/20/2021 8:15:00 PM 21.92 71.456 0.135 7.67 9.89 8.23
8/20/2021 8:30:00 PM 21.89 71.402 0.135 7.66 9.91 8.22
8/20/2021 8:45:00 PM 21.87 71.366 0.135 7.64 10.08 8.22
8/20/2021 9:00:00 PM 21.85 71.33 0.135 7.64 10.04 8.21
8/20/2021 9:15:00 PM 21.83 71.294 0.135 7.62 9.99 8.22
8/20/2021 9:30:00 PM 21.8 71.24 0.136 7.63 9.97 8.21
8/20/2021 9:45:00 PM 21.78 71.204 0.136 7.61 9.94 8.22
8/20/2021 10:00:00 PM 21.76 71.168 0.136 7.61 10.01 8.21
8/20/2021 10:15:00 PM 21.74 71.132 0.136 7.61 9.79 8.22
8/20/2021 10:30:00 PM 21.72 71.096 0.132 7.61 9.7 8.22
8/20/2021 10:45:00 PM 21.7 71.06 0.136 7.6 9.66 8.22
8/20/2021 11:00:00 PM 21.67 71.006 0.136 7.61 9.78 8.23
8/20/2021 11:15:00 PM 21.65 70.97 0.137 7.6 9.72 8.23
8/20/2021 11:30:00 PM 21.63 70.934 0.137 7.6 9.59 8.23
8/20/2021 11:45:00 PM 21.6 70.88 0.137 7.6 9.32 8.24
8/21/2021 12:00:00 AM 21.58 70.844 0.137 7.6 9.43 8.24
8/21/2021 12:15:00 AM 21.56 70.808 0.137 7.58 9.5 8.24
8/21/2021 12:30:00 AM 21.53 70.754 0.137 7.59 9.53 8.25
8/21/2021 12:45:00 AM 21.51 70.718 0.137 7.58 9.39 8.25
8/21/2021 1:00:00 AM 21.48 70.664 0.138 7.59 9.39 8.26
8/21/2021 1:15:00 AM 21.46 70.628 0.138 7.58 9.34 8.27
8/21/2021 1:30:00 AM 21.44 70.592 0.138 7.59 9.44 8.28
8/21/2021 1:45:00 AM 21.41 70.538 0.138 7.58 9.45 8.28
8/21/2021 2:00:00 AM 21.39 70.502 0.138 7.58 9.22 8.27
8/21/2021 2:15:00 AM 21.37 70.466 0.138 7.58 9.28 8.27
8/21/2021 2:30:00 AM 21.34 70.412 0.138 7.58 9.3 8.28
8/21/2021 2:45:00 AM 21.32 70.376 0.138 7.58 9.16 8.29
8/21/2021 3:00:00 AM 21.29 70.32201 0.139 7.58 9.08 8.28
8/21/2021 3:15:00 AM 21.27 70.286 0.139 7.58 9.21 8.29
8/21/2021 3:30:00 AM 21.25 70.25 0.139 7.58 9.27 8.29
8/21/2021 3:45:00 AM 21.23 70.214 0.139 7.58 9.1 8.31
8/21/2021 4:00:00 AM 21.21 70.17799 0.139 7.59 9.14 8.31
8/21/2021 4:15:00 AM 21.19 70.142 0.139 7.59 9.17 8.31
8/21/2021 4:30:00 AM 21.17 70.106 0.14 7.58 9.01 8.32
8/21/2021 4:45:00 AM 21.15 70.07 0.14 7.58 9.02 8.32
8/21/2021 5:00:00 AM 21.13 70.034 0.14 7.59 8.72 8.32
8/21/2021 5:15:00 AM 21.11 69.998 0.14 7.58 8.92 8.33
8/21/2021 5:30:00 AM 21.09 69.962 0.14 7.59 8.98 8.33
8/21/2021 5:45:00 AM 21.07 69.926 0.14 7.58 9.06 8.33
8/21/2021 6:00:00 AM 21.05 69.89 0.14 7.58 9.14 8.34
8/21/2021 6:15:00 AM 21.03 69.854 0.14 7.59 9.14 8.34
8/21/2021 6:30:00 AM 21.01 69.818 0.14 7.59 9.01 8.35
8/21/2021 6:45:00 AM 20.99 69.782 0.14 7.58 9.16 8.36
8/21/2021 7:00:00 AM 20.98 69.764 0.14 7.59 9.08 8.37
8/21/2021 7:15:00 AM 20.97 69.746 0.141 7.59 9.02 8.39
8/21/2021 7:30:00 AM 20.98 69.764 0.141 7.6 8.92 8.42
8/21/2021 7:45:00 AM 20.99 69.782 0.141 7.6 8.81 8.45
8/21/2021 8:00:00 AM 21 69.8 0.141 7.62 8.75 8.46
8/21/2021 8:15:00 AM 21.01 69.818 0.141 7.63 8.63 8.49
8/21/2021 8:30:00 AM 21.04 69.872 0.141 7.65 8.58 8.52
8/21/2021 8:45:00 AM 21.07 69.926 0.141 7.66 8.58 8.56
8/21/2021 9:00:00 AM 21.09 69.962 0.141 7.68 8.49 8.57
8/21/2021 9:15:00 AM 21.11 69.998 0.141 7.68 8.29 8.56
8/21/2021 9:30:00 AM 21.13 70.034 0.142 7.69 8.1 8.59
8/21/2021 9:45:00 AM 21.15 70.07 0.142 7.7 8.15 8.6
8/21/2021 10:00:00 AM 21.19 70.142 0.142 7.71 7.97 8.62
8/21/2021 10:15:00 AM 21.23 70.214 0.142 7.73 8.06 8.66
8/21/2021 10:30:00 AM 21.28 70.304 0.142 7.75 7.88 8.7
8/21/2021 10:45:00 AM 21.32 70.376 0.142 7.76 7.88 8.7
8/21/2021 11:00:00 AM 21.39 70.502 0.142 7.78 7.81 8.73
8/21/2021 11:15:00 AM 21.47 70.646 0.142 7.8 7.8 8.77
8/21/2021 11:30:00 AM 21.61 70.898 0.142 7.83 7.77 8.8
8/21/2021 11:45:00 AM 21.76 71.168 0.142 7.85 7.59 8.8
8/21/2021 12:00:00 PM 21.87 71.366 0.142 7.89 7.56 8.83
8/21/2021 12:15:00 PM 22.08 71.744 0.142 7.93 7.45 8.86
8/21/2021 12:30:00 PM 22.22 71.996 0.142 7.95 7.48 8.85
8/21/2021 12:45:00 PM 22.31 72.158 0.142 7.98 7.4 8.83
8/21/2021 1:00:00 PM 22.37 72.266 0.142 8 7.3 8.8
8/21/2021 1:15:00 PM 22.46 72.42799 0.142 8.02 7.33 8.81
8/21/2021 1:30:00 PM 22.52 72.536 0.142 8.04 7.25 8.8
8/21/2021 1:45:00 PM 22.64 72.752 0.142 8.05 7.39 8.8
8/21/2021 2:00:00 PM 22.86 73.148 0.142 8.08 7.36 8.79
8/21/2021 2:15:00 PM 23.05 73.49 0.142 8.1 7.29 8.76
8/21/2021 2:30:00 PM 23.27 73.886 0.143 8.12 7.21 8.75
8/21/2021 2:45:00 PM 23.45 74.21 0.143 8.13 7.38 8.68
8/21/2021 3:00:00 PM 23.57 74.426 0.143 8.14 7.18 8.63
8/21/2021 3:15:00 PM 23.58 74.444 0.143 8.13 7.18 8.59
8/21/2021 3:30:00 PM 23.65 74.57 0.143 8.14 7.36 8.56
8/21/2021 3:45:00 PM 23.73 74.714 0.143 8.14 7.28 8.55
8/21/2021 4:00:00 PM 23.76 74.768 0.143 8.12 7.26 8.5
8/21/2021 4:15:00 PM 23.75 74.75 0.143 8.12 7.27 8.5
8/21/2021 4:30:00 PM 23.73 74.714 0.143 8.11 7.21 8.46
8/21/2021 4:45:00 PM 23.75 74.75 0.143 8.1 7.26 8.44
8/21/2021 5:00:00 PM 23.77 74.786 0.143 8.08 7.25 8.42
8/21/2021 5:15:00 PM 23.69 74.642 0.143 8.05 7.39 8.34
8/21/2021 5:30:00 PM 23.65 74.57 0.143 8.03 7.37 8.35
8/21/2021 5:45:00 PM 23.63 74.534 0.143 8.01 7.39 8.37
8/21/2021 6:00:00 PM 23.58 74.444 0.144 7.99 7.4 8.31
8/21/2021 6:15:00 PM 23.5 74.3 0.144 7.96 7.51 8.26
8/21/2021 6:30:00 PM 23.42 74.156 0.144 7.93 7.51 8.21
8/21/2021 6:45:00 PM 23.36 74.048 0.144 7.89 7.52 8.19
8/21/2021 7:00:00 PM 23.31 73.958 0.144 7.86 7.64 8.15
8/21/2021 7:15:00 PM 23.26 73.868 0.144 7.84 7.63 8.11
8/21/2021 7:30:00 PM 23.2 73.76 0.145 7.81 7.73 8.08
8/21/2021 7:45:00 PM 23.13 73.634 0.145 7.79 7.73 8.05
8/21/2021 8:00:00 PM 23.08 73.544 0.145 7.76 7.74 8.03
8/21/2021 8:15:00 PM 23.03 73.454 0.145 7.74 7.86 8.01
8/21/2021 8:30:00 PM 22.98 73.364 0.145 7.72 8.08 7.99
8/21/2021 8:45:00 PM 22.95 73.31 0.145 7.71 8.09 7.98
8/21/2021 9:00:00 PM 22.91 73.238 0.145 7.69 8.24 7.98
8/21/2021 9:15:00 PM 22.89 73.202 0.145 7.67 7.92 7.97
8/21/2021 9:30:00 PM 22.88 73.184 0.146 7.66 8.02 7.97
8/21/2021 9:45:00 PM 22.86 73.148 0.146 7.65 7.79 7.98
8/21/2021 10:00:00 PM 22.85 73.13 0.146 7.65 7.93 7.97
8/21/2021 10:15:00 PM 22.82 73.076 0.146 7.65 7.93 7.98
8/21/2021 10:30:00 PM 22.8 73.04 0.146 7.64 7.95 7.97
8/21/2021 10:45:00 PM 22.77 72.986 0.146 7.64 7.91 7.98
8/21/2021 11:00:00 PM 22.75 72.95 0.146 7.64 8.07 7.98
8/21/2021 11:15:00 PM 22.72 72.896 0.146 7.63 7.86 7.99
8/21/2021 11:30:00 PM 22.69 72.842 0.147 7.63 8 8
8/21/2021 11:45:00 PM 22.65 72.77 0.147 7.63 8.05 8.01
8/22/2021 12:00:00 AM 22.62 72.716 0.147 7.63 9.22 8.03
8/22/2021 12:15:00 AM 22.58 72.644 0.146 7.64 10.96 8.02
8/22/2021 12:30:00 AM 22.57 72.626 0.146 7.64 12.62 8.05
8/22/2021 12:45:00 AM 22.55 72.59 0.146 7.64 14.28 8.07
8/22/2021 1:00:00 AM 22.53 72.554 0.145 7.64 15.13 8.08
8/22/2021 1:15:00 AM 22.51 72.518 0.145 7.65 15.37 8.09
8/22/2021 1:30:00 AM 22.49 72.482 0.145 7.64 15.76 8.09
8/22/2021 1:45:00 AM 22.45 72.41 0.144 7.65 15.57 8.09
8/22/2021 2:00:00 AM 22.41 72.338 0.144 7.65 15.11 8.1
8/22/2021 2:15:00 AM 22.37 72.266 0.144 7.65 15.08 8.11
8/22/2021 2:30:00 AM 22.34 72.212 0.143 7.62 14.69 8.13
8/22/2021 2:45:00 AM 22.31 72.158 0.143 7.63 14.45 8.13
8/22/2021 3:00:00 AM 22.27 72.086 0.143 7.64 13.84 8.13
8/22/2021 3:15:00 AM 22.23 72.014 0.142 7.63 13.89 8.11
8/22/2021 3:30:00 AM 22.19 71.942 0.142 7.63 13.87 8.13
8/22/2021 3:45:00 AM 22.14 71.852 0.142 7.63 13.72 8.15
8/22/2021 4:00:00 AM 22.1 71.78 0.141 7.62 13.52 8.18
8/22/2021 4:15:00 AM 22.06 71.708 0.141 7.62 13.55 8.18
8/22/2021 4:30:00 AM 22.01 71.618 0.141 7.63 13.28 8.18
8/22/2021 4:45:00 AM 21.96 71.528 0.141 7.62 13.15 8.18
8/22/2021 5:00:00 AM 21.92 71.456 0.141 7.63 12.96 8.2
8/22/2021 5:15:00 AM 21.86 71.348 0.141 7.62 13.02 8.21
8/22/2021 5:30:00 AM 21.81 71.258 0.141 7.62 12.77 8.23
8/22/2021 5:45:00 AM 21.76 71.168 0.142 7.62 13.03 8.24
8/22/2021 6:00:00 AM 21.71 71.078 0.142 7.62 12.85 8.24
8/22/2021 6:15:00 AM 21.67 71.006 0.142 7.62 12.71 8.23
8/22/2021 6:30:00 AM 21.63 70.934 0.142 7.62 12.88 8.24
8/22/2021 6:45:00 AM 21.6 70.88 0.142 7.62 12.5 8.27
8/22/2021 7:00:00 AM 21.58 70.844 0.142 7.63 12.67 8.29
8/22/2021 7:15:00 AM 21.56 70.808 0.143 7.63 11.9 8.3
8/22/2021 7:30:00 AM 21.55 70.79 0.143 7.64 11.88 8.34
8/22/2021 7:45:00 AM 21.57 70.826 0.143 7.66 11.81 8.37
8/22/2021 8:00:00 AM 21.58 70.844 0.143 7.66 11.65 8.36
8/22/2021 8:15:00 AM 21.58 70.844 0.143 7.67 11.54 8.41
8/22/2021 8:30:00 AM 21.61 70.898 0.143 7.69 11.44 8.45
8/22/2021 8:45:00 AM 21.63 70.934 0.143 7.7 11.09 8.48
8/22/2021 9:00:00 AM 21.67 71.006 0.143 7.72 10.95 8.52
8/22/2021 9:15:00 AM 21.71 71.078 0.142 7.74 11.1 8.55
8/22/2021 9:30:00 AM 21.75 71.15 0.142 7.75 11.16 8.55
8/22/2021 9:45:00 AM 21.78 71.204 0.142 7.77 10.6 8.58
8/22/2021 10:00:00 AM 21.8 71.24 0.142 7.79 11.02 8.57
8/22/2021 10:15:00 AM 21.81 71.258 0.142 7.77 10.69 8.57
8/22/2021 10:30:00 AM 21.83 71.294 0.141 7.8 10.61 8.57
8/22/2021 10:45:00 AM 21.85 71.33 0.141 7.81 10.47 8.55
8/22/2021 11:00:00 AM 21.86 71.348 0.141 7.82 10.33 8.56
8/22/2021 11:15:00 AM 21.86 71.348 0.141 7.82 10.57 8.54
8/22/2021 11:30:00 AM 21.87 71.366 0.141 7.83 10.13 8.55
8/22/2021 11:45:00 AM 21.89 71.402 0.141 7.82 10.36 8.56
8/22/2021 12:00:00 PM 21.91 71.438 0.141 7.83 10.16 8.59
8/22/2021 12:15:00 PM 21.95 71.51 0.141 7.84 10.13 8.63
8/22/2021 12:30:00 PM 21.99 71.582 0.14 7.87 9.61 8.67
8/22/2021 12:45:00 PM 22.03 71.654 0.14 7.9 9.62 8.68
8/22/2021 1:00:00 PM 22.06 71.708 0.14 7.92 9.58 8.67
8/22/2021 1:15:00 PM 22.08 71.744 0.14 7.92 9.81 8.64
8/22/2021 1:30:00 PM 22.08 71.744 0.14 7.92 9.77 8.59
8/22/2021 1:45:00 PM 22.07 71.726 0.139 7.91 9.83 8.54
8/22/2021 2:00:00 PM 22.07 71.726 0.139 7.89 9.83 8.41
8/22/2021 2:15:00 PM 22.07 71.726 0.139 7.89 9.88 8.55
8/22/2021 2:30:00 PM 22.09 71.762 0.139 7.88 9.78 8.56
8/22/2021 2:45:00 PM 22.1 71.78 0.139 7.9 9.62 8.56
8/22/2021 3:00:00 PM 22.11 71.798 0.139 7.89 9.91 8.55
8/22/2021 3:15:00 PM 22.13 71.834 0.139 7.9 9.95 8.56
8/22/2021 3:30:00 PM 22.15 71.87 0.139 7.91 10.15 8.56
8/22/2021 3:45:00 PM 22.16 71.888 0.139 7.91 11 8.55
8/22/2021 4:00:00 PM 22.15 71.87 0.138 7.9 12.95 8.53
8/22/2021 4:15:00 PM 22.15 71.87 0.137 7.9 16.29 8.49
8/22/2021 4:30:00 PM 22.13 71.834 0.135 7.87 18.3 8.44
8/22/2021 4:45:00 PM 22.12 71.816 0.134 7.83 20.92 8.38
8/22/2021 5:00:00 PM 22.11 71.798 0.133 7.81 22.73 8.34
8/22/2021 5:15:00 PM 22.11 71.798 0.131 7.79 24.12 8.32
8/22/2021 5:30:00 PM 22.1 71.78 0.128 7.75 23.61 8.31
8/22/2021 5:45:00 PM 22.09 71.762 0.126 7.74 22.61 8.3
8/22/2021 6:00:00 PM 22.07 71.726 0.125 7.7 25.07 8.28
8/22/2021 6:15:00 PM 22.05 71.69 0.125 7.7 27.42 8.24
8/22/2021 6:30:00 PM 22.03 71.654 0.125 7.68 29.1 8.2
8/22/2021 6:45:00 PM 22.01 71.618 0.125 7.66 31.78 8.19
8/22/2021 7:00:00 PM 22 71.6 0.124 7.64 30.53 8.18
8/22/2021 7:15:00 PM 21.98 71.564 0.123 7.62 29.75 8.16
8/22/2021 7:30:00 PM 21.96 71.528 0.122 7.62 27.84 8.16
8/22/2021 7:45:00 PM 21.93 71.474 0.12 7.6 27.38 8.14
8/22/2021 8:00:00 PM 21.91 71.438 0.117 7.59 27.99 8.14
8/22/2021 8:15:00 PM 21.88 71.384 0.115 7.57 27.12 8.14
8/22/2021 8:30:00 PM 21.86 71.348 0.114 7.55 26.51 8.13
8/22/2021 8:45:00 PM 21.83 71.294 0.113 7.55 25.43 8.13
8/22/2021 9:00:00 PM 21.81 71.258 0.113 7.55 23.98 8.13
8/22/2021 9:15:00 PM 21.8 71.24 0.112 7.55 23.4 8.14
8/22/2021 9:30:00 PM 21.78 71.204 0.113 7.54 22.71 8.15
8/22/2021 9:45:00 PM 21.76 71.168 0.113 7.52 22.07 8.15
8/22/2021 10:00:00 PM 21.74 71.132 0.113 7.52 20.51 8.18
8/22/2021 10:15:00 PM 21.73 71.114 0.113 7.52 20.53 8.19
8/22/2021 10:30:00 PM 21.7 71.06 0.114 7.54 19.39 8.2
8/22/2021 10:45:00 PM 21.66 70.988 0.115 7.52 20.43 8.19
8/22/2021 11:00:00 PM 21.62 70.916 0.116 7.52 21.36 8.21
8/22/2021 11:15:00 PM 21.57 70.826 0.118 7.51 22.05 8.22
8/22/2021 11:30:00 PM 21.52 70.736 0.12 7.51 24.82 8.24
8/22/2021 11:45:00 PM 21.46 70.628 0.123 7.5 27.41 8.23
8/23/2021 12:00:00 AM 21.39 70.502 0.125 7.5 33.3 8.25
8/23/2021 12:15:00 AM 21.3 70.34 0.129 7.5 42.73 8.23
8/23/2021 12:30:00 AM 21.14 70.052 0.133 7.47 62.56 8.23
8/23/2021 12:45:00 AM 21.11 69.998 0.13 7.46 65.72 8.23
8/23/2021 1:00:00 AM 21.14 70.052 0.125 7.46 63.35 8.24
8/23/2021 1:15:00 AM 21.14 70.052 0.122 7.46 62.95 8.25
8/23/2021 1:30:00 AM 21.12 70.016 0.12 7.45 73.22 8.24
8/23/2021 1:45:00 AM 21.1 69.98 0.117 7.44 58.86 8.25
8/23/2021 2:00:00 AM 21.07 69.926 0.115 7.43 54.83 8.26
8/23/2021 2:15:00 AM 21.05 69.89 0.114 7.43 49.37 8.26
8/23/2021 2:30:00 AM 21.03 69.854 0.112 7.42 44.62 8.26
8/23/2021 2:45:00 AM 21.02 69.836 0.111 7.41 41.23 8.27
8/23/2021 3:00:00 AM 21 69.8 0.111 7.41 37.13 8.27
8/23/2021 3:15:00 AM 20.99 69.782 0.111 7.38 34.99 8.28
8/23/2021 3:30:00 AM 20.98 69.764 0.112 7.4 29.65 8.28
8/23/2021 3:45:00 AM 20.97 69.746 0.114 7.39 30.41 8.29
8/23/2021 4:00:00 AM 20.96 69.728 0.115 7.4 27.41 8.29
8/23/2021 4:15:00 AM 20.95 69.71 0.116 7.4 26.22 8.29
8/23/2021 4:30:00 AM 20.93 69.674 0.117 7.41 24.84 8.28
8/23/2021 4:45:00 AM 20.91 69.638 0.119 7.4 24.11 8.3
8/23/2021 5:00:00 AM 20.88 69.584 0.12 7.41 24.23 8.31
8/23/2021 5:15:00 AM 20.86 69.548 0.122 7.41 24.94 8.31
8/23/2021 5:30:00 AM 20.83 69.494 0.123 7.42 25.03 8.32
8/23/2021 5:45:00 AM 20.81 69.458 0.126 7.42 26.07 8.31
8/23/2021 6:00:00 AM 20.79 69.422 0.128 7.43 27.14 8.32
8/23/2021 6:15:00 AM 20.77 69.386 0.13 7.42 27.71 8.32
8/23/2021 6:30:00 AM 20.76 69.368 0.132 7.42 28.3 8.33
8/23/2021 6:45:00 AM 20.74 69.332 0.133 7.43 27.35 8.33
8/23/2021 7:00:00 AM 20.74 69.332 0.133 7.42 28.05 8.34
8/23/2021 7:15:00 AM 20.73 69.314 0.133 7.42 27.81 8.33
8/23/2021 7:30:00 AM 20.74 69.332 0.132 7.42 26.65 8.35
8/23/2021 7:45:00 AM 20.76 69.368 0.131 7.43 25.5 8.35
8/23/2021 8:00:00 AM 20.77 69.386 0.13 7.43 24.74 8.36
8/23/2021 8:15:00 AM 20.78 69.404 0.129 7.44 24.21 8.37
8/23/2021 8:30:00 AM 20.79 69.422 0.128 7.44 23.07 8.37
8/23/2021 8:45:00 AM 20.82 69.476 0.128 7.44 22.57 8.39
8/23/2021 9:00:00 AM 20.82 69.476 0.127 7.45 21.99 8.39
8/23/2021 9:15:00 AM 20.83 69.494 0.126 7.46 21.62 8.38
8/23/2021 9:30:00 AM 20.86 69.548 0.126 7.46 22.25 8.4
8/23/2021 9:45:00 AM 20.89 69.602 0.125 7.46 21.93 8.4
8/23/2021 10:00:00 AM 20.91 69.638 0.125 7.47 22.26 8.4
8/23/2021 10:15:00 AM 20.92 69.656 0.125 7.48 22.82 8.4
8/23/2021 10:30:00 AM 20.93 69.674 0.125 7.48 23.51 8.39
8/23/2021 10:45:00 AM 20.94 69.692 0.125 7.49 23.05 8.39
8/23/2021 11:00:00 AM 20.98 69.764 0.126 7.49 26.69 8.38
8/23/2021 11:15:00 AM 21.03 69.854 0.126 7.5 28.38 8.39
8/23/2021 11:30:00 AM 21.07 69.926 0.127 7.5 29.99 8.39
8/23/2021 11:45:00 AM 21.16 70.088 0.129 7.5 31.94 8.38
8/23/2021 12:00:00 PM 21.3 70.34 0.131 7.5 34.36 8.37
8/23/2021 12:15:00 PM 21.43 70.574 0.132 7.51 34.79 8.36
8/23/2021 12:30:00 PM 21.53 70.754 0.133 7.52 35.23 8.36
8/23/2021 12:45:00 PM 21.58 70.844 0.133 7.51 35.57 8.34
8/23/2021 1:00:00 PM 21.66 70.988 0.132 7.52 36.04 8.33
8/23/2021 1:15:00 PM 21.67 71.006 0.132 7.53 36.33 8.31
8/23/2021 1:30:00 PM 21.7 71.06 0.133 7.53 33.88 8.28
8/23/2021 1:45:00 PM 21.75 71.15 0.133 7.51 35.04 8.31
8/23/2021 2:00:00 PM 21.79 71.222 0.134 7.52 30.16 8.31
8/23/2021 2:15:00 PM 21.86 71.348 0.135 7.53 31.62 8.3
8/23/2021 2:30:00 PM 21.95 71.51 0.136 7.52 33.2 8.3
8/23/2021 2:45:00 PM 21.97 71.546 0.136 7.53 31.67 8.29
8/23/2021 3:00:00 PM 22.08 71.744 0.136 7.54 31.43 8.29
8/23/2021 3:15:00 PM 22.15 71.87 0.135 7.54 30.83 8.28
8/23/2021 3:30:00 PM 22.19 71.942 0.133 7.55 30.78 8.26
8/23/2021 3:45:00 PM 22.2 71.96 0.132 7.55 29.81 8.26
8/23/2021 4:00:00 PM 22.25 72.05 0.13 7.55 30.39 8.27
8/23/2021 4:15:00 PM 22.27 72.086 0.129 7.54 29.29 8.26
8/23/2021 4:30:00 PM 22.24 72.032 0.127 7.54 30.48 8.24
8/23/2021 4:45:00 PM 22.18 71.924 0.125 7.53 30.75 8.23
8/23/2021 5:00:00 PM 22.2 71.96 0.124 7.53 31.66 8.22
8/23/2021 5:15:00 PM 22.24 72.032 0.122 7.52 32.75 8.22
8/23/2021 5:30:00 PM 22.23 72.014 0.121 7.51 32.71 8.21
8/23/2021 5:45:00 PM 22.2 71.96 0.119 7.5 34.82 8.18
8/23/2021 6:00:00 PM 22.19 71.942 0.118 7.48 33.66 8.18
8/23/2021 6:15:00 PM 22.18 71.924 0.117 7.48 33.94 8.16
8/23/2021 6:30:00 PM 22.17 71.906 0.116 7.46 33.51 8.17
8/23/2021 6:45:00 PM 22.16 71.888 0.115 7.46 34.49 8.16
8/23/2021 7:00:00 PM 22.14 71.852 0.114 7.45 35.84 8.14
8/23/2021 7:15:00 PM 22.1 71.78 0.113 7.45 34.64 8.14
8/23/2021 7:30:00 PM 22.05 71.69 0.112 7.43 36 8.15
8/23/2021 7:45:00 PM 21.99 71.582 0.111 7.43 35.96 8.15
8/23/2021 8:00:00 PM 21.92 71.456 0.111 7.41 36.4 8.15
8/23/2021 8:15:00 PM 21.85 71.33 0.11 7.41 37 8.16
8/23/2021 8:30:00 PM 21.79 71.222 0.109 7.4 37.34 8.18
8/23/2021 8:45:00 PM 21.74 71.132 0.108 7.4 39.43 8.18
8/23/2021 9:00:00 PM 21.69 71.042 0.107 7.39 37.84 8.19
8/23/2021 9:15:00 PM 21.65 70.97 0.107 7.38 35.6 8.2
8/23/2021 9:30:00 PM 21.61 70.898 0.106 7.38 37.33 8.21
8/23/2021 9:45:00 PM 21.58 70.844 0.105 7.37 39.87 8.2
8/23/2021 10:00:00 PM 21.55 70.79 0.105 7.36 40.67 8.21
8/23/2021 10:15:00 PM 21.53 70.754 0.104 7.35 39.39 8.21
8/23/2021 10:30:00 PM 21.52 70.736 0.103 7.34 39.42 8.21
8/23/2021 10:45:00 PM 21.51 70.718 0.102 7.33 39.88 8.22
8/23/2021 11:00:00 PM 21.5 70.7 0.101 7.32 39.97 8.19
8/23/2021 11:15:00 PM 21.5 70.7 0.101 7.32 43.54 8.2
8/23/2021 11:30:00 PM 21.5 70.7 0.1 7.32 40.17 8.19
8/23/2021 11:45:00 PM 21.5 70.7 0.099 7.3 39.65 8.19
8/24/2021 12:00:00 AM 21.5 70.7 0.098 7.3 39.88 8.19
8/24/2021 12:15:00 AM 21.49 70.682 0.097 7.29 39.6 8.19
8/24/2021 12:30:00 AM 21.48 70.664 0.096 7.29 39.67 8.18
8/24/2021 12:45:00 AM 21.47 70.646 0.096 7.28 38.86 8.19
8/24/2021 1:00:00 AM 21.46 70.628 0.095 7.28 38.84 8.18
8/24/2021 1:15:00 AM 21.44 70.592 0.095 7.28 37.58 8.19
8/24/2021 1:30:00 AM 21.43 70.574 0.094 7.27 37.95 8.18
8/24/2021 1:45:00 AM 21.42 70.556 0.094 7.28 50.32 8.17
8/24/2021 2:00:00 AM 21.41 70.538 0.094 7.26 37.54 8.19
8/24/2021 2:15:00 AM 21.4 70.52 0.094 7.27 36.94 8.18
8/24/2021 2:30:00 AM 21.4 70.52 0.094 7.27 35.45 8.18
8/24/2021 2:45:00 AM 21.39 70.502 0.094 7.28 35.83 8.18
8/24/2021 3:00:00 AM 21.38 70.484 0.094 7.27 33.09 8.19
8/24/2021 3:15:00 AM 21.37 70.466 0.094 7.27 33.41 8.2
8/24/2021 3:30:00 AM 21.36 70.448 0.094 7.27 32.84 8.19
8/24/2021 3:45:00 AM 21.36 70.448 0.094 7.27 32.57 8.21
8/24/2021 4:00:00 AM 21.35 70.43 0.094 7.27 32.06 8.2
8/24/2021 4:15:00 AM 21.33 70.394 0.094 7.28 31.63 8.21
8/24/2021 4:30:00 AM 21.32 70.376 0.095 7.27 32.29 8.2
8/24/2021 4:45:00 AM 21.3 70.34 0.095 7.28 29.05 8.22
8/24/2021 5:00:00 AM 21.28 70.304 0.095 7.28 28.07 8.22
8/24/2021 5:15:00 AM 21.26 70.268 0.096 7.28 28.73 8.24
8/24/2021 5:30:00 AM 21.24 70.232 0.096 7.28 26.94 8.22
8/24/2021 5:45:00 AM 21.21 70.17799 0.097 7.28 26.65 8.23
8/24/2021 6:00:00 AM 21.19 70.142 0.097 7.29 25.68 8.26
8/24/2021 6:15:00 AM 21.16 70.088 0.098 7.29 26.54 8.26
8/24/2021 6:30:00 AM 21.13 70.034 0.098 7.3 27.46 8.26
8/24/2021 6:45:00 AM 21.11 69.998 0.099 7.31 24.1 8.27
8/24/2021 7:00:00 AM 21.08 69.944 0.099 7.31 25.16 8.28
8/24/2021 7:15:00 AM 21.06 69.908 0.099 7.32 24.78 8.3
8/24/2021 7:30:00 AM 21.04 69.872 0.1 7.32 24.46 8.32
8/24/2021 7:45:00 AM 21.03 69.854 0.1 7.33 24.03 8.31
8/24/2021 8:00:00 AM 21.02 69.836 0.101 7.34 23.41 8.33
8/24/2021 8:15:00 AM 21.02 69.836 0.101 7.34 22.87 8.36
8/24/2021 8:30:00 AM 21.02 69.836 0.102 7.35 22.82 8.38
8/24/2021 8:45:00 AM 21.04 69.872 0.102 7.37 22.21 8.37
8/24/2021 9:00:00 AM 21.07 69.926 0.102 7.36 21.14 8.41
8/24/2021 9:15:00 AM 21.1 69.98 0.103 7.37 20.96 8.4
8/24/2021 9:30:00 AM 21.13 70.034 0.103 7.39 20.47 8.42
8/24/2021 9:45:00 AM 21.17 70.106 0.104 7.4 20.27 8.43
8/24/2021 10:00:00 AM 21.18 70.124 0.104 7.41 20.32 8.43
8/24/2021 10:15:00 AM 21.26 70.268 0.105 7.43 19.41 8.44
8/24/2021 10:30:00 AM 21.37 70.466 0.105 7.44 18.68 8.48
8/24/2021 10:45:00 AM 21.44 70.592 0.106 7.46 19.02 8.48
8/24/2021 11:00:00 AM 21.52 70.736 0.106 7.47 19.02 8.5
8/24/2021 11:15:00 AM 21.6 70.88 0.106 7.49 18.49 8.49
8/24/2021 11:30:00 AM 21.74 71.132 0.107 7.49 18.55 8.52
8/24/2021 11:45:00 AM 21.84 71.312 0.107 7.51 18.11 8.52
8/24/2021 12:00:00 PM 21.96 71.528 0.108 7.53 17.85 8.5
8/24/2021 12:15:00 PM 22.06 71.708 0.108 7.55 18.06 8.51
8/24/2021 12:30:00 PM 22.17 71.906 0.108 7.57 17.04 8.49
8/24/2021 12:45:00 PM 22.33 72.194 0.109 7.57 16.76 8.5
8/24/2021 1:00:00 PM 22.5 72.5 0.109 7.58 16.43 8.51
8/24/2021 1:15:00 PM 22.62 72.716 0.109 7.61 16.38 8.48
8/24/2021 1:30:00 PM 22.72 72.896 0.11 7.62 16.17 8.48
8/24/2021 1:45:00 PM 22.81 73.058 0.11 7.63 16.45 8.47
8/24/2021 2:00:00 PM 22.9 73.22 0.11 7.64 15.55 8.45
8/24/2021 2:15:00 PM 23 73.4 0.111 7.65 15.7 8.43
8/24/2021 2:30:00 PM 23.1 73.58 0.111 7.64 15.75 8.45
8/24/2021 2:45:00 PM 23.19 73.742 0.111 7.66 15.41 8.41
8/24/2021 3:00:00 PM 23.27 73.886 0.112 7.66 15.57 8.37
8/24/2021 3:15:00 PM 23.33 73.994 0.112 7.67 15.38 8.37
8/24/2021 3:30:00 PM 23.39 74.102 0.112 7.67 15.31 8.34
8/24/2021 3:45:00 PM 23.44 74.192 0.113 7.68 15.29 8.31
8/24/2021 4:00:00 PM 23.47 74.246 0.113 7.67 15.37 8.29
8/24/2021 4:15:00 PM 23.51 74.318 0.113 7.67 14.92 8.26
8/24/2021 4:30:00 PM 23.53 74.354 0.113 7.66 14.96 8.24
8/24/2021 4:45:00 PM 23.55 74.39 0.114 7.66 15.14 8.23
8/24/2021 5:00:00 PM 23.57 74.426 0.114 7.65 14.85 8.19
8/24/2021 5:15:00 PM 23.58 74.444 0.114 7.65 14.94 8.17
8/24/2021 5:30:00 PM 23.59 74.462 0.114 7.64 14.88 8.15
8/24/2021 5:45:00 PM 23.59 74.462 0.115 7.63 16.12 8.12
8/24/2021 6:00:00 PM 23.59 74.462 0.115 7.62 14.24 8.09
8/24/2021 6:15:00 PM 23.58 74.444 0.115 7.62 14.59 8.07
8/24/2021 6:30:00 PM 23.57 74.426 0.116 7.61 14.85 8.07
8/24/2021 6:45:00 PM 23.55 74.39 0.116 7.59 14.46 8.02
8/24/2021 7:00:00 PM 23.53 74.354 0.116 7.59 14.7 8.02
8/24/2021 7:15:00 PM 23.5 74.3 0.116 7.58 14.46 8.02
8/24/2021 7:30:00 PM 23.47 74.246 0.116 7.58 14.69 8.01
8/24/2021 7:45:00 PM 23.41 74.138 0.117 7.57 14.71 8.02
8/24/2021 8:00:00 PM 23.35 74.03 0.117 7.57 15.08 8.01
8/24/2021 8:15:00 PM 23.29 73.922 0.117 7.56 14.83 8.03
8/24/2021 8:30:00 PM 23.21 73.778 0.117 7.56 14.77 8.05
8/24/2021 8:45:00 PM 23.13 73.634 0.118 7.56 15.3 8.04
8/24/2021 9:00:00 PM 23.05 73.49 0.118 7.56 15.25 8.05
8/24/2021 9:15:00 PM 22.96 73.328 0.118 7.55 15.53 8.07
8/24/2021 9:30:00 PM 22.87 73.166 0.118 7.55 15.24 8.08
8/24/2021 9:45:00 PM 22.77 72.986 0.118 7.55 14.85 8.09
8/24/2021 10:00:00 PM 22.68 72.824 0.118 7.54 15.12 8.11
8/24/2021 10:15:00 PM 22.59 72.662 0.119 7.54 14.95 8.13
8/24/2021 10:30:00 PM 22.5 72.5 0.119 7.54 15.02 8.14
8/24/2021 10:45:00 PM 22.41 72.338 0.12 7.54 14.79 8.15
8/24/2021 11:00:00 PM 22.32 72.176 0.12 7.53 14.89 8.19
8/24/2021 11:15:00 PM 22.24 72.032 0.121 7.54 14.85 8.2
8/24/2021 11:30:00 PM 22.16 71.888 0.121 7.52 14.68 8.22
8/24/2021 11:45:00 PM 22.09 71.762 0.121 7.53 14.88 8.23
8/25/2021 12:00:00 AM 22.01 71.618 0.121 7.53 15.07 8.24
8/25/2021 12:15:00 AM 21.94 71.492 0.121 7.53 15.09 8.25
8/25/2021 12:30:00 AM 21.88 71.384 0.121 7.53 15.24 8.25
8/25/2021 12:45:00 AM 21.81 71.258 0.121 7.53 14.92 8.27
8/25/2021 1:00:00 AM 21.74 71.132 0.121 7.53 14.97 8.29
8/25/2021 1:15:00 AM 21.68 71.024 0.121 7.53 15 8.31
8/25/2021 1:30:00 AM 21.61 70.898 0.121 7.52 15.11 8.31
8/25/2021 1:45:00 AM 21.55 70.79 0.121 7.52 14.86 8.32
8/25/2021 2:00:00 AM 21.49 70.682 0.121 7.52 14.79 8.34
8/25/2021 2:15:00 AM 21.42 70.556 0.121 7.52 15.19 8.35
8/25/2021 2:30:00 AM 21.36 70.448 0.121 7.51 15.08 8.36
8/25/2021 2:45:00 AM 21.3 70.34 0.121 7.52 15.19 8.38
8/25/2021 3:00:00 AM 21.24 70.232 0.121 7.51 15.11 8.39
8/25/2021 3:15:00 AM 21.18 70.124 0.121 7.52 15.29 8.41
8/25/2021 3:30:00 AM 21.12 70.016 0.122 7.51 15.39 8.42
8/25/2021 3:45:00 AM 21.07 69.926 0.122 7.51 15.2 8.43
8/25/2021 4:00:00 AM 21.01 69.818 0.122 7.51 15.45 8.44
8/25/2021 4:15:00 AM 20.95 69.71 0.122 7.51 15.89 8.45
8/25/2021 4:30:00 AM 20.9 69.62 0.122 7.51 15.88 8.46
8/25/2021 4:45:00 AM 20.85 69.53 0.122 7.52 14.99 8.45
8/25/2021 5:00:00 AM 20.79 69.422 0.123 7.52 14.45 8.46
8/25/2021 5:15:00 AM 20.74 69.332 0.123 7.51 14.67 8.49
8/25/2021 5:30:00 AM 20.7 69.26 0.123 7.51 15.2 8.48
8/25/2021 5:45:00 AM 20.65 69.17 0.123 7.51 17.72 8.48
8/25/2021 6:00:00 AM 20.6 69.08 0.123 7.5 14.01 8.5
8/25/2021 6:15:00 AM 20.55 68.99 0.123 7.51 13.6 8.52
8/25/2021 6:30:00 AM 20.51 68.918 0.123 7.51 13.74 8.53
8/25/2021 6:45:00 AM 20.47 68.846 0.123 7.51 13.5 8.52
8/25/2021 7:00:00 AM 20.43 68.774 0.123 7.52 13.59 8.55
8/25/2021 7:15:00 AM 20.41 68.738 0.123 7.51 13.31 8.58
8/25/2021 7:30:00 AM 20.39 68.702 0.123 7.53 13.15 8.59
8/25/2021 7:45:00 AM 20.38 68.684 0.124 7.54 13.42 8.62
8/25/2021 8:00:00 AM 20.38 68.684 0.124 7.54 13.31 8.65
8/25/2021 8:15:00 AM 20.38 68.684 0.124 7.55 13.26 8.68
8/25/2021 8:30:00 AM 20.4 68.72 0.124 7.56 13.63 8.7
8/25/2021 8:45:00 AM 20.43 68.774 0.124 7.58 13.31 8.71
8/25/2021 9:00:00 AM 20.48 68.864 0.124 7.58 13.5 8.74
8/25/2021 9:15:00 AM 20.54 68.972 0.124 7.59 13.65 8.76
8/25/2021 9:30:00 AM 20.61 69.098 0.124 7.6 13.7 8.77
8/25/2021 9:45:00 AM 20.71 69.278 0.124 7.62 14.03 8.79
8/25/2021 10:00:00 AM 20.81 69.458 0.124 7.65 13.51 8.81
8/25/2021 10:15:00 AM 20.92 69.656 0.124 7.66 13.21 8.82
8/25/2021 10:30:00 AM 21.05 69.89 0.124 7.68 12.31 8.84
8/25/2021 10:45:00 AM 21.19 70.142 0.124 7.7 12.5 8.85
8/25/2021 11:00:00 AM 21.34 70.412 0.124 7.72 12.6 8.83
8/25/2021 11:15:00 AM 21.5 70.7 0.124 7.74 12.5 8.85
8/25/2021 11:30:00 AM 21.68 71.024 0.124 7.75 12.78 8.86
8/25/2021 11:45:00 AM 21.86 71.348 0.124 7.77 12.77 8.83
8/25/2021 12:00:00 PM 22.02 71.636 0.124 7.8 12.7 8.79
8/25/2021 12:15:00 PM 22.19 71.942 0.124 7.82 12.67 8.8
8/25/2021 12:30:00 PM 22.36 72.248 0.125 7.83 12.84 8.78
8/25/2021 12:45:00 PM 22.52 72.536 0.125 7.85 12.95 8.77
8/25/2021 1:00:00 PM 22.69 72.842 0.125 7.88 13.08 8.74
8/25/2021 1:15:00 PM 22.86 73.148 0.125 7.88 11.72 8.74
8/25/2021 1:30:00 PM 23.03 73.454 0.125 7.9 12.26 8.7
8/25/2021 1:45:00 PM 23.2 73.76 0.125 7.91 11.95 8.67
8/25/2021 2:00:00 PM 23.35 74.03 0.125 7.93 12.59 8.66
8/25/2021 2:15:00 PM 23.46 74.228 0.125 7.94 12.22 8.63
8/25/2021 2:30:00 PM 23.55 74.39 0.125 7.93 12.31 8.6
8/25/2021 2:45:00 PM 23.59 74.462 0.125 7.94 12.44 8.58
8/25/2021 3:00:00 PM 23.65 74.57 0.125 7.93 12.53 8.56
8/25/2021 3:15:00 PM 23.71 74.67799 0.125 7.94 12.42 8.53
8/25/2021 3:30:00 PM 23.77 74.786 0.125 7.94 12.07 8.5
8/25/2021 3:45:00 PM 23.84 74.912 0.125 7.93 12.4 8.48
8/25/2021 4:00:00 PM 23.9 75.02 0.125 7.92 12.67 8.43
8/25/2021 4:15:00 PM 23.94 75.092 0.125 7.92 12.04 8.41
8/25/2021 4:30:00 PM 23.97 75.146 0.125 7.91 12.21 8.35
8/25/2021 4:45:00 PM 23.99 75.182 0.126 7.89 13.56 8.31
8/25/2021 5:00:00 PM 24 75.2 0.126 7.87 12.18 8.28
8/25/2021 5:15:00 PM 24 75.2 0.126 7.86 12.35 8.24
8/25/2021 5:30:00 PM 24.01 75.218 0.126 7.84 12.44 8.22
8/25/2021 5:45:00 PM 24 75.2 0.126 7.83 12.47 8.14
8/25/2021 6:00:00 PM 23.98 75.164 0.126 7.8 13.05 8.08
8/25/2021 6:15:00 PM 23.95 75.11 0.126 7.78 12.64 8.09
8/25/2021 6:30:00 PM 23.95 75.11 0.126 7.75 12.69 8.07
8/25/2021 6:45:00 PM 23.96 75.128 0.127 7.74 13.9 7.99
8/25/2021 7:00:00 PM 23.97 75.146 0.127 7.71 12.41 7.98
8/25/2021 7:15:00 PM 23.98 75.164 0.127 7.69 12.74 7.94
8/25/2021 7:30:00 PM 24 75.2 0.127 7.67 12.74 7.91
8/25/2021 7:45:00 PM 24.01 75.218 0.127 7.66 12.79 7.88
8/25/2021 8:00:00 PM 24 75.2 0.127 7.63 13.18 7.87
8/25/2021 8:15:00 PM 23.99 75.182 0.127 7.63 13.2 7.83
8/25/2021 8:30:00 PM 23.97 75.146 0.127 7.61 13.37 7.83
8/25/2021 8:45:00 PM 23.95 75.11 0.127 7.6 13.48 7.81
8/25/2021 9:00:00 PM 23.91 75.038 0.128 7.6 13.46 7.81
8/25/2021 9:15:00 PM 23.86 74.948 0.128 7.6 13.57 7.86
8/25/2021 9:30:00 PM 23.81 74.858 0.128 7.6 13.78 7.84
8/25/2021 9:45:00 PM 23.76 74.768 0.128 7.59 13.99 7.86
8/25/2021 10:00:00 PM 23.7 74.66 0.128 7.59 13.79 7.85
8/25/2021 10:15:00 PM 23.63 74.534 0.128 7.59 14.29 7.88
8/25/2021 10:30:00 PM 23.56 74.408 0.128 7.58 13.63 7.88
8/25/2021 10:45:00 PM 23.5 74.3 0.128 7.58 14.09 7.9
8/25/2021 11:00:00 PM 23.42 74.156 0.129 7.58 14.32 7.93
8/25/2021 11:15:00 PM 23.35 74.03 0.129 7.58 14.03 7.91
8/25/2021 11:30:00 PM 23.27 73.886 0.129 7.58 14.13 7.95
8/25/2021 11:45:00 PM 23.2 73.76 0.129 7.58 14.33 7.93
8/26/2021 12:00:00 AM 23.12 73.616 0.129 7.57 13.69 7.97
8/26/2021 12:15:00 AM 23.04 73.472 0.129 7.57 13.99 7.98
8/26/2021 12:30:00 AM 22.97 73.346 0.13 7.57 14.13 7.98
8/26/2021 12:45:00 AM 22.89 73.202 0.13 7.57 14.33 8
8/26/2021 1:00:00 AM 22.81 73.058 0.13 7.56 14.52 8.02
8/26/2021 1:15:00 AM 22.74 72.932 0.13 7.56 14.16 8.03
8/26/2021 1:30:00 AM 22.66 72.788 0.13 7.56 14.48 8.07
8/26/2021 1:45:00 AM 22.59 72.662 0.13 7.56 14.52 8.1
8/26/2021 2:00:00 AM 22.52 72.536 0.13 7.55 14.12 8.05
8/26/2021 2:15:00 AM 22.46 72.42799 0.13 7.57 14.34 8.06
8/26/2021 2:30:00 AM 22.4 72.32 0.13 7.55 14.5 7.21
8/26/2021 2:45:00 AM 22.34 72.212 0.131 7.56 13.46 8.1
8/26/2021 3:00:00 AM 22.28 72.104 0.131 7.56 13.5 8.08
8/26/2021 3:15:00 AM 22.22 71.996 0.131 7.55 13.6 8.1
8/26/2021 3:30:00 AM 22.16 71.888 0.131 7.56 13.62 8.13
8/26/2021 3:45:00 AM 22.11 71.798 0.131 7.57 13.34 8.14
8/26/2021 4:00:00 AM 22.05 71.69 0.131 7.56 13.79 8.18
8/26/2021 4:15:00 AM 21.98 71.564 0.131 7.56 13.49 8.18
8/26/2021 4:30:00 AM 21.92 71.456 0.131 7.57 13.53 8.2
8/26/2021 4:45:00 AM 21.86 71.348 0.132 7.57 13.04 8.22
8/26/2021 5:00:00 AM 21.8 71.24 0.132 7.58 13.29 8.23
8/26/2021 5:15:00 AM 21.73 71.114 0.132 7.57 13.07 8.25
8/26/2021 5:30:00 AM 21.67 71.006 0.132 7.56 11.96 8.26
8/26/2021 5:45:00 AM 21.6 70.88 0.132 7.57 12.11 8.27
8/26/2021 6:00:00 AM 21.54 70.772 0.132 7.57 12.16 8.31
8/26/2021 6:15:00 AM 21.48 70.664 0.132 7.57 12.16 8.31
8/26/2021 6:30:00 AM 21.44 70.592 0.132 7.56 12.05 8.33
8/26/2021 6:45:00 AM 21.38 70.484 0.132 7.56 12.25 8.36
8/26/2021 7:00:00 AM 21.34 70.412 0.132 7.57 12.04 8.38
8/26/2021 7:15:00 AM 21.29 70.32201 0.132 7.57 12.11 8.38
8/26/2021 7:30:00 AM 21.25 70.25 0.132 7.57 12.23 8.42
8/26/2021 7:45:00 AM 21.23 70.214 0.132 7.58 11.93 8.46
8/26/2021 8:00:00 AM 21.22 70.196 0.132 7.6 12.31 8.53
8/26/2021 8:15:00 AM 21.21 70.17799 0.133 7.62 12.24 8.56
8/26/2021 8:30:00 AM 21.19 70.142 0.133 7.63 12.31 8.59
8/26/2021 8:45:00 AM 21.2 70.16 0.133 7.64 12.17 8.62
8/26/2021 9:00:00 AM 21.23 70.214 0.133 7.65 12.1 8.67
8/26/2021 9:15:00 AM 21.27 70.286 0.133 7.67 12.46 8.67
8/26/2021 9:30:00 AM 21.34 70.412 0.133 7.69 12.71 8.71
8/26/2021 9:45:00 AM 21.42 70.556 0.133 7.7 12.72 8.76
8/26/2021 10:00:00 AM 21.51 70.718 0.133 7.73 13.24 8.78
8/26/2021 10:15:00 AM 21.62 70.916 0.133 7.75 12.45 8.79
8/26/2021 10:30:00 AM 21.74 71.132 0.133 7.77 12.26 8.82
8/26/2021 10:45:00 AM 21.89 71.402 0.133 7.79 12.06 8.84
8/26/2021 11:00:00 AM 22.06 71.708 0.133 7.83 12.11 8.85
8/26/2021 11:15:00 AM 22.22 71.996 0.133 7.86 12.25 8.86
8/26/2021 11:30:00 AM 22.4 72.32 0.133 7.89 12.19 8.85
8/26/2021 11:45:00 AM 22.61 72.698 0.133 7.91 11.76 8.85
8/26/2021 12:00:00 PM 22.81 73.058 0.133 7.94 11.64 8.84
8/26/2021 12:15:00 PM 23.01 73.418 0.133 7.97 11.91 8.81
8/26/2021 12:30:00 PM 23.22 73.796 0.133 8 11.83 8.81
8/26/2021 12:45:00 PM 23.43 74.174 0.133 8.02 11.7 8.76
8/26/2021 1:00:00 PM 23.61 74.498 0.133 8.04 11.84 8.74
8/26/2021 1:15:00 PM 23.73 74.714 0.133 8.06 10.76 8.68
8/26/2021 1:30:00 PM 24 75.2 0.133 8.08 10.61 8.69
8/26/2021 1:45:00 PM 24.16 75.488 0.133 8.09 10.62 8.66
8/26/2021 2:00:00 PM 24.36 75.848 0.133 8.12 10.74 8.63
8/26/2021 2:15:00 PM 24.52 76.136 0.133 8.14 10.67 8.59
8/26/2021 2:30:00 PM 24.63 76.334 0.133 8.14 10.69 8.55
8/26/2021 2:45:00 PM 24.69 76.442 0.133 8.14 10.67 8.51
8/26/2021 3:00:00 PM 24.77 76.586 0.133 8.14 10.75 8.5
8/26/2021 3:15:00 PM 24.84 76.712 0.133 8.15 11.05 8.48
8/26/2021 3:30:00 PM 24.9 76.82 0.133 8.15 10.86 8.4
8/26/2021 3:45:00 PM 24.81 76.658 0.133 8.13 10.78 8.31
8/26/2021 4:00:00 PM 24.61 76.298 0.133 8.07 11.26 8.26
8/26/2021 4:15:00 PM 24.48 76.064 0.133 8.01 10.94 8.27
8/26/2021 4:30:00 PM 24.38 75.884 0.133 7.97 13.32 8.2
8/26/2021 4:45:00 PM 24.25 75.65 0.134 7.94 10.52 8.13
8/26/2021 5:00:00 PM 24.15 75.47 0.134 7.88 10.37 8.11
8/26/2021 5:15:00 PM 24.11 75.398 0.134 7.87 10.67 8.14
8/26/2021 5:30:00 PM 24.08 75.344 0.133 7.87 10.72 8.19
8/26/2021 5:45:00 PM 24.07 75.326 0.133 7.87 10.8 8.16
8/26/2021 6:00:00 PM 24.07 75.326 0.133 7.86 10.94 8.13
8/26/2021 6:15:00 PM 24.06 75.308 0.133 7.85 11.26 8.12
8/26/2021 6:30:00 PM 24.06 75.308 0.133 7.84 11.01 8.15
8/26/2021 6:45:00 PM 24.04 75.272 0.134 7.84 10.61 8.13
8/26/2021 7:00:00 PM 23.99 75.182 0.133 7.82 10.58 8.09
8/26/2021 7:15:00 PM 23.94 75.092 0.133 7.81 10.89 8.05
8/26/2021 7:30:00 PM 23.91 75.038 0.133 7.79 10.83 8.01
8/26/2021 7:45:00 PM 23.87 74.966 0.133 7.77 11.02 7.99
8/26/2021 8:00:00 PM 23.82 74.876 0.133 7.75 11.12 7.97
8/26/2021 8:15:00 PM 23.79 74.82201 0.134 7.74 11.5 7.97
8/26/2021 8:30:00 PM 23.76 74.768 0.134 7.71 11.46 7.93
8/26/2021 8:45:00 PM 23.72 74.696 0.134 7.71 11.84 7.92
8/26/2021 9:00:00 PM 23.68 74.624 0.134 7.7 11.87 7.93
8/26/2021 9:15:00 PM 23.64 74.552 0.134 7.68 11.67 7.93
8/26/2021 9:30:00 PM 23.61 74.498 0.135 7.67 11.9 7.93
8/26/2021 9:45:00 PM 23.57 74.426 0.135 7.67 12.28 7.92
8/26/2021 10:00:00 PM 23.53 74.354 0.13 7.67 12.04 7.94
8/26/2021 10:15:00 PM 23.49 74.282 0.135 7.66 12.25 7.93
8/26/2021 10:30:00 PM 23.45 74.21 0.134 7.65 12.23 7.95
8/26/2021 10:45:00 PM 23.4 74.12 0.134 7.65 12.18 7.96
8/26/2021 11:00:00 PM 23.35 74.03 0.134 7.64 12.2 7.95
8/26/2021 11:15:00 PM 23.3 73.94 0.134 7.63 11.18 7.98
8/26/2021 11:30:00 PM 23.25 73.85 0.133 7.63 11.3 7.98
8/26/2021 11:45:00 PM 23.2 73.76 0.133 7.62 11.37 8
8/27/2021 12:00:00 AM 23.14 73.652 0.133 7.62 11.49 8.01
8/27/2021 12:15:00 AM 23.08 73.544 0.133 7.63 11.31 8
8/27/2021 12:30:00 AM 23.02 73.436 0.133 7.63 11.28 8.02
8/27/2021 12:45:00 AM 22.96 73.328 0.133 7.62 11.51 8.04
8/27/2021 1:00:00 AM 22.9 73.22 0.133 7.63 11.36 8.04
8/27/2021 1:15:00 AM 22.85 73.13 0.134 7.6 11.11 8.05
8/27/2021 1:30:00 AM 22.79 73.022 0.134 7.62 10.99 8.05
8/27/2021 1:45:00 AM 22.73 72.914 0.134 7.62 10.97 8.08
8/27/2021 2:00:00 AM 22.68 72.824 0.134 7.62 11.25 8.08
8/27/2021 2:15:00 AM 22.64 72.752 0.134 7.61 11.17 8.09
8/27/2021 2:30:00 AM 22.59 72.662 0.135 7.61 11.31 8.11
8/27/2021 2:45:00 AM 22.55 72.59 0.135 7.61 11.1 8.13
8/27/2021 3:00:00 AM 22.5 72.5 0.135 7.62 11.06 8.13
8/27/2021 3:15:00 AM 22.46 72.42799 0.135 7.61 11.88 8.14
8/27/2021 3:30:00 AM 22.41 72.338 0.135 7.62 11.46 8.14
8/27/2021 3:45:00 AM 22.36 72.248 0.135 7.61 11.44 8.17
8/27/2021 4:00:00 AM 22.32 72.176 0.135 7.61 11.42 8.16
8/27/2021 4:15:00 AM 22.27 72.086 0.135 7.61 11.34 8.15
8/27/2021 4:30:00 AM 22.22 71.996 0.135 7.61 11.24 8.18
8/27/2021 4:45:00 AM 22.17 71.906 0.135 7.61 11.43 8.2
8/27/2021 5:00:00 AM 22.13 71.834 0.135 7.6 11.41 8.2
8/27/2021 5:15:00 AM 22.09 71.762 0.136 7.6 11.13 8.21
8/27/2021 5:30:00 AM 22.06 71.708 0.136 7.61 11.32 8.21
8/27/2021 5:45:00 AM 22.02 71.636 0.136 7.6 11.15 8.23
8/27/2021 6:00:00 AM 21.99 71.582 0.136 7.6 10.73 8.23
8/27/2021 6:15:00 AM 21.95 71.51 0.137 7.6 10.94 8.24
8/27/2021 6:30:00 AM 21.91 71.438 0.137 7.61 10.53 8.25
8/27/2021 6:45:00 AM 21.88 71.384 0.137 7.61 10.48 8.26
8/27/2021 7:00:00 AM 21.85 71.33 0.137 7.61 10.49 8.29
8/27/2021 7:15:00 AM 21.82 71.276 0.137 7.62 10.27 8.32
8/27/2021 7:30:00 AM 21.8 71.24 0.137 7.62 10.86 8.34
8/27/2021 7:45:00 AM 21.77 71.186 0.138 7.62 10.61 8.35
8/27/2021 8:00:00 AM 21.75 71.15 0.138 7.63 10.66 8.38
8/27/2021 8:15:00 AM 21.74 71.132 0.138 7.64 10.57 8.42
8/27/2021 8:30:00 AM 21.73 71.114 0.138 7.64 9.95 8.47
8/27/2021 8:45:00 AM 21.74 71.132 0.138 7.66 10.03 8.53
8/27/2021 9:00:00 AM 21.78 71.204 0.138 7.69 10.09 8.63
8/27/2021 9:15:00 AM 21.83 71.294 0.138 7.72 10.06 8.66
8/27/2021 9:30:00 AM 21.85 71.33 0.138 7.75 9.85 8.71
8/27/2021 9:45:00 AM 21.9 71.42 0.138 7.77 9.99 8.78
8/27/2021 10:00:00 AM 21.95 71.51 0.138 7.8 10.15 8.79
8/27/2021 10:15:00 AM 21.98 71.564 0.138 7.82 10.02 8.78
8/27/2021 10:30:00 AM 21.99 71.582 0.138 7.82 10 8.79
8/27/2021 10:45:00 AM 22.02 71.636 0.138 7.84 8.84 8.79
8/27/2021 11:00:00 AM 22.04 71.672 0.138 7.86 9.27 8.81
8/27/2021 11:15:00 AM 22.07 71.726 0.138 7.86 9.33 8.82
8/27/2021 11:30:00 AM 22.1 71.78 0.138 7.88 9.22 8.81
8/27/2021 11:45:00 AM 22.13 71.834 0.138 7.89 9.36 8.81
8/27/2021 12:00:00 PM 22.15 71.87 0.138 7.89 9.22 8.79
8/27/2021 12:15:00 PM 22.18 71.924 0.138 7.89 9.34 8.79
8/27/2021 12:30:00 PM 22.22 71.996 0.138 7.9 9.3 8.83
8/27/2021 12:45:00 PM 22.28 72.104 0.138 7.93 9.28 8.87
8/27/2021 1:00:00 PM 22.36 72.248 0.138 7.96 9.65 8.91
8/27/2021 1:15:00 PM 22.46 72.42799 0.138 8 9.22 8.96
8/27/2021 1:30:00 PM 22.55 72.59 0.138 8.04 9.25 9
8/27/2021 1:45:00 PM 22.73 72.914 0.138 8.08 9.24 9
8/27/2021 2:00:00 PM 22.95 73.31 0.138 8.13 9 9.01
8/27/2021 2:15:00 PM 23.17 73.706 0.138 8.18 9.17 9
8/27/2021 2:30:00 PM 23.35 74.03 0.138 8.22 8.89 9
8/27/2021 2:45:00 PM 23.5 74.3 0.138 8.27 9.46 8.96
8/27/2021 3:00:00 PM 23.61 74.498 0.138 8.3 8.98 8.94
8/27/2021 3:15:00 PM 23.7 74.66 0.138 8.32 8.91 8.87
8/27/2021 3:30:00 PM 23.79 74.82201 0.138 8.32 8.97 8.82
8/27/2021 3:45:00 PM 23.85 74.93 0.138 8.32 8.9 8.79
8/27/2021 4:00:00 PM 23.93 75.074 0.138 8.31 9.01 8.74
8/27/2021 4:15:00 PM 24 75.2 0.138 8.3 9.25 8.69
8/27/2021 4:30:00 PM 24.04 75.272 0.138 8.27 9.03 8.64
8/27/2021 4:45:00 PM 24.05 75.29 0.138 8.24 9.19 8.59
8/27/2021 5:00:00 PM 24.04 75.272 0.138 8.2 89.54 8.56
8/27/2021 5:15:00 PM 24 75.2 0.138 8.16 126.29 8.51
8/27/2021 5:30:00 PM 23.97 75.146 0.139 8.12 34.19 8.48
8/27/2021 5:45:00 PM 23.93 75.074 0.139 8.09 57.19 8.43
8/27/2021 6:00:00 PM 23.85 74.93 0.139 8.02 7.17 8.31
8/27/2021 6:15:00 PM 23.73 74.714 0.139 7.97 579.43 8.23
8/27/2021 6:30:00 PM 23.64 74.552 0.139 7.92 94.29 8.18
8/27/2021 6:45:00 PM 23.56 74.408 0.139 7.86 73.38 8.16
8/27/2021 7:00:00 PM 23.5 74.3 0.14 7.83 7.62 8.14
8/27/2021 7:15:00 PM 23.45 74.21 0.14 7.81 313.49 8.13
8/27/2021 7:30:00 PM 23.42 74.156 0.139 7.78 551.73 8.11
8/27/2021 7:45:00 PM 23.39 74.102 0.139 7.76 821.39 8.09
8/27/2021 8:00:00 PM 23.38 74.084 0.14 7.74 746.33 8.07
8/27/2021 8:15:00 PM 23.37 74.066 0.14 7.73 7.84 8.07
8/27/2021 8:30:00 PM 23.37 74.066 0.14 7.7 7.94 8.06
8/27/2021 8:45:00 PM 23.37 74.066 0.14 7.7 7.94 8.05
8/27/2021 9:00:00 PM 23.36 74.048 0.14 7.69 8.06 8.04
8/27/2021 9:15:00 PM 23.36 74.048 0.14 7.69 8.23 8.04
8/27/2021 9:30:00 PM 23.34 74.012 0.139 7.69 8.42 8.04
8/27/2021 9:45:00 PM 23.33 73.994 0.139 7.67 8.41 8.04
8/27/2021 10:00:00 PM 23.3 73.94 0.139 7.67 8.61 8.04
8/27/2021 10:15:00 PM 23.28 73.904 0.139 7.67 8.42 8.04
8/27/2021 10:30:00 PM 23.25 73.85 0.139 7.66 8.49 8.04
8/27/2021 10:45:00 PM 23.22 73.796 0.134 7.65 8.61 8.04
8/27/2021 11:00:00 PM 23.18 73.724 0.134 7.65 8.91 8.04
8/27/2021 11:15:00 PM 23.14 73.652 0.139 7.66 8.69 8.05
8/27/2021 11:30:00 PM 23.1 73.58 0.139 7.64 8.7 8.06
8/27/2021 11:45:00 PM 23.07 73.526 0.139 7.65 9.09 8.07
8/28/2021 12:00:00 AM 23.03 73.454 0.139 7.64 8.88 8.07
8/28/2021 12:15:00 AM 23 73.4 0.139 7.63 8.89 8.09
8/28/2021 12:30:00 AM 22.97 73.346 0.139 7.63 9.12 8.09
8/28/2021 12:45:00 AM 22.95 73.31 0.14 7.64 9.05 8.09
8/28/2021 1:00:00 AM 22.92 73.256 0.14 7.63 8.84 8.1
8/28/2021 1:15:00 AM 22.9 73.22 0.138 7.63 8.95 8.11
8/28/2021 1:30:00 AM 22.87 73.166 0.14 7.62 9.27 8.11
8/28/2021 1:45:00 AM 22.85 73.13 0.14 7.62 9.18 8.11
8/28/2021 2:00:00 AM 22.82 73.076 0.14 7.63 9.37 8.11
8/28/2021 2:15:00 AM 22.79 73.022 0.14 7.64 9.22 8.11
8/28/2021 2:30:00 AM 22.76 72.968 0.14 7.64 9.2 8.12
8/28/2021 2:45:00 AM 22.73 72.914 0.14 7.63 9.19 8.13
8/28/2021 3:00:00 AM 22.69 72.842 0.141 7.64 9.1 8.14
8/28/2021 3:15:00 AM 22.65 72.77 0.141 7.63 8.89 8.15
8/28/2021 3:30:00 AM 22.62 72.716 0.141 7.64 9.32 8.14
8/28/2021 3:45:00 AM 22.6 72.68 0.141 7.63 9.19 8.15
8/28/2021 4:00:00 AM 22.56 72.608 0.141 7.63 9.17 8.16
8/28/2021 4:15:00 AM 22.52 72.536 0.141 7.63 9.11 8.16
8/28/2021 4:30:00 AM 22.49 72.482 0.141 7.63 9.11 8.17
8/28/2021 4:45:00 AM 22.45 72.41 0.141 7.63 9.12 8.18
8/28/2021 5:00:00 AM 22.42 72.356 0.141 7.62 9.23 8.18
8/28/2021 5:15:00 AM 22.38 72.284 0.141 7.62 9.24 8.19
8/28/2021 5:30:00 AM 22.34 72.212 0.141 7.63 9.32 8.2
8/28/2021 5:45:00 AM 22.31 72.158 0.141 7.61 9.53 8.21
8/28/2021 6:00:00 AM 22.27 72.086 0.142 7.61 9.61 8.22
8/28/2021 6:15:00 AM 22.24 72.032 0.142 7.62 9.27 8.23
8/28/2021 6:30:00 AM 22.2 71.96 0.142 7.61 9.33 8.23
8/28/2021 6:45:00 AM 22.17 71.906 0.142 7.62 750.39 8.24
8/28/2021 7:00:00 AM 22.14 71.852 0.142 7.61 663.15 8.27
8/28/2021 7:15:00 AM 22.12 71.816 0.142 7.63 1053.63 8.29
8/28/2021 7:30:00 AM 22.1 71.78 0.142 7.63 890.04 8.32
8/28/2021 7:45:00 AM 22.07 71.726 0.142 7.64 802.02 8.34
8/28/2021 8:00:00 AM 22.06 71.708 0.142 7.64 698.9 8.36
8/28/2021 8:15:00 AM 22.05 71.69 0.142 7.65 513.03 8.4
8/28/2021 8:30:00 AM 22.04 71.672 0.142 7.66 1149.35 8.41
8/28/2021 8:45:00 AM 22.04 71.672 0.142 7.67 533.71 8.43
8/28/2021 9:00:00 AM 22.03 71.654 0.142 7.68 8.16 8.47
8/28/2021 9:15:00 AM 22.04 71.672 0.142 7.71 8.33 8.53
8/28/2021 9:30:00 AM 22.07 71.726 0.142 7.74 8.27 8.63
8/28/2021 9:45:00 AM 22.13 71.834 0.142 7.78 8.37 8.72
8/28/2021 10:00:00 AM 22.15 71.87 0.142 7.81 8.34 8.75
8/28/2021 10:15:00 AM 22.17 71.906 0.142 7.84 8.24 8.75
8/28/2021 10:30:00 AM 22.18 71.924 0.142 7.86 8.52 8.78
8/28/2021 10:45:00 AM 22.21 71.978 0.141 7.89 8.58 8.81
8/28/2021 11:00:00 AM 22.24 72.032 0.141 7.92 8.33 8.85
8/28/2021 11:15:00 AM 22.26 72.068 0.141 7.94 8.45 8.86
8/28/2021 11:30:00 AM 22.26 72.068 0.141 7.96 8.34 8.84
8/28/2021 11:45:00 AM 22.29 72.122 0.141 7.98 8.49 8.89
8/28/2021 12:00:00 PM 22.3 72.14 0.141 7.99 8.42 8.85
8/28/2021 12:15:00 PM 22.31 72.158 0.141 8 8.55 8.85
8/28/2021 12:30:00 PM 22.31 72.158 0.141 8 8.6 8.84
8/28/2021 12:45:00 PM 22.36 72.248 0.141 8.03 8.49 8.92
8/28/2021 1:00:00 PM 22.42 72.356 0.141 8.08 8.68 8.98
8/28/2021 1:15:00 PM 22.46 72.42799 0.141 8.13 8.52 8.97
8/28/2021 1:30:00 PM 22.48 72.464 0.141 8.14 8.94 8.94
8/28/2021 1:45:00 PM 22.47 72.446 0.141 8.15 9.06 8.88
8/28/2021 2:00:00 PM 22.49 72.482 0.141 8.13 9.11 8.89
8/28/2021 2:15:00 PM 22.52 72.536 0.142 8.16 9.15 8.93
8/28/2021 2:30:00 PM 22.56 72.608 0.142 8.19 8.73 8.96
8/28/2021 2:45:00 PM 22.59 72.662 0.141 8.21 8.97 8.98
8/28/2021 3:00:00 PM 22.63 72.734 0.141 8.24 9.07 8.99
8/28/2021 3:15:00 PM 22.64 72.752 0.141 8.26 8.98 8.94
8/28/2021 3:30:00 PM 22.64 72.752 0.141 8.25 8.75 8.9
8/28/2021 3:45:00 PM 22.62 72.716 0.141 8.23 8.86 8.83
8/28/2021 4:00:00 PM 22.6 72.68 0.141 8.19 8.75 8.76
8/28/2021 4:15:00 PM 22.57 72.626 0.142 8.15 8.66 8.71
8/28/2021 4:30:00 PM 22.56 72.608 0.142 8.11 8.61 8.67
8/28/2021 4:45:00 PM 22.54 72.57201 0.143 8.08 8.57 8.64
8/28/2021 5:00:00 PM 22.54 72.57201 0.143 8.05 8.81 8.64
8/28/2021 5:15:00 PM 22.53 72.554 0.143 8.05 8.72 8.62
8/28/2021 5:30:00 PM 22.52 72.536 0.142 8.02 8.78 8.6
8/28/2021 5:45:00 PM 22.52 72.536 0.142 8.01 8.82 8.56
8/28/2021 6:00:00 PM 22.51 72.518 0.142 7.98 8.68 8.53
8/28/2021 6:15:00 PM 22.49 72.482 0.141 7.94 8.92 8.47
8/28/2021 6:30:00 PM 22.48 72.464 0.141 7.93 9.05 8.44
8/28/2021 6:45:00 PM 22.47 72.446 0.141 7.9 9.3 8.4
8/28/2021 7:00:00 PM 22.45 72.41 0.14 7.88 9.26 8.36
8/28/2021 7:15:00 PM 22.43 72.374 0.14 7.85 9.19 8.33
8/28/2021 7:30:00 PM 22.4 72.32 0.14 7.83 9.14 8.32
8/28/2021 7:45:00 PM 22.38 72.284 0.14 7.82 9.22 8.29
8/28/2021 8:00:00 PM 22.36 72.248 0.14 7.79 9.21 8.28
8/28/2021 8:15:00 PM 22.34 72.212 0.14 7.78 9.38 8.27
8/28/2021 8:30:00 PM 22.32 72.176 0.14 7.77 8.67 8.26
8/28/2021 8:45:00 PM 22.29 72.122 0.14 7.78 8.57 8.25
8/28/2021 9:00:00 PM 22.27 72.086 0.14 7.76 8.79 8.25
8/28/2021 9:15:00 PM 22.24 72.032 0.14 7.75 8.71 8.25
8/28/2021 9:30:00 PM 22.22 71.996 0.14 7.75 8.85 8.26
8/28/2021 9:45:00 PM 22.2 71.96 0.14 7.73 8.85 8.27
8/28/2021 10:00:00 PM 22.18 71.924 0.14 7.74 8.82 8.26
8/28/2021 10:15:00 PM 22.16 71.888 0.14 7.72 8.85 8.27
8/28/2021 10:30:00 PM 22.13 71.834 0.14 7.73 9.03 8.26
8/28/2021 10:45:00 PM 22.1 71.78 0.14 7.73 8.87 8.27
8/28/2021 11:00:00 PM 22.07 71.726 0.14 7.73 8.9 8.29
8/28/2021 11:15:00 PM 22.04 71.672 0.14 7.73 9.09 8.27
8/28/2021 11:30:00 PM 22.01 71.618 0.141 7.73 8.95 8.3
8/28/2021 11:45:00 PM 21.98 71.564 0.141 7.72 9.12 8.3
8/29/2021 12:00:00 AM 21.94 71.492 0.141 7.73 8.95 8.31
8/29/2021 12:15:00 AM 21.91 71.438 0.141 7.72 9.06 8.33
8/29/2021 12:30:00 AM 21.88 71.384 0.141 7.71 9.32 8.32
8/29/2021 12:45:00 AM 21.85 71.33 0.141 7.72 9.22 8.34
8/29/2021 1:00:00 AM 21.82 71.276 0.141 7.71 9.13 8.34
8/29/2021 1:15:00 AM 21.79 71.222 0.142 7.71 9.02 8.34
8/29/2021 1:30:00 AM 21.77 71.186 0.142 7.71 9.19 8.35
8/29/2021 1:45:00 AM 21.74 71.132 0.142 7.71 9.04 8.35
8/29/2021 2:00:00 AM 21.71 71.078 0.142 7.7 9.05 8.35
8/29/2021 2:15:00 AM 21.68 71.024 0.142 7.71 8.98 8.35
8/29/2021 2:30:00 AM 21.65 70.97 0.142 7.7 8.96 8.36
8/29/2021 2:45:00 AM 21.63 70.934 0.142 7.7 8.97 8.36
8/29/2021 3:00:00 AM 21.6 70.88 0.142 7.7 8.2 8.37
8/29/2021 3:15:00 AM 21.57 70.826 0.142 7.7 8.27 8.38
8/29/2021 3:30:00 AM 21.54 70.772 0.143 7.7 8.23 8.38
8/29/2021 3:45:00 AM 21.51 70.718 0.143 7.71 8.18 8.39
8/29/2021 4:00:00 AM 21.47 70.646 0.143 7.7 8.42 8.39
8/29/2021 4:15:00 AM 21.44 70.592 0.143 7.7 8.22 8.4
8/29/2021 4:30:00 AM 21.41 70.538 0.143 7.69 8.27 8.4
8/29/2021 4:45:00 AM 21.38 70.484 0.143 7.7 8.3 8.41
8/29/2021 5:00:00 AM 21.34 70.412 0.143 7.69 8.27 8.42
8/29/2021 5:15:00 AM 21.31 70.358 0.143 7.7 8.25 8.42
8/29/2021 5:30:00 AM 21.27 70.286 0.143 7.69 8.42 8.43
8/29/2021 5:45:00 AM 21.24 70.232 0.143 7.69 8.29 8.43
8/29/2021 6:00:00 AM 21.21 70.17799 0.143 7.7 8.33 8.44
8/29/2021 6:15:00 AM 21.17 70.106 0.143 7.69 8.36 8.45
8/29/2021 6:30:00 AM 21.14 70.052 0.143 7.7 8.4 8.46
8/29/2021 6:45:00 AM 21.12 70.016 0.143 7.69 8.28 8.47
8/29/2021 7:00:00 AM 21.1 69.98 0.143 7.7 8.19 8.49
8/29/2021 7:15:00 AM 21.08 69.944 0.143 7.7 8.19 8.52
8/29/2021 7:30:00 AM 21.06 69.908 0.143 7.7 8.21 8.58
8/29/2021 7:45:00 AM 21.05 69.89 0.143 7.72 8.11 8.63
8/29/2021 8:00:00 AM 21.04 69.872 0.143 7.74 8.01 8.68
8/29/2021 8:15:00 AM 21.04 69.872 0.143 7.75 7.91 8.71
8/29/2021 8:30:00 AM 21.04 69.872 0.143 7.77 7.94 8.76
8/29/2021 8:45:00 AM 21.06 69.908 0.143 7.79 7.81 8.84
8/29/2021 9:00:00 AM 21.09 69.962 0.143 7.83 7.72 8.92
8/29/2021 9:15:00 AM 21.12 70.016 0.143 7.86 7.74 8.97
8/29/2021 9:30:00 AM 21.16 70.088 0.143 7.9 7.72 9.01
8/29/2021 9:45:00 AM 21.22 70.196 0.143 7.93 7.6 9.05
8/29/2021 10:00:00 AM 21.32 70.376 0.143 7.98 7.64 9.1
8/29/2021 10:15:00 AM 21.46 70.628 0.143 8.03 7.58 9.16
8/29/2021 10:30:00 AM 21.61 70.898 0.143 8.07 7.62 9.17
8/29/2021 10:45:00 AM 21.74 71.132 0.143 8.11 7.5 9.18
8/29/2021 11:00:00 AM 21.88 71.384 0.143 8.15 7.56 9.18
8/29/2021 11:15:00 AM 22.03 71.654 0.143 8.19 7.36 9.19
8/29/2021 11:30:00 AM 22.15 71.87 0.143 8.23 7.33 9.21
8/29/2021 11:45:00 AM 22.32 72.176 0.143 8.27 7.32 9.21
8/29/2021 12:00:00 PM 22.45 72.41 0.143 8.31 7.24 9.19
8/29/2021 12:15:00 PM 22.64 72.752 0.143 8.35 7.32 9.21
8/29/2021 12:30:00 PM 22.85 73.13 0.143 8.41 7.23 9.21
8/29/2021 12:45:00 PM 23.04 73.472 0.143 8.46 7.16 9.2
8/29/2021 1:00:00 PM 23.17 73.706 0.143 8.5 7.22 9.17
8/29/2021 1:15:00 PM 23.25 73.85 0.143 8.54 7.17 9.14
8/29/2021 1:30:00 PM 23.33 73.994 0.143 8.57 6.99 9.14
8/29/2021 1:45:00 PM 23.42 74.156 0.143 8.61 7 9.14
8/29/2021 2:00:00 PM 23.45 74.21 0.143 8.62 7.02 9.09
8/29/2021 2:15:00 PM 23.48 74.264 0.143 8.62 7 9.03
8/29/2021 2:30:00 PM 23.48 74.264 0.143 8.63 7.04 8.99
8/29/2021 2:45:00 PM 23.52 74.336 0.143 8.63 7.01 9.01
8/29/2021 3:00:00 PM 23.6 74.48 0.143 8.65 7.07 8.99
8/29/2021 3:15:00 PM 23.7 74.66 0.143 8.66 7.01 8.96
8/29/2021 3:30:00 PM 23.74 74.732 0.143 8.65 7.07 8.91
8/29/2021 3:45:00 PM 23.68 74.624 0.143 8.64 7.05 8.9
8/29/2021 4:00:00 PM 23.66 74.588 0.143 8.64 7.01 8.86
8/29/2021 4:15:00 PM 23.66 74.588 0.143 8.62 7.04 8.82
8/29/2021 4:30:00 PM 23.62 74.516 0.143 8.59 7.1 8.76
8/29/2021 4:45:00 PM 23.58 74.444 0.143 8.55 7.02 8.69
8/29/2021 5:00:00 PM 23.55 74.39 0.143 8.5 7.02 8.68
8/29/2021 5:15:00 PM 23.52 74.336 0.143 8.45 7.03 8.64
8/29/2021 5:30:00 PM 23.52 74.336 0.143 8.41 7.01 8.63
8/29/2021 5:45:00 PM 23.49 74.282 0.143 8.38 7.24 8.58
8/29/2021 6:00:00 PM 23.47 74.246 0.143 8.32 7.09 8.48
8/29/2021 6:15:00 PM 23.43 74.174 0.143 8.24 7.08 8.4
8/29/2021 6:30:00 PM 23.39 74.102 0.143 8.15 7.18 8.32
8/29/2021 6:45:00 PM 23.34 74.012 0.143 8.07 7.12 8.25
8/29/2021 7:00:00 PM 23.29 73.922 0.144 8.01 7.2 8.21
8/29/2021 7:15:00 PM 23.24 73.832 0.144 7.97 7.13 8.18
8/29/2021 7:30:00 PM 23.19 73.742 0.144 7.92 7.15 8.11
8/29/2021 7:45:00 PM 23.14 73.652 0.144 7.88 7.31 8.12
8/29/2021 8:00:00 PM 23.11 73.598 0.144 7.85 7.4 8.1
8/29/2021 8:15:00 PM 23.09 73.562 0.144 7.83 7.42 8.09
8/29/2021 8:30:00 PM 23.07 73.526 0.144 7.8 7.5 8.08
8/29/2021 8:45:00 PM 23.05 73.49 0.145 7.79 7.43 8.07
8/29/2021 9:00:00 PM 23.04 73.472 0.145 7.77 7.5 8.07
8/29/2021 9:15:00 PM 23.01 73.418 0.145 7.76 7.46 8.06
8/29/2021 9:30:00 PM 22.99 73.382 0.145 7.76 7.58 8.05
8/29/2021 9:45:00 PM 22.96 73.328 0.145 7.74 7.66 8.07
8/29/2021 10:00:00 PM 22.92 73.256 0.145 7.73 7.67 8.07
8/29/2021 10:15:00 PM 22.88 73.184 0.145 7.72 7.69 8.07
8/29/2021 10:30:00 PM 22.84 73.112 0.145 7.72 7.64 8.07
8/29/2021 10:45:00 PM 22.8 73.04 0.145 7.72 7.64 8.08
8/29/2021 11:00:00 PM 22.76 72.968 0.145 7.71 7.58 8.09
8/29/2021 11:15:00 PM 22.72 72.896 0.146 7.7 7.67 8.09
8/29/2021 11:30:00 PM 22.67 72.806 0.146 7.7 7.83 8.09
8/29/2021 11:45:00 PM 22.64 72.752 0.146 7.7 7.78 8.1
8/30/2021 12:00:00 AM 22.6 72.68 0.146 7.69 7.31 8.11
8/30/2021 12:15:00 AM 22.57 72.626 0.146 7.69 7.19 8.11
8/30/2021 12:30:00 AM 22.54 72.57201 0.146 7.69 7.26 8.12
8/30/2021 12:45:00 AM 22.52 72.536 0.146 7.69 7.36 8.12
8/30/2021 1:00:00 AM 22.48 72.464 0.147 7.69 7.24 8.13
8/30/2021 1:15:00 AM 22.45 72.41 0.147 7.69 7.14 8.13
8/30/2021 1:30:00 AM 22.41 72.338 0.147 7.68 7.18 8.14
8/30/2021 1:45:00 AM 22.38 72.284 0.147 7.67 7.4 8.14
8/30/2021 2:00:00 AM 22.34 72.212 0.147 7.67 7.22 8.14
8/30/2021 2:15:00 AM 22.31 72.158 0.147 7.67 7.4 8.15
8/30/2021 2:30:00 AM 22.27 72.086 0.148 7.67 7.37 8.16
8/30/2021 2:45:00 AM 22.24 72.032 0.148 7.67 7.32 8.16
8/30/2021 3:00:00 AM 22.21 71.978 0.148 7.67 7.3 8.16
8/30/2021 3:15:00 AM 22.17 71.906 0.148 7.67 7.31 8.16
8/30/2021 3:30:00 AM 22.14 71.852 0.148 7.66 7.32 8.18
8/30/2021 3:45:00 AM 22.11 71.798 0.148 7.66 7.33 8.17
8/30/2021 4:00:00 AM 22.07 71.726 0.149 7.66 7.34 8.18
8/30/2021 4:15:00 AM 22.04 71.672 0.149 7.66 7.41 8.19
8/30/2021 4:30:00 AM 22 71.6 0.149 7.66 7.36 8.18
8/30/2021 4:45:00 AM 21.96 71.528 0.149 7.66 7.49 8.2
8/30/2021 5:00:00 AM 21.92 71.456 0.15 7.66 7.44 8.2
8/30/2021 5:15:00 AM 21.88 71.384 0.15 7.65 7.45 8.21
8/30/2021 5:30:00 AM 21.85 71.33 0.15 7.66 7.48 8.21
8/30/2021 5:45:00 AM 21.81 71.258 0.15 7.67 7.42 8.21
8/30/2021 6:00:00 AM 21.78 71.204 0.15 7.66 7.55 8.22
8/30/2021 6:15:00 AM 21.75 71.15 0.15 7.66 7.68 8.22
8/30/2021 6:30:00 AM 21.72 71.096 0.15 7.66 7.19 8.24
8/30/2021 6:45:00 AM 21.7 71.06 0.151 7.66 7.15 8.24
8/30/2021 7:00:00 AM 21.67 71.006 0.151 7.67 7.12 8.26
8/30/2021 7:15:00 AM 21.65 70.97 0.151 7.67 7.14 8.32
8/30/2021 7:30:00 AM 21.65 70.97 0.151 7.68 7.1 8.38
8/30/2021 7:45:00 AM 21.65 70.97 0.151 7.71 7.99 8.4
8/30/2021 8:00:00 AM 21.66 70.988 0.151 7.71 7.41 8.47
8/30/2021 8:15:00 AM 21.66 70.988 0.151 7.72 7.04 8.49
8/30/2021 8:30:00 AM 21.66 70.988 0.151 7.74 6.66 8.49
8/30/2021 8:45:00 AM 21.68 71.024 0.151 7.75 7.18 8.56
8/30/2021 9:00:00 AM 21.71 71.078 0.151 7.78 6.53 8.63
8/30/2021 9:15:00 AM 21.74 71.132 0.151 7.8 6.49 8.68
8/30/2021 9:30:00 AM 21.78 71.204 0.151 7.84 6.46 8.73
8/30/2021 9:45:00 AM 21.84 71.312 0.151 7.87 7.92 8.81
8/30/2021 10:00:00 AM 21.97 71.546 0.151 7.93 6.39 8.95
8/30/2021 10:15:00 AM 22.13 71.834 0.15 8 6.33 9
8/30/2021 10:30:00 AM 22.31 72.158 0.15 8.06 6.39 9.01
8/30/2021 10:45:00 AM 22.41 72.338 0.15 8.12 6.24 9.08
8/30/2021 11:00:00 AM 22.46 72.42799 0.15 8.17 6.19 8.97
8/30/2021 11:15:00 AM 22.57 72.626 0.15 8.19 6.2 9.05
8/30/2021 11:30:00 AM 22.64 72.752 0.15 8.25 6.15 9.07
8/30/2021 11:45:00 AM 22.86 73.148 0.15 8.3 6.15 9.1
8/30/2021 12:00:00 PM 23 73.4 0.15 8.35 6.08 9.05
8/30/2021 12:15:00 PM 23.16 73.688 0.15 8.42 6.54 9.09
8/30/2021 12:30:00 PM 23.35 74.03 0.15 8.47 6.05 9.1
8/30/2021 12:45:00 PM 23.44 74.192 0.149 8.51 5.98 9.02
8/30/2021 1:00:00 PM 23.62 74.516 0.149 8.55 5.99 9
8/30/2021 1:15:00 PM 23.69 74.642 0.149 8.55 5.94 8.87
8/30/2021 1:30:00 PM 23.84 74.912 0.149 8.58 6.39 8.93
8/30/2021 1:45:00 PM 23.93 75.074 0.149 8.58 5.88 8.87
8/30/2021 2:00:00 PM 23.97 75.146 0.149 8.6 5.89 8.83
8/30/2021 2:15:00 PM 24.01 75.218 0.149 8.59 5.87 8.81
8/30/2021 2:30:00 PM 24.08 75.344 0.149 8.6 5.82 8.81
8/30/2021 2:45:00 PM 24.23 75.614 0.149 8.63 5.84 8.83
8/30/2021 3:00:00 PM 24.41 75.938 0.149 8.66 5.79 8.77
8/30/2021 3:15:00 PM 24.48 76.064 0.149 8.65 5.92 8.69
8/30/2021 3:30:00 PM 24.57 76.226 0.149 8.65 5.8 8.66
8/30/2021 3:45:00 PM 24.66 76.388 0.149 8.65 5.8 8.63
8/30/2021 4:00:00 PM 24.76 76.568 0.149 8.66 5.81 8.62
8/30/2021 4:15:00 PM 24.78 76.604 0.149 8.66 5.77 8.59
8/30/2021 4:30:00 PM 24.73 76.514 0.149 8.61 5.88 8.52
8/30/2021 4:45:00 PM 24.64 76.352 0.149 8.57 5.88 8.42
8/30/2021 5:00:00 PM 24.56 76.208 0.149 8.49 5.8 8.37
8/30/2021 5:15:00 PM 24.54 76.172 0.15 8.45 5.84 8.42
8/30/2021 5:30:00 PM 24.51 76.118 0.15 8.43 5.99 8.38
8/30/2021 5:45:00 PM 24.45 76.01 0.15 8.4 5.7 8.33
8/30/2021 6:00:00 PM 24.38 75.884 0.15 8.35 5.65 8.32
8/30/2021 6:15:00 PM 24.31 75.758 0.15 8.31 5.71 8.28
8/30/2021 6:30:00 PM 24.22 75.596 0.15 8.25 5.71 8.21
8/30/2021 6:45:00 PM 24.11 75.398 0.15 8.19 5.74 8.15
8/30/2021 7:00:00 PM 24 75.2 0.15 8.1 5.82 8.08
8/30/2021 7:15:00 PM 23.89 75.002 0.151 8.03 5.93 8.03
8/30/2021 7:30:00 PM 23.8 74.84 0.151 7.98 5.91 7.97
8/30/2021 7:45:00 PM 23.71 74.67799 0.151 7.93 5.96 7.94
8/30/2021 8:00:00 PM 23.65 74.57 0.151 7.9 5.93 7.9
8/30/2021 8:15:00 PM 23.59 74.462 0.149 7.87 6.51 7.91
8/30/2021 8:30:00 PM 23.56 74.408 0.149 7.85 6.15 7.89
8/30/2021 8:45:00 PM 23.53 74.354 0.149 7.82 6.15 7.89
8/30/2021 9:00:00 PM 23.49 74.282 0.148 7.81 6.12 7.88
8/30/2021 9:15:00 PM 23.46 74.228 0.148 7.79 6.03 7.88
8/30/2021 9:30:00 PM 23.43 74.174 0.147 7.77 6.05 7.87
8/30/2021 9:45:00 PM 23.4 74.12 0.146 7.76 6.09 7.87
8/30/2021 10:00:00 PM 23.36 74.048 0.146 7.75 6.26 7.86
8/30/2021 10:15:00 PM 23.32 73.976 0.147 7.73 6.2 7.88
8/30/2021 10:30:00 PM 23.28 73.904 0.147 7.74 6.17 7.89
8/30/2021 10:45:00 PM 23.24 73.832 0.148 7.73 6.27 7.91
8/30/2021 11:00:00 PM 23.21 73.778 0.148 7.71 6.46 7.92
8/30/2021 11:15:00 PM 23.18 73.724 0.148 7.74 8.21 7.92
8/30/2021 11:30:00 PM 23.16 73.688 0.148 7.73 8.16 7.92
8/30/2021 11:45:00 PM 23.14 73.652 0.149 7.73 8.2 7.93
8/31/2021 12:00:00 AM 23.1 73.58 0.15 7.73 8.25 7.94
8/31/2021 12:15:00 AM 23.05 73.49 0.15 7.74 8.15 7.95
8/31/2021 12:30:00 AM 23.01 73.418 0.15 7.74 8.08 7.96
8/31/2021 12:45:00 AM 22.98 73.364 0.149 7.74 7.87 7.96
8/31/2021 1:00:00 AM 22.94 73.292 0.148 7.73 7.96 7.98
8/31/2021 1:15:00 AM 22.9 73.22 0.147 7.73 7.69 7.98
8/31/2021 1:30:00 AM 22.85 73.13 0.147 7.72 7.87 7.98
8/31/2021 1:45:00 AM 22.8 73.04 0.147 7.72 8.08 7.99
8/31/2021 2:00:00 AM 22.73 72.914 0.147 7.72 8.6 8
8/31/2021 2:15:00 AM 22.66 72.788 0.147 7.71 9.48 8
8/31/2021 2:30:00 AM 22.57 72.626 0.146 7.7 10.37 8.01
8/31/2021 2:45:00 AM 22.5 72.5 0.146 7.69 10.8 8.02
8/31/2021 3:00:00 AM 22.42 72.356 0.145 7.68 10.88 8.02
8/31/2021 3:15:00 AM 22.34 72.212 0.144 7.68 10.53 8.05
8/31/2021 3:30:00 AM 22.26 72.068 0.144 7.68 10.57 8.06
8/31/2021 3:45:00 AM 22.19 71.942 0.143 7.68 10.13 8.07
8/31/2021 4:00:00 AM 22.13 71.834 0.143 7.68 10.05 8.07
8/31/2021 4:15:00 AM 22.08 71.744 0.142 7.67 9.79 8.1
8/31/2021 4:30:00 AM 22.02 71.636 0.142 7.67 9.57 8.1
8/31/2021 4:45:00 AM 21.98 71.564 0.141 7.67 9.3 8.12
8/31/2021 5:00:00 AM 21.93 71.474 0.141 7.66 9.2 8.12
8/31/2021 5:15:00 AM 21.88 71.384 0.141 7.65 9.12 8.14
8/31/2021 5:30:00 AM 21.84 71.312 0.14 7.65 9.12 8.14
8/31/2021 5:45:00 AM 21.79 71.222 0.14 7.66 9 8.14
8/31/2021 6:00:00 AM 21.74 71.132 0.14 7.66 8.83 8.16
8/31/2021 6:15:00 AM 21.7 71.06 0.14 7.64 8.64 8.15
8/31/2021 6:30:00 AM 21.65 70.97 0.14 7.63 8.61 8.18
8/31/2021 6:45:00 AM 21.6 70.88 0.14 7.63 8.47 8.2
8/31/2021 7:00:00 AM 21.55 70.79 0.14 7.66 8.37 8.21
8/31/2021 7:15:00 AM 21.51 70.718 0.141 7.66 8.24 8.25
8/31/2021 7:30:00 AM 21.48 70.664 0.141 7.66 7.81 8.29
8/31/2021 7:45:00 AM 21.46 70.628 0.141 7.68 7.63 8.31
8/31/2021 8:00:00 AM 21.44 70.592 0.141 7.68 7.62 8.37
8/31/2021 8:15:00 AM 21.42 70.556 0.141 7.69 7.52 8.43
8/31/2021 8:30:00 AM 21.42 70.556 0.142 7.72 7.65 8.5
8/31/2021 8:45:00 AM 21.42 70.556 0.142 7.74 7.36 8.59
8/31/2021 9:00:00 AM 21.43 70.574 0.142 7.76 7.01 8.67
8/31/2021 9:15:00 AM 21.45 70.61 0.142 7.8 6.99 8.75
8/31/2021 9:30:00 AM 21.48 70.664 0.142 7.84 6.93 8.82
8/31/2021 9:45:00 AM 21.52 70.736 0.142 7.89 6.82 8.88
8/31/2021 10:00:00 AM 21.55 70.79 0.143 7.92 6.74 8.93
8/31/2021 10:15:00 AM 21.59 70.862 0.143 7.97 6.63 8.97
8/31/2021 10:30:00 AM 21.64 70.952 0.144 8.02 6.67 9.03
8/31/2021 10:45:00 AM 21.72 71.096 0.144 8.08 6.68 9.1
8/31/2021 11:00:00 AM 21.82 71.276 0.145 8.15 6.52 9.16
8/31/2021 11:15:00 AM 21.9 71.42 0.145 8.22 6.58 9.19
8/31/2021 11:30:00 AM 21.98 71.564 0.146 8.28 6.59 9.21
8/31/2021 11:45:00 AM 22.04 71.672 0.146 8.34 6.59 9.21
8/31/2021 12:00:00 PM 22.1 71.78 0.146 8.38 6.58 9.21
8/31/2021 12:15:00 PM 22.14 71.852 0.147 8.43 6.6 9.21
8/31/2021 12:30:00 PM 22.18 71.924 0.147 8.48 6.56 9.21
8/31/2021 12:45:00 PM 22.24 72.032 0.147 8.51 6.49 9.23
8/31/2021 1:00:00 PM 22.36 72.248 0.147 8.57 6.44 9.25
8/31/2021 1:15:00 PM 22.47 72.446 0.147 8.61 6.37 9.24
8/31/2021 1:30:00 PM 22.56 72.608 0.147 8.64 6.36 9.21
8/31/2021 1:45:00 PM 22.65 72.77 0.147 8.66 6.35 9.17
8/31/2021 2:00:00 PM 22.8 73.04 0.146 8.69 6.28 9.13
8/31/2021 2:15:00 PM 23 73.4 0.146 8.7 6.3 9.09
8/31/2021 2:30:00 PM 23.17 73.706 0.146 8.72 6.31 9.06
8/31/2021 2:45:00 PM 23.31 73.958 0.146 8.74 6.17 9.04
8/31/2021 3:00:00 PM 23.42 74.156 0.146 8.75 6.09 9
8/31/2021 3:15:00 PM 23.49 74.282 0.146 8.74 6.17 8.93
8/31/2021 3:30:00 PM 23.56 74.408 0.146 8.73 6.01 8.89
8/31/2021 3:45:00 PM 23.63 74.534 0.146 8.73 6 8.85
8/31/2021 4:00:00 PM 23.67 74.606 0.147 8.71 6.35 8.81
8/31/2021 4:15:00 PM 23.66 74.588 0.147 8.69 6.18 8.78
8/31/2021 4:30:00 PM 23.62 74.516 0.148 8.66 6.24 8.74
8/31/2021 4:45:00 PM 23.57 74.426 0.148 8.62 6.1 8.71
8/31/2021 5:00:00 PM 23.5 74.3 0.148 8.56 5.95 8.67
8/31/2021 5:15:00 PM 23.41 74.138 0.148 8.53 6.02 8.62
8/31/2021 5:30:00 PM 23.33 73.994 0.148 8.46 5.95 8.58
8/31/2021 5:45:00 PM 23.24 73.832 0.148 8.4 6.01 8.52
8/31/2021 6:00:00 PM 23.15 73.67 0.148 8.32 6 8.47
8/31/2021 6:15:00 PM 23.06 73.508 0.148 8.25 6.06 8.42
8/31/2021 6:30:00 PM 22.97 73.346 0.148 8.17 6.08 8.34
8/31/2021 6:45:00 PM 22.88 73.184 0.148 8.11 6.03 8.31
8/31/2021 7:00:00 PM 22.81 73.058 0.148 8.06 6.1 8.25
8/31/2021 7:15:00 PM 22.74 72.932 0.148 8 6.16 8.21
8/31/2021 7:30:00 PM 22.68 72.824 0.148 7.95 6.14 8.16
8/31/2021 7:45:00 PM 22.63 72.734 0.148 7.92 6.17 8.12
8/31/2021 8:00:00 PM 22.58 72.644 0.148 7.88 6.21 8.09
8/31/2021 8:15:00 PM 22.55 72.59 0.148 7.85 6.18 8.07
8/31/2021 8:30:00 PM 22.52 72.536 0.148 7.83 6.14 8.05
8/31/2021 8:45:00 PM 22.49 72.482 0.148 7.81 6.26 8.03
8/31/2021 9:00:00 PM 22.47 72.446 0.148 7.79 6.15 8.03
8/31/2021 9:15:00 PM 22.44 72.392 0.148 7.78 6.14 8.03
8/31/2021 9:30:00 PM 22.42 72.356 0.148 7.76 6.13 8.02
8/31/2021 9:45:00 PM 22.39 72.302 0.148 7.75 6.18 8.02
8/31/2021 10:00:00 PM 22.35 72.23 0.148 7.74 6.16 8.02
8/31/2021 10:15:00 PM 22.32 72.176 0.148 7.73 6.11 8.03
8/31/2021 10:30:00 PM 22.27 72.086 0.148 7.73 6.12 8.04
8/31/2021 10:45:00 PM 22.23 72.014 0.148 7.72 6.21 8.05
8/31/2021 11:00:00 PM 22.2 71.96 0.149 7.71 6.15 8.06
8/31/2021 11:15:00 PM 22.15 71.87 0.149 7.71 6.23 8.07
8/31/2021 11:30:00 PM 22.11 71.798 0.149 7.71 6.25 8.07
8/31/2021 11:45:00 PM 22.07 71.726 0.149 7.7 6.22 8.08
9/1/2021 12:00:00 AM 22.02 71.636 0.149 7.7 6.22 8.09
9/1/2021 12:15:00 AM 21.98 71.564 0.149 7.7 6.25 8.09
9/1/2021 12:30:00 AM 21.94 71.492 0.149 7.7 6.27 8.1
9/1/2021 12:45:00 AM 21.9 71.42 0.149 7.7 6.45 8.1
9/1/2021 1:00:00 AM 21.85 71.33 0.149 7.69 6.43 8.11
9/1/2021 1:15:00 AM 21.81 71.258 0.15 7.69 6.32 8.12
9/1/2021 1:30:00 AM 21.76 71.168 0.15 7.69 6.35 8.13
9/1/2021 1:45:00 AM 21.72 71.096 0.15 7.68 6.33 8.14
9/1/2021 2:00:00 AM 21.68 71.024 0.15 7.68 6.31 8.14
9/1/2021 2:15:00 AM 21.64 70.952 0.15 7.68 6.31 8.15
9/1/2021 2:30:00 AM 21.61 70.898 0.15 7.68 6.28 8.15
9/1/2021 2:45:00 AM 21.57 70.826 0.15 7.68 6.27 8.16
9/1/2021 3:00:00 AM 21.53 70.754 0.15 7.67 6.35 8.17
9/1/2021 3:15:00 AM 21.49 70.682 0.15 7.68 6.42 8.18
9/1/2021 3:30:00 AM 21.46 70.628 0.151 7.67 6.43 8.18
9/1/2021 3:45:00 AM 21.42 70.556 0.151 7.67 6.39 8.19
9/1/2021 4:00:00 AM 21.38 70.484 0.151 7.67 6.44 8.21
9/1/2021 4:15:00 AM 21.34 70.412 0.151 7.67 6.4 8.21
9/1/2021 4:30:00 AM 21.29 70.32201 0.152 7.68 6.43 8.21
9/1/2021 4:45:00 AM 21.25 70.25 0.152 7.68 6.45 8.23
9/1/2021 5:00:00 AM 21.2 70.16 0.152 7.69 6.35 8.24
9/1/2021 5:15:00 AM 21.14 70.052 0.152 7.69 6.47 8.25
9/1/2021 5:30:00 AM 21.07 69.926 0.152 7.7 6.37 8.26
9/1/2021 5:45:00 AM 21.01 69.818 0.152 7.7 6.45 8.27
9/1/2021 6:00:00 AM 20.95 69.71 0.152 7.7 6.45 8.29
9/1/2021 6:15:00 AM 20.9 69.62 0.152 7.71 6.46 8.31
9/1/2021 6:30:00 AM 20.84 69.512 0.151 7.7 6.5 8.32
9/1/2021 6:45:00 AM 20.77 69.386 0.151 7.7 6.54 8.33
9/1/2021 7:00:00 AM 20.71 69.278 0.15 7.71 6.64 8.35
9/1/2021 7:15:00 AM 20.65 69.17 0.15 7.7 6.55 8.38
9/1/2021 7:30:00 AM 20.59 69.062 0.15 7.71 6.52 8.4
9/1/2021 7:45:00 AM 20.54 68.972 0.15 7.71 6.64 8.42
9/1/2021 8:00:00 AM 20.49 68.882 0.149 7.71 6.48 8.45
9/1/2021 8:15:00 AM 20.45 68.81 0.15 7.71 6.47 8.48
9/1/2021 8:30:00 AM 20.4 68.72 0.149 7.71 6.68 8.5
9/1/2021 8:45:00 AM 20.37 68.666 0.15 7.71 6.82 8.53
9/1/2021 9:00:00 AM 20.33 68.594 0.15 7.72 6.77 8.56
9/1/2021 9:15:00 AM 20.31 68.558 0.15 7.72 6.76 8.61
9/1/2021 9:30:00 AM 20.29 68.522 0.15 7.73 6.63 8.7
9/1/2021 9:45:00 AM 20.29 68.522 0.15 7.75 6.7 8.78
9/1/2021 10:00:00 AM 20.29 68.522 0.15 7.78 6.7 8.83
9/1/2021 10:15:00 AM 20.3 68.54 0.15 7.79 6.62 8.85
9/1/2021 10:30:00 AM 20.29 68.522 0.151 7.81 6.7 8.84
9/1/2021 10:45:00 AM 20.28 68.504 0.151 7.81 6.75 8.86
9/1/2021 11:00:00 AM 20.29 68.522 0.151 7.84 6.7 8.9
9/1/2021 11:15:00 AM 20.29 68.522 0.151 7.86 6.71 8.9
9/1/2021 11:30:00 AM 20.29 68.522 0.151 7.89 6.81 8.88
9/1/2021 11:45:00 AM 20.3 68.54 0.151 7.9 6.95 8.89
9/1/2021 12:00:00 PM 20.29 68.522 0.152 7.91 7.05 8.89
9/1/2021 12:15:00 PM 20.28 68.504 0.153 7.92 7.04 8.88
9/1/2021 12:30:00 PM 20.26 68.468 0.153 7.91 7.25 8.83
9/1/2021 12:45:00 PM 20.24 68.432 0.153 7.89 7.45 8.81
9/1/2021 1:00:00 PM 20.22 68.396 0.152 7.89 7.45 8.8
9/1/2021 1:15:00 PM 20.21 68.378 0.152 7.89 7.51 8.8
9/1/2021 1:30:00 PM 20.19 68.342 0.152 7.87 7.7 8.78
9/1/2021 1:45:00 PM 20.17 68.306 0.152 7.86 7.72 8.76
9/1/2021 2:00:00 PM 20.15 68.27 0.151 7.85 8.13 8.76
9/1/2021 2:15:00 PM 20.13 68.234 0.151 7.83 8.06 8.75
9/1/2021 2:30:00 PM 20.12 68.216 0.151 7.83 8.19 8.75
9/1/2021 2:45:00 PM 20.11 68.198 0.152 7.83 8.24 8.79
9/1/2021 3:00:00 PM 20.1 68.18 0.152 7.83 8.96 8.8
9/1/2021 3:15:00 PM 20.08 68.144 0.153 7.83 9.19 8.8
9/1/2021 3:30:00 PM 20.07 68.126 0.153 7.82 9.47 8.79
9/1/2021 3:45:00 PM 20.05 68.09 0.153 7.82 9.84 8.77
9/1/2021 4:00:00 PM 20.03 68.054 0.153 7.81 10.46 8.77
9/1/2021 4:15:00 PM 20.01 68.018 0.152 7.8 11.42 8.75
9/1/2021 4:30:00 PM 19.98 67.964 0.152 7.79 12.2 8.72
9/1/2021 4:45:00 PM 19.95 67.91 0.151 7.78 12.65 8.7
9/1/2021 5:00:00 PM 19.91 67.838 0.15 7.77 13.52 8.68
9/1/2021 5:15:00 PM 19.89 67.802 0.149 7.75 13.88 8.66
9/1/2021 5:30:00 PM 19.87 67.766 0.148 7.74 14.29 8.56
9/1/2021 5:45:00 PM 19.85 67.73 0.146 7.73 14.65 8.63
9/1/2021 6:00:00 PM 19.83 67.694 0.145 7.72 15.18 8.58
9/1/2021 6:15:00 PM 19.81 67.658 0.145 7.71 16.01 8.65
9/1/2021 6:30:00 PM 19.79 67.622 0.144 7.69 15.69 8.65
9/1/2021 6:45:00 PM 19.77 67.586 0.144 7.68 17.9 8.64
9/1/2021 7:00:00 PM 19.74 67.532 0.143 7.66 18.04 8.64
9/1/2021 7:15:00 PM 19.71 67.478 0.142 7.64 18.79 8.63
9/1/2021 7:30:00 PM 19.67 67.406 0.141 7.63 20.33 8.63
9/1/2021 7:45:00 PM 19.63 67.334 0.14 7.62 22.26 8.62
9/1/2021 8:00:00 PM 19.58 67.244 0.139 7.61 182.52 8.63
9/1/2021 8:15:00 PM 19.54 67.172 0.137 7.6 26.2 8.63
9/1/2021 8:30:00 PM 19.51 67.118 0.136 7.57 28.31 8.63
9/1/2021 8:45:00 PM 19.48 67.064 0.134 7.56 28.55 8.63
9/1/2021 9:00:00 PM 19.45 67.01 0.132 7.55 28.68 8.64
9/1/2021 9:15:00 PM 19.41 66.938 0.13 7.55 31.39 8.64
9/1/2021 9:30:00 PM 19.38 66.884 0.128 7.53 34.14 8.65
9/1/2021 9:45:00 PM 19.35 66.83 0.128 7.53 38.77 8.64
9/1/2021 10:00:00 PM 19.32 66.776 0.126 7.51 40.47 8.65
9/1/2021 10:15:00 PM 19.3 66.74 0.125 7.5 40.03 8.66
9/1/2021 10:30:00 PM 19.28 66.704 0.124 7.49 38.56 8.67
9/1/2021 10:45:00 PM 19.25 66.65 0.124 7.48 37.03 8.67
9/1/2021 11:00:00 PM 19.23 66.614 0.123 7.49 34.75 8.67
9/1/2021 11:15:00 PM 19.2 66.56 0.123 7.46 34.44 8.67
9/1/2021 11:30:00 PM 19.17 66.506 0.122 7.43 38.33 8.69
9/1/2021 11:45:00 PM 19.13 66.434 0.122 7.4 32.02 8.7
9/2/2021 12:00:00 AM 19.09 66.362 0.121 7.37 30.51 8.71
9/2/2021 12:15:00 AM 19.05 66.29 0.121 7.32 29.12 8.71
9/2/2021 12:30:00 AM 19 66.2 0.122 7.31 27.58 8.72
9/2/2021 12:45:00 AM 18.96 66.128 0.122 7.33 27.14 8.73
9/2/2021 1:00:00 AM 18.92 66.056 0.122 7.35 26.31 8.73
9/2/2021 1:15:00 AM 18.89 66.002 0.123 7.38 25.78 8.75
9/2/2021 1:30:00 AM 18.85 65.93 0.123 7.4 25.1 8.75
9/2/2021 1:45:00 AM 18.83 65.894 0.124 7.41 26.05 8.75
9/2/2021 2:00:00 AM 18.8 65.84 0.124 7.42 25.44 8.76
9/2/2021 2:15:00 AM 18.77 65.786 0.124 7.43 26.1 8.77
9/2/2021 2:30:00 AM 18.74 65.732 0.125 7.42 25.53 8.77
9/2/2021 2:45:00 AM 18.7 65.66 0.125 7.42 25.57 8.78
9/2/2021 3:00:00 AM 18.67 65.606 0.125 7.41 26.18 8.79
9/2/2021 3:15:00 AM 18.63 65.534 0.126 7.4 26.23 8.8
9/2/2021 3:30:00 AM 18.6 65.48 0.126 7.39 25.29 8.81
9/2/2021 3:45:00 AM 18.56 65.408 0.126 7.39 25.18 8.81
9/2/2021 4:00:00 AM 18.52 65.336 0.127 7.4 24.66 8.82
9/2/2021 4:15:00 AM 18.49 65.282 0.127 7.42 24.38 8.82
9/2/2021 4:30:00 AM 18.45 65.21 0.127 7.43 26.44 8.84
9/2/2021 4:45:00 AM 18.41 65.138 0.128 7.44 22.67 8.85
9/2/2021 5:00:00 AM 18.37 65.066 0.128 7.45 22.9 8.86
9/2/2021 5:15:00 AM 18.32 64.976 0.129 7.44 22.48 8.87
9/2/2021 5:30:00 AM 18.28 64.904 0.129 7.45 22.41 8.87
9/2/2021 5:45:00 AM 18.23 64.814 0.13 7.45 22.54 8.89
9/2/2021 6:00:00 AM 18.18 64.724 0.13 7.45 22.28 8.9
9/2/2021 6:15:00 AM 18.13 64.634 0.131 7.45 21.81 8.91
9/2/2021 6:30:00 AM 18.08 64.544 0.131 7.45 22.54 8.92
9/2/2021 6:45:00 AM 18.03 64.454 0.132 7.45 21.65 8.93
9/2/2021 7:00:00 AM 17.98 64.364 0.132 7.45 22.28 8.95
9/2/2021 7:15:00 AM 17.93 64.274 0.132 7.46 21.65 8.97
9/2/2021 7:30:00 AM 17.88 64.184 0.132 7.47 21.44 8.97
9/2/2021 7:45:00 AM 17.84 64.112 0.132 7.48 21.48 8.99
9/2/2021 8:00:00 AM 17.8 64.04 0.133 7.48 20.95 9
9/2/2021 8:15:00 AM 17.77 63.986 0.133 7.48 19.92 9.02
9/2/2021 8:30:00 AM 17.75 63.95 0.133 7.5 19.74 9.03
9/2/2021 8:45:00 AM 17.74 63.932 0.133 7.51 18.91 9.04
9/2/2021 9:00:00 AM 17.73 63.914 0.133 7.52 19.05 9.05
9/2/2021 9:15:00 AM 17.73 63.914 0.134 7.53 18.4 9.07
9/2/2021 9:30:00 AM 17.73 63.914 0.134 7.53 18.02 9.08
9/2/2021 9:45:00 AM 17.74 63.932 0.134 7.54 18.02 9.1
9/2/2021 10:00:00 AM 17.74 63.932 0.134 7.54 17.51 9.1
9/2/2021 10:15:00 AM 17.75